Darstellungsparameter: Aktuell verwendete Einstellungen:
Skalierung der Graphiken ... ?
xyx+y,   Skalierungsfaktor:      Skalierung: Modus: x, Faktor: 1
Darstellungszeitraum ... ?
Vom - - bis: - -   Zeitraum: 18.07.2010 - 17.07.2020
Min/Max/Avg-Anzeige ... ?
Zeige MMA aktuell
Zeige MMA Monat
Zeige MMA alles
Zeige --A aktuell
Zeige --A Monat
Zeige --A alles
Keine MMA-Anzeige
MMA:
Average (ber die Originaldaten)
MMA-Basis: 23.02.2003 - 03.08.2020
Quicknavigation für Darstellung... ?
Tage:      1T, 2T, 3T, 5T -1T -2T -3T -5T +1T +2T +3T +5T
Wochen: 1W, 2W, 3W -1W -2W -3W +1W +2W +3W
Monate: 1M, 3M, 6M -1M -3M -6M +1M +3M +6M
Jahre:    1J, 3J, 5J, 10J -1J -3J -5J -10J +1J +3J +5J +10J
Nutze für die Darstellung ... ?
Originaldaten oder ...
Mittelwerte Minima Maxima auf...
Stundenbasis Tagesbasis Wochenbasis
Monatsbasis Jahresbasis      Datenbasis: Mittelwerte auf Stundenbasis
Darstellen als:
Statistik (Auto) Statistik J:M      Darstellung:
Zur Graphik,    zurück zur Übersicht aller Sensoren.
 
Tabellarische Datenbersicht: ?
 
Sensor: Nr:Datum:Temp:Abs-Feuchte:Windchill:Wind:
Aussen-T/F 1 18-07-2010 00:00:00 18.64 C 6.06 g/m*3 18.64 C 0 km/h
2 18-07-2010 01:00:00 17.16 C 6.34 g/m*3 17.16 C 0 km/h
3 18-07-2010 02:00:00 15.96 C 6.88 g/m*3 15.96 C 0 km/h
4 18-07-2010 03:00:00 14.8 C 7.14 g/m*3 14.8 C 0 km/h
5 18-07-2010 04:00:00 13.9 C 7.48 g/m*3 13.9 C 0 km/h
6 18-07-2010 05:00:00 13 C 7.83 g/m*3 13 C 0 km/h
7 18-07-2010 06:00:00 12.56 C 8.1 g/m*3 12.56 C 0 km/h
8 18-07-2010 07:00:00 12.96 C 8.05 g/m*3 12.96 C 0 km/h
9 18-07-2010 08:00:00 14.54 C 7.9 g/m*3 14.54 C 0 km/h
10 18-07-2010 09:00:00 17.16 C 7.68 g/m*3 17.16 C 0 km/h
11 18-07-2010 10:00:00 20.18 C 7.09 g/m*3 20.18 C 0 km/h
12 18-07-2010 11:00:00 22.12 C 5.75 g/m*3 22.12 C 0 km/h
13 18-07-2010 12:00:00 25.16 C 4.88 g/m*3 25.16 C 0 km/h
14 18-07-2010 13:00:00 27.62 C 5.33 g/m*3 27.62 C 0 km/h
15 18-07-2010 14:00:00 27.34 C 5.24 g/m*3 27.34 C 0 km/h
16 18-07-2010 15:00:00 29.58 C 5.93 g/m*3 29.58 C 0 km/h
17 18-07-2010 16:00:00 30.76 C 6.32 g/m*3 30.76 C 0 km/h
18 18-07-2010 17:00:00 31.26 C 6.49 g/m*3 31.26 C 0 km/h
19 18-07-2010 18:00:00 31.26 C 6.49 g/m*3 31.26 C 0 km/h
20 18-07-2010 19:00:00 30.48 C 6.22 g/m*3 30.48 C 0 km/h
21 18-07-2010 20:00:00 29.1 C 5.78 g/m*3 29.1 C 0 km/h
22 18-07-2010 21:00:00 24.12 C 5.39 g/m*3 24.12 C 0 km/h
23 18-07-2010 22:00:00 21.72 C 5.92 g/m*3 21.72 C 0 km/h
24 18-07-2010 23:00:00 20.34 C 6.28 g/m*3 20.34 C 0 km/h
25 19-07-2010 00:00:00 18.92 C 6.36 g/m*3 18.92 C 0 km/h
Sensor: Nr:Datum:Temp:Abs-Feuchte:Windchill:Wind:
Aussen-T/F 26 19-07-2010 01:00:00 17.68 C 6.66 g/m*3 17.68 C 0 km/h
27 19-07-2010 02:00:00 16.46 C 6.86 g/m*3 16.46 C 0 km/h
28 19-07-2010 03:00:00 15.48 C 7.1 g/m*3 15.48 C 0 km/h
29 19-07-2010 04:00:00 14.62 C 7.32 g/m*3 14.62 C 0 km/h
30 19-07-2010 05:00:00 13.8 C 7.51 g/m*3 13.8 C 0 km/h
31 19-07-2010 06:00:00 13.58 C 7.88 g/m*3 13.58 C 0 km/h
32 19-07-2010 07:00:00 14.02 C 8.21 g/m*3 14.02 C 0 km/h
33 19-07-2010 08:00:00 15.3 C 8.28 g/m*3 15.3 C 0 km/h
34 19-07-2010 09:00:00 18.52 C 8.55 g/m*3 18.52 C 0 km/h
35 19-07-2010 10:00:00 22.46 C 8.01 g/m*3 22.46 C 0 km/h
36 19-07-2010 11:00:00 25.78 C 6.54 g/m*3 25.78 C 0 km/h
37 19-07-2010 12:00:00 28.82 C 5.8 g/m*3 28.82 C 0 km/h
38 19-07-2010 13:00:00 31.2 C 6.47 g/m*3 31.2 C 0 km/h
39 19-07-2010 14:00:00 30.84 C 6.35 g/m*3 30.84 C 0 km/h
40 19-07-2010 15:00:00 31.7 C 6.64 g/m*3 31.7 C 0 km/h
41 19-07-2010 16:00:00 32.82 C 7.05 g/m*3 32.82 C 0 km/h
42 19-07-2010 17:00:00 33.58 C 7.34 g/m*3 33.58 C 0 km/h
43 19-07-2010 18:00:00 33.5 C 7.31 g/m*3 33.5 C 0 km/h
44 19-07-2010 19:00:00 32.84 C 7.06 g/m*3 32.84 C 0 km/h
45 19-07-2010 20:00:00 31.38 C 6.53 g/m*3 31.38 C 0 km/h
46 19-07-2010 21:00:00 26.84 C 6.79 g/m*3 26.84 C 0 km/h
47 19-07-2010 22:00:00 24.12 C 7.05 g/m*3 24.12 C 0 km/h
48 19-07-2010 23:00:00 22.9 C 7.32 g/m*3 22.9 C 0 km/h
49 20-07-2010 00:00:00 21.74 C 7.84 g/m*3 21.74 C 0 km/h
50 20-07-2010 01:00:00 20.42 C 8.08 g/m*3 20.42 C 0 km/h
Sensor: Nr:Datum:Temp:Abs-Feuchte:Windchill:Wind:
Aussen-T/F 51 20-07-2010 02:00:00 19.32 C 8.24 g/m*3 19.32 C 0 km/h
52 20-07-2010 03:00:00 18.2 C 8.36 g/m*3 18.2 C 0 km/h
53 20-07-2010 04:00:00 17.24 C 8.48 g/m*3 17.24 C 0 km/h
54 20-07-2010 05:00:00 16.48 C 8.58 g/m*3 16.48 C 0 km/h
55 20-07-2010 06:00:00 16.1 C 8.96 g/m*3 16.1 C 0 km/h
56 20-07-2010 07:00:00 16.78 C 9.25 g/m*3 16.78 C 0 km/h
57 20-07-2010 08:00:00 18.04 C 9.24 g/m*3 18.04 C 0 km/h
58 20-07-2010 09:00:00 20.96 C 9.21 g/m*3 20.96 C 0 km/h
59 20-07-2010 10:00:00 24.8 C 8.29 g/m*3 24.8 C 0 km/h
60 20-07-2010 11:00:00 27.74 C 6.76 g/m*3 27.74 C 0 km/h
61 20-07-2010 12:00:00 30.42 C 6.33 g/m*3 30.42 C 0 km/h
62 20-07-2010 13:00:00 32.22 C 6.83 g/m*3 32.22 C 0 km/h
63 20-07-2010 14:00:00 31.78 C 6.67 g/m*3 31.78 C 0 km/h
64 20-07-2010 15:00:00 32.34 C 6.87 g/m*3 32.34 C 0 km/h
65 20-07-2010 16:00:00 33.06 C 7.14 g/m*3 33.06 C 0 km/h
66 20-07-2010 17:00:00 33.26 C 7.22 g/m*3 33.26 C 0 km/h
67 20-07-2010 18:00:00 32.92 C 7.09 g/m*3 32.92 C 0 km/h
68 20-07-2010 19:00:00 32.02 C 6.76 g/m*3 32.02 C 0 km/h
69 20-07-2010 20:00:00 30.72 C 6.37 g/m*3 30.72 C 0 km/h
70 20-07-2010 21:00:00 26.48 C 6.4 g/m*3 26.48 C 0 km/h
71 20-07-2010 22:00:00 24.4 C 6.59 g/m*3 24.4 C 0 km/h
72 20-07-2010 23:00:00 23.48 C 6.93 g/m*3 23.48 C 0 km/h
73 21-07-2010 00:00:00 21.98 C 7.6 g/m*3 21.98 C 0 km/h
74 21-07-2010 01:00:00 20.86 C 8.03 g/m*3 20.86 C 0 km/h
75 21-07-2010 02:00:00 19.68 C 8.31 g/m*3 19.68 C 0 km/h
Sensor: Nr:Datum:Temp:Abs-Feuchte:Windchill:Wind:
Aussen-T/F 76 21-07-2010 03:00:00 18.78 C 8.4 g/m*3 18.78 C 0 km/h
77 21-07-2010 04:00:00 18.08 C 8.58 g/m*3 18.08 C 0 km/h
78 21-07-2010 05:00:00 17.38 C 8.76 g/m*3 17.38 C 0 km/h
79 21-07-2010 06:00:00 17.16 C 8.91 g/m*3 17.16 C 0 km/h
80 21-07-2010 07:00:00 17.8 C 9.32 g/m*3 17.8 C 0 km/h
81 21-07-2010 08:00:00 19.2 C 9.07 g/m*3 19.2 C 0 km/h
82 21-07-2010 09:00:00 22.32 C 9.41 g/m*3 22.32 C 0 km/h
83 21-07-2010 10:00:00 26.54 C 8.63 g/m*3 26.54 C 0 km/h
84 21-07-2010 11:00:00 29.66 C 7.38 g/m*3 29.66 C 0 km/h
85 21-07-2010 12:00:00 31.36 C 6.59 g/m*3 31.36 C 0 km/h
86 21-07-2010 13:00:00 32.52 C 6.94 g/m*3 32.52 C 0 km/h
87 21-07-2010 14:00:00 32.58 C 6.96 g/m*3 32.58 C 0 km/h
88 21-07-2010 15:00:00 32.56 C 6.96 g/m*3 32.56 C 0 km/h
89 21-07-2010 16:00:00 32.44 C 6.91 g/m*3 32.44 C 0 km/h
90 21-07-2010 17:00:00 31.5 C 6.77 g/m*3 31.5 C 0 km/h
91 21-07-2010 18:00:00 30.12 C 7.33 g/m*3 30.12 C 0 km/h
92 21-07-2010 19:00:00 28.72 C 8.03 g/m*3 28.72 C 0 km/h
93 21-07-2010 20:00:00 23.58 C 12.15 g/m*3 23.58 C 0 km/h
94 21-07-2010 21:00:00 23.02 C 11.85 g/m*3 23.02 C 0 km/h
95 21-07-2010 22:00:00 23 C 11.76 g/m*3 23 C 0 km/h
96 21-07-2010 23:00:00 22.88 C 11.47 g/m*3 22.88 C 0 km/h
97 22-07-2010 00:00:00 22.56 C 11.58 g/m*3 22.56 C 0 km/h
98 22-07-2010 01:00:00 22.16 C 11.64 g/m*3 22.16 C 0 km/h
99 22-07-2010 02:00:00 21.28 C 11.51 g/m*3 21.28 C 0 km/h
100 22-07-2010 03:00:00 20.92 C 11.16 g/m*3 20.92 C 0 km/h
Sensor: Nr:Datum:Temp:Abs-Feuchte:Windchill:Wind:
Aussen-T/F 101 22-07-2010 04:00:00 20.5 C 10.36 g/m*3 20.5 C 0 km/h
102 22-07-2010 05:00:00 19.9 C 9.83 g/m*3 19.9 C 0 km/h
103 22-07-2010 06:00:00 18.92 C 10.93 g/m*3 18.92 C 0 km/h
104 22-07-2010 07:00:00 19.24 C 11.54 g/m*3 19.24 C 0 km/h
105 22-07-2010 08:00:00 21.04 C 10.94 g/m*3 21.04 C 0 km/h
106 22-07-2010 09:00:00 22.06 C 10.32 g/m*3 22.06 C 0 km/h
107 22-07-2010 10:00:00 21.58 C 10.68 g/m*3 21.58 C 0 km/h
108 22-07-2010 11:00:00 21.78 C 11.84 g/m*3 21.78 C 0 km/h
109 22-07-2010 12:00:00 22.38 C 11.47 g/m*3 22.38 C 0 km/h
110 22-07-2010 13:00:00 20.9 C 12.79 g/m*3 20.9 C 0 km/h
111 22-07-2010 14:00:00 21.26 C 12.53 g/m*3 21.26 C 0 km/h
112 22-07-2010 15:00:00 21.38 C 12.92 g/m*3 21.38 C 0 km/h
113 22-07-2010 16:00:00 23.2 C 11.56 g/m*3 23.2 C 0 km/h
114 22-07-2010 17:00:00 22.04 C 13.31 g/m*3 22.04 C 0 km/h
115 22-07-2010 18:00:00 23 C 12.09 g/m*3 23 C 0 km/h
116 22-07-2010 19:00:00 22.68 C 11.91 g/m*3 22.68 C 0 km/h
117 22-07-2010 20:00:00 21.86 C 12.01 g/m*3 21.86 C 0 km/h
118 22-07-2010 21:00:00 21.06 C 11.91 g/m*3 21.06 C 0 km/h
119 22-07-2010 22:00:00 20.48 C 11.8 g/m*3 20.48 C 0 km/h
120 22-07-2010 23:00:00 20.2 C 11.82 g/m*3 20.2 C 0 km/h
121 23-07-2010 00:00:00 20.1 C 12.06 g/m*3 20.1 C 0 km/h
122 23-07-2010 01:00:00 20 C 12.3 g/m*3 20 C 0 km/h
123 23-07-2010 02:00:00 19.22 C 12.22 g/m*3 19.22 C 0 km/h
124 23-07-2010 03:00:00 16.34 C 11.63 g/m*3 16.34 C 0 km/h
125 23-07-2010 04:00:00 16.04 C 11.69 g/m*3 16.04 C 0 km/h
Sensor: Nr:Datum:Temp:Abs-Feuchte:Windchill:Wind:
Aussen-T/F 126 23-07-2010 05:00:00 15.9 C 11.51 g/m*3 15.9 C 0 km/h
127 23-07-2010 06:00:00 15.86 C 11.54 g/m*3 15.86 C 0 km/h
128 23-07-2010 07:00:00 17.26 C 12.26 g/m*3 17.26 C 0 km/h
129 23-07-2010 08:00:00 18.02 C 12.09 g/m*3 18.02 C 0 km/h
130 23-07-2010 09:00:00 19.08 C 11.82 g/m*3 19.08 C 0 km/h
131 23-07-2010 10:00:00 21.4 C 10.46 g/m*3 21.4 C 0 km/h
132 23-07-2010 11:00:00 24.14 C 9.69 g/m*3 24.14 C 0 km/h
133 23-07-2010 12:00:00 26.46 C 8.09 g/m*3 26.46 C 0 km/h
134 23-07-2010 13:00:00 27.82 C 6.62 g/m*3 27.82 C 0 km/h
135 23-07-2010 14:00:00 29.34 C 6.55 g/m*3 29.34 C 0 km/h
136 23-07-2010 15:00:00 28.4 C 6.39 g/m*3 28.4 C 0 km/h
137 23-07-2010 16:00:00 28.54 C 6.33 g/m*3 28.54 C 0 km/h
138 23-07-2010 17:00:00 22.32 C 9.33 g/m*3 22.32 C 0 km/h
139 23-07-2010 18:00:00 18.1 C 11.53 g/m*3 18.1 C 0 km/h
140 23-07-2010 19:00:00 16.96 C 12.18 g/m*3 16.96 C 0 km/h
141 23-07-2010 20:00:00 15.98 C 12.3 g/m*3 15.98 C 0 km/h
142 23-07-2010 21:00:00 15.58 C 12.25 g/m*3 15.58 C 0 km/h
143 23-07-2010 22:00:00 15.125 C 12.02 g/m*3 15.13 C 0 km/h
144 23-07-2010 23:00:00 15.1 C 12.08 g/m*3 15.1 C 0 km/h
145 24-07-2010 00:00:00 15.02 C 12.07 g/m*3 15.02 C 0 km/h
146 24-07-2010 01:00:00 15.12 C 12.14 g/m*3 15.12 C 0 km/h
147 24-07-2010 02:00:00 15.26 C 12.38 g/m*3 15.26 C 0 km/h
148 24-07-2010 03:00:00 15.56 C 12.6 g/m*3 15.56 C 0 km/h
149 24-07-2010 04:00:00 15.64 C 12.4 g/m*3 15.64 C 0 km/h
150 24-07-2010 05:00:00 15.54 C 11.95 g/m*3 15.54 C 0 km/h
Sensor: Nr:Datum:Temp:Abs-Feuchte:Windchill:Wind:
Aussen-T/F 151 24-07-2010 06:00:00 15.42 C 11.65 g/m*3 15.42 C 0 km/h
152 24-07-2010 07:00:00 15.5 C 11.58 g/m*3 15.5 C 0 km/h
153 24-07-2010 08:00:00 16.16 C 11.31 g/m*3 16.16 C 0 km/h
154 24-07-2010 09:00:00 17.24 C 10.8 g/m*3 17.24 C 0 km/h
155 24-07-2010 10:00:00 18.62 C 9.66 g/m*3 18.62 C 0 km/h
156 24-07-2010 11:00:00 19.44 C 8.83 g/m*3 19.44 C 0 km/h
157 24-07-2010 12:00:00 20.52 C 8.19 g/m*3 20.52 C 0 km/h
158 24-07-2010 13:00:00 22.72 C 6.63 g/m*3 22.72 C 0 km/h
159 24-07-2010 14:00:00 23.48 C 6.17 g/m*3 23.48 C 0 km/h
160 24-07-2010 15:00:00 24.1 C 5.47 g/m*3 24.1 C 0 km/h
161 24-07-2010 16:00:00 23.86 C 4.66 g/m*3 23.86 C 0 km/h
162 24-07-2010 17:00:00 24.36 C 4.44 g/m*3 24.36 C 0 km/h
163 24-07-2010 18:00:00 23.48 C 4.22 g/m*3 23.48 C 0 km/h
164 24-07-2010 19:00:00 23.22 C 4.16 g/m*3 23.22 C 0 km/h
165 24-07-2010 20:00:00 22.72 C 4.05 g/m*3 22.72 C 0 km/h
166 24-07-2010 21:00:00 19.76 C 4.5 g/m*3 19.76 C 0 km/h
167 24-07-2010 22:00:00 17.5 C 5.19 g/m*3 17.5 C 0 km/h
168 24-07-2010 23:00:00 15.92 C 6.1 g/m*3 15.92 C 0 km/h
169 25-07-2010 00:00:00 14.54 C 6.58 g/m*3 14.54 C 0 km/h
170 25-07-2010 01:00:00 13.5 C 6.81 g/m*3 13.5 C 0 km/h
171 25-07-2010 02:00:00 12.7 C 6.97 g/m*3 12.7 C 0 km/h
172 25-07-2010 03:00:00 11.86 C 7.06 g/m*3 11.86 C 0 km/h
173 25-07-2010 04:00:00 10.96 C 7.31 g/m*3 10.96 C 0 km/h
174 25-07-2010 05:00:00 10.16 C 7.38 g/m*3 10.16 C 0 km/h
175 25-07-2010 06:00:00 10.04 C 7.4 g/m*3 10.04 C 0 km/h
Sensor: Nr:Datum:Temp:Abs-Feuchte:Windchill:Wind:
Aussen-T/F 176 25-07-2010 07:00:00 10.92 C 7.55 g/m*3 10.92 C 0 km/h
177 25-07-2010 08:00:00 12.12 C 7.9 g/m*3 12.12 C 0 km/h
178 25-07-2010 09:00:00 14.94 C 7.61 g/m*3 14.94 C 0 km/h
179 25-07-2010 10:00:00 17.8 C 6.77 g/m*3 17.8 C 0 km/h
180 25-07-2010 11:00:00 20.86 C 6.14 g/m*3 20.86 C 0 km/h
181 25-07-2010 12:00:00 22.94 C 5.9 g/m*3 22.94 C 0 km/h
182 25-07-2010 13:00:00 23.38 C 6.22 g/m*3 23.38 C 0 km/h
183 25-07-2010 14:00:00 22.2 C 6.95 g/m*3 22.2 C 0 km/h
184 25-07-2010 15:00:00 21.58 C 7.01 g/m*3 21.58 C 0 km/h
185 25-07-2010 16:00:00 21.98 C 7.13 g/m*3 21.98 C 0 km/h
186 25-07-2010 17:00:00 23.4 C 6.6 g/m*3 23.4 C 0 km/h
187 25-07-2010 18:00:00 22.26 C 7.53 g/m*3 22.26 C 0 km/h
188 25-07-2010 19:00:00 20.8 C 7.89 g/m*3 20.8 C 0 km/h
189 25-07-2010 20:00:00 20.16 C 7.82 g/m*3 20.16 C 0 km/h
190 25-07-2010 21:00:00 19.08 C 9.43 g/m*3 19.08 C 0 km/h
191 25-07-2010 22:00:00 18.38 C 10.18 g/m*3 18.38 C 0 km/h
192 25-07-2010 23:00:00 17.88 C 10.28 g/m*3 17.88 C 0 km/h
193 26-07-2010 00:00:00 17.56 C 9.93 g/m*3 17.56 C 0 km/h
194 26-07-2010 01:00:00 17.26 C 9.99 g/m*3 17.26 C 0 km/h
195 26-07-2010 02:00:00 16.8 C 10.04 g/m*3 16.8 C 0 km/h
196 26-07-2010 03:00:00 16.42 C 10.2 g/m*3 16.42 C 0 km/h
197 26-07-2010 04:00:00 16.24 C 10.59 g/m*3 16.24 C 0 km/h
198 26-07-2010 05:00:00 15.52 C 11.28 g/m*3 15.52 C 0 km/h
199 26-07-2010 06:00:00 15.4 C 11.46 g/m*3 15.4 C 0 km/h
200 26-07-2010 07:00:00 16.02 C 11.95 g/m*3 16.02 C 0 km/h
Sensor: Nr:Datum:Temp:Abs-Feuchte:Windchill:Wind:
Aussen-T/F 201 26-07-2010 08:00:00 16.98 C 11.91 g/m*3 16.98 C 0 km/h
202 26-07-2010 09:00:00 18.38 C 11.72 g/m*3 18.38 C 0 km/h
203 26-07-2010 10:00:00 20.24 C 10.76 g/m*3 20.24 C 0 km/h
204 26-07-2010 11:00:00 20.94 C 10.59 g/m*3 20.94 C 0 km/h
205 26-07-2010 12:00:00 19.04 C 12.55 g/m*3 19.04 C 0 km/h
206 26-07-2010 13:00:00 18.16 C 12.72 g/m*3 18.16 C 0 km/h
207 26-07-2010 14:00:00 17.36 C 13.16 g/m*3 17.36 C 0 km/h
208 26-07-2010 15:00:00 17.92 C 13.7 g/m*3 17.92 C 0 km/h
209 26-07-2010 16:00:00 19.68 C 13.4 g/m*3 19.68 C 0 km/h
210 26-07-2010 17:00:00 19.08 C 11.33 g/m*3 19.08 C 0 km/h
211 26-07-2010 18:00:00 17.16 C 11.34 g/m*3 17.16 C 0 km/h
212 26-07-2010 19:00:00 16.92 C 11.61 g/m*3 16.92 C 0 km/h
213 26-07-2010 20:00:00 16.16 C 11.12 g/m*3 16.16 C 0 km/h
214 26-07-2010 21:00:00 15.3 C 11.28 g/m*3 15.3 C 0 km/h
215 26-07-2010 22:00:00 15.22 C 10.86 g/m*3 15.22 C 0 km/h
216 26-07-2010 23:00:00 15.26 C 10.84 g/m*3 15.26 C 0 km/h
217 27-07-2010 00:00:00 15.34 C 11.13 g/m*3 15.34 C 0 km/h
218 27-07-2010 01:00:00 15.48 C 11.2 g/m*3 15.48 C 0 km/h
219 27-07-2010 02:00:00 15.6 C 11.04 g/m*3 15.6 C 0 km/h
220 27-07-2010 03:00:00 15.42 C 10.97 g/m*3 15.42 C 0 km/h
221 27-07-2010 04:00:00 15.26 C 10.84 g/m*3 15.26 C 0 km/h
222 27-07-2010 05:00:00 15.14 C 10.84 g/m*3 15.14 C 0 km/h
223 27-07-2010 06:00:00 15.28 C 10.77 g/m*3 15.28 C 0 km/h
224 27-07-2010 07:00:00 15.68 C 10.64 g/m*3 15.68 C 0 km/h
225 27-07-2010 08:00:00 16.22 C 10.6 g/m*3 16.22 C 0 km/h
Sensor: Nr:Datum:Temp:Abs-Feuchte:Windchill:Wind:
Aussen-T/F 226 27-07-2010 09:00:00 16.88 C 10.54 g/m*3 16.88 C 0 km/h
227 27-07-2010 10:00:00 18.52 C 10.07 g/m*3 18.52 C 0 km/h
228 27-07-2010 11:00:00 20.18 C 9.57 g/m*3 20.18 C 0 km/h
229 27-07-2010 12:00:00 22.08 C 9.09 g/m*3 22.08 C 0 km/h
230 27-07-2010 13:00:00 23.96 C 7.9 g/m*3 23.96 C 0 km/h
231 27-07-2010 14:00:00 24.42 C 7.66 g/m*3 24.42 C 0 km/h
232 27-07-2010 15:00:00 25.38 C 7.57 g/m*3 25.38 C 0 km/h
233 27-07-2010 16:00:00 27.9 C 6.82 g/m*3 27.9 C 0 km/h
234 27-07-2010 17:00:00 28.32 C 6.2 g/m*3 28.32 C 0 km/h
235 27-07-2010 18:00:00 25.06 C 7.67 g/m*3 25.06 C 0 km/h
236 27-07-2010 19:00:00 23.42 C 8.63 g/m*3 23.42 C 0 km/h
237 27-07-2010 20:00:00 22 C 8.38 g/m*3 22 C 0 km/h
238 27-07-2010 21:00:00 20.46 C 8.7 g/m*3 20.46 C 0 km/h
239 27-07-2010 22:00:00 19.12 C 9.16 g/m*3 19.12 C 0 km/h
240 27-07-2010 23:00:00 18.44 C 9.33 g/m*3 18.44 C 0 km/h
241 28-07-2010 00:00:00 18.2 C 9.79 g/m*3 18.2 C 0 km/h
242 28-07-2010 01:00:00 17.16 C 9.85 g/m*3 17.16 C 0 km/h
243 28-07-2010 02:00:00 16.96 C 10.22 g/m*3 16.96 C 0 km/h
244 28-07-2010 03:00:00 17.04 C 10.33 g/m*3 17.04 C 0 km/h
245 28-07-2010 04:00:00 16.96 C 10.48 g/m*3 16.96 C 0 km/h
246 28-07-2010 05:00:00 16.84 C 10.58 g/m*3 16.84 C 0 km/h
247 28-07-2010 06:00:00 17.02 C 10.81 g/m*3 17.02 C 0 km/h
248 28-07-2010 07:00:00 16.32 C 12.11 g/m*3 16.32 C 0 km/h
249 28-07-2010 08:00:00 17.1 C 13.01 g/m*3 17.1 C 0 km/h
250 28-07-2010 09:00:00 17.56 C 12.78 g/m*3 17.56 C 0 km/h
Sensor: Nr:Datum:Temp:Abs-Feuchte:Windchill:Wind:
Aussen-T/F 251 28-07-2010 10:00:00 17.7 C 13.25 g/m*3 17.7 C 0 km/h
252 28-07-2010 11:00:00 20.26 C 13.58 g/m*3 20.26 C 0 km/h
253 28-07-2010 12:00:00 21.22 C 13.02 g/m*3 21.22 C 0 km/h
254 28-07-2010 13:00:00 23.74 C 12.26 g/m*3 23.74 C 0 km/h
255 28-07-2010 14:00:00 25.74 C 9.31 g/m*3 25.74 C 0 km/h
256 28-07-2010 15:00:00 26 C 7.69 g/m*3 26 C 0 km/h
257 28-07-2010 16:00:00 27.78 C 7.04 g/m*3 27.78 C 0 km/h
258 28-07-2010 17:00:00 28.8 C 6.65 g/m*3 28.8 C 0 km/h
259 28-07-2010 18:00:00 26.74 C 6.7 g/m*3 26.74 C 0 km/h
260 28-07-2010 19:00:00 22.5 C 10.07 g/m*3 22.5 C 0 km/h
261 28-07-2010 20:00:00 21.78 C 10.2 g/m*3 21.78 C 0 km/h
262 28-07-2010 21:00:00 20.6 C 10.63 g/m*3 20.6 C 0 km/h
263 28-07-2010 22:00:00 19.78 C 11.26 g/m*3 19.78 C 0 km/h
264 28-07-2010 23:00:00 18.38 C 13.01 g/m*3 18.38 C 0 km/h
265 29-07-2010 00:00:00 17.16 C 13.12 g/m*3 17.16 C 0 km/h
266 29-07-2010 01:00:00 16.06 C 12.63 g/m*3 16.06 C 0 km/h
267 29-07-2010 02:00:00 15.16 C 12.04 g/m*3 15.16 C 0 km/h
268 29-07-2010 03:00:00 14.76 C 11.85 g/m*3 14.76 C 0 km/h
269 29-07-2010 04:00:00 14.44 C 11.65 g/m*3 14.44 C 0 km/h
270 29-07-2010 05:00:00 14.34 C 11.6 g/m*3 14.34 C 0 km/h
271 29-07-2010 06:00:00 14.62 C 11.9 g/m*3 14.62 C 0 km/h
272 29-07-2010 07:00:00 14.88 C 12.07 g/m*3 14.88 C 0 km/h
273 29-07-2010 08:00:00 15.38 C 12.47 g/m*3 15.38 C 0 km/h
274 29-07-2010 09:00:00 15.48 C 12.23 g/m*3 15.48 C 0 km/h
275 29-07-2010 10:00:00 15.22 C 11.67 g/m*3 15.22 C 0 km/h
Sensor: Nr:Datum:Temp:Abs-Feuchte:Windchill:Wind:
Aussen-T/F 276 29-07-2010 11:00:00 14.64 C 11.42 g/m*3 14.64 C 0 km/h
277 29-07-2010 12:00:00 17.28 C 12.6 g/m*3 17.28 C 0 km/h
278 29-07-2010 13:00:00 18.44 C 11.1 g/m*3 18.44 C 0 km/h
279 29-07-2010 14:00:00 17.76 C 10.93 g/m*3 17.76 C 0 km/h
280 29-07-2010 15:00:00 18.24 C 10.75 g/m*3 18.24 C 0 km/h
281 29-07-2010 16:00:00 19.64 C 10.93 g/m*3 19.64 C 0 km/h
282 29-07-2010 17:00:00 17.12 C 11.16 g/m*3 17.12 C 0 km/h
283 29-07-2010 18:00:00 17.82 C 11.31 g/m*3 17.82 C 0 km/h
284 29-07-2010 19:00:00 18.34 C 9.69 g/m*3 18.34 C 0 km/h
285 29-07-2010 20:00:00 17.6 C 9.51 g/m*3 17.6 C 0 km/h
286 29-07-2010 21:00:00 16.04 C 9.92 g/m*3 16.04 C 0 km/h
287 29-07-2010 22:00:00 15.66 C 9.9 g/m*3 15.66 C 0 km/h
288 29-07-2010 23:00:00 15.7 C 9.61 g/m*3 15.7 C 0 km/h
289 30-07-2010 00:00:00 15.2 C 9.84 g/m*3 15.2 C 0 km/h
290 30-07-2010 01:00:00 15.2 C 9.86 g/m*3 15.2 C 0 km/h
291 30-07-2010 02:00:00 14.74 C 9.89 g/m*3 14.74 C 0 km/h
292 30-07-2010 03:00:00 14.6 C 10.24 g/m*3 14.6 C 0 km/h
293 30-07-2010 04:00:00 14.42 C 10.4 g/m*3 14.42 C 0 km/h
294 30-07-2010 05:00:00 14.7 C 10.6 g/m*3 14.7 C 0 km/h
295 30-07-2010 06:00:00 14.76 C 10.51 g/m*3 14.76 C 0 km/h
296 30-07-2010 07:00:00 15.18 C 10.53 g/m*3 15.18 C 0 km/h
297 30-07-2010 08:00:00 16.28 C 10.56 g/m*3 16.28 C 0 km/h
298 30-07-2010 09:00:00 17.26 C 9.79 g/m*3 17.26 C 0 km/h
299 30-07-2010 10:00:00 19 C 9 g/m*3 19 C 0 km/h
300 30-07-2010 11:00:00 22 C 8.35 g/m*3 22 C 0 km/h
Sensor: Nr:Datum:Temp:Abs-Feuchte:Windchill:Wind:
Aussen-T/F 301 30-07-2010 12:00:00 21.54 C 8.32 g/m*3 21.54 C 0 km/h
302 30-07-2010 13:00:00 24 C 7.48 g/m*3 24 C 0 km/h
303 30-07-2010 14:00:00 24.48 C 7.6 g/m*3 24.48 C 0 km/h
304 30-07-2010 15:00:00 25.14 C 7.15 g/m*3 25.14 C 0 km/h
305 30-07-2010 16:00:00 25.94 C 6.6 g/m*3 25.94 C 0 km/h
306 30-07-2010 17:00:00 26.82 C 6.42 g/m*3 26.82 C 0 km/h
307 30-07-2010 18:00:00 26.8 C 6.06 g/m*3 26.8 C 0 km/h
308 30-07-2010 19:00:00 26.02 C 6.97 g/m*3 26.02 C 0 km/h
309 30-07-2010 20:00:00 22.54 C 7.53 g/m*3 22.54 C 0 km/h
310 30-07-2010 21:00:00 19.84 C 7.7 g/m*3 19.84 C 0 km/h
311 30-07-2010 22:00:00 18.5 C 7.47 g/m*3 18.5 C 0 km/h
312 30-07-2010 23:00:00 17 C 8.54 g/m*3 17 C 0 km/h
313 31-07-2010 00:00:00 15.92 C 8.73 g/m*3 15.92 C 0 km/h
314 31-07-2010 01:00:00 14.84 C 8.79 g/m*3 14.84 C 0 km/h
315 31-07-2010 02:00:00 14.04 C 8.66 g/m*3 14.04 C 0 km/h
316 31-07-2010 03:00:00 13.34 C 8.64 g/m*3 13.34 C 0 km/h
317 31-07-2010 04:00:00 12.7 C 8.66 g/m*3 12.7 C 0 km/h
318 31-07-2010 05:00:00 12.26 C 8.67 g/m*3 12.26 C 0 km/h
319 31-07-2010 06:00:00 12.02 C 8.77 g/m*3 12.02 C 0 km/h
320 31-07-2010 07:00:00 12.6 C 9.12 g/m*3 12.6 C 0 km/h
321 31-07-2010 08:00:00 13.84 C 9.27 g/m*3 13.84 C 0 km/h
322 31-07-2010 09:00:00 16.36 C 9.55 g/m*3 16.36 C 0 km/h
323 31-07-2010 10:00:00 22 C 9.04 g/m*3 22 C 0 km/h
324 31-07-2010 11:00:00 23.48 C 7.44 g/m*3 23.48 C 0 km/h
325 31-07-2010 12:00:00 24.12 C 6.83 g/m*3 24.12 C 0 km/h
Sensor: Nr:Datum:Temp:Abs-Feuchte:Windchill:Wind:
Aussen-T/F 326 31-07-2010 13:00:00 25.56 C 6.56 g/m*3 25.56 C 0 km/h
327 31-07-2010 14:00:00 26.84 C 6.63 g/m*3 26.84 C 0 km/h
328 31-07-2010 15:00:00 27.88 C 6.32 g/m*3 27.88 C 0 km/h
329 31-07-2010 16:00:00 29.44 C 6 g/m*3 29.44 C 0 km/h
330 31-07-2010 17:00:00 29.84 C 6.01 g/m*3 29.84 C 0 km/h
331 31-07-2010 18:00:00 29.86 C 6.08 g/m*3 29.86 C 0 km/h
332 31-07-2010 19:00:00 27.88 C 7.24 g/m*3 27.88 C 0 km/h
333 31-07-2010 20:00:00 24.6 C 8.19 g/m*3 24.6 C 0 km/h
334 31-07-2010 21:00:00 23.04 C 8.41 g/m*3 23.04 C 0 km/h
335 31-07-2010 22:00:00 22.02 C 9.17 g/m*3 22.02 C 0 km/h
336 31-07-2010 23:00:00 20.5 C 11.74 g/m*3 20.5 C 0 km/h
337 01-08-2010 00:00:00 19.4 C 12.38 g/m*3 19.4 C 0 km/h
338 01-08-2010 01:00:00 18.26 C 13.1 g/m*3 18.26 C 0 km/h
339 01-08-2010 02:00:00 18.1 C 13.38 g/m*3 18.1 C 0 km/h
340 01-08-2010 03:00:00 17.98 C 13.16 g/m*3 17.98 C 0 km/h
341 01-08-2010 04:00:00 17.84 C 12.93 g/m*3 17.84 C 0 km/h
342 01-08-2010 05:00:00 17.72 C 12.78 g/m*3 17.72 C 0 km/h
343 01-08-2010 06:00:00 17.42 C 13.15 g/m*3 17.42 C 0 km/h
344 01-08-2010 07:00:00 18.34 C 13.73 g/m*3 18.34 C 0 km/h
345 01-08-2010 08:00:00 19.68 C 13.77 g/m*3 19.68 C 0 km/h
346 01-08-2010 09:00:00 20.86 C 13.56 g/m*3 20.86 C 0 km/h
347 01-08-2010 10:00:00 21.94 C 13.58 g/m*3 21.94 C 0 km/h
348 01-08-2010 11:00:00 24.06 C 12.92 g/m*3 24.06 C 0 km/h
349 01-08-2010 12:00:00 25.46 C 10.72 g/m*3 25.46 C 0 km/h
350 01-08-2010 13:00:00 27.84 C 9.43 g/m*3 27.84 C 0 km/h
Sensor: Nr:Datum:Temp:Abs-Feuchte:Windchill:Wind:
Aussen-T/F 351 01-08-2010 14:00:00 29.02 C 7.94 g/m*3 29.02 C 0 km/h
352 01-08-2010 15:00:00 30.04 C 7.23 g/m*3 30.04 C 0 km/h
353 01-08-2010 16:00:00 30.66 C 7.1 g/m*3 30.66 C 0 km/h
354 01-08-2010 17:00:00 30.1 C 7.44 g/m*3 30.1 C 0 km/h
355 01-08-2010 18:00:00 28.36 C 8.38 g/m*3 28.36 C 0 km/h
356 01-08-2010 19:00:00 25.88 C 9.48 g/m*3 25.88 C 0 km/h
357 01-08-2010 20:00:00 24.64 C 10.24 g/m*3 24.64 C 0 km/h
358 01-08-2010 21:00:00 23.16 C 9.83 g/m*3 23.16 C 0 km/h
359 01-08-2010 22:00:00 21.96 C 9.53 g/m*3 21.96 C 0 km/h
360 01-08-2010 23:00:00 21.08 C 9.97 g/m*3 21.08 C 0 km/h
361 02-08-2010 00:00:00 19.74 C 10.01 g/m*3 19.74 C 0 km/h
362 02-08-2010 01:00:00 19.24 C 10.28 g/m*3 19.24 C 0 km/h
363 02-08-2010 02:00:00 18.64 C 10.53 g/m*3 18.64 C 0 km/h
364 02-08-2010 03:00:00 17.94 C 10.62 g/m*3 17.94 C 0 km/h
365 02-08-2010 04:00:00 17.1 C 10.86 g/m*3 17.1 C 0 km/h
366 02-08-2010 05:00:00 16.32 C 10.64 g/m*3 16.32 C 0 km/h
367 02-08-2010 06:00:00 16.48 C 10.91 g/m*3 16.48 C 0 km/h
368 02-08-2010 07:00:00 16.38 C 10.96 g/m*3 16.38 C 0 km/h
369 02-08-2010 08:00:00 16.86 C 11.16 g/m*3 16.86 C 0 km/h
370 02-08-2010 09:00:00 18.68 C 11.16 g/m*3 18.68 C 0 km/h
371 02-08-2010 10:00:00 20.88 C 10.59 g/m*3 20.88 C 0 km/h
372 02-08-2010 11:00:00 23.84 C 9.31 g/m*3 23.84 C 0 km/h
373 02-08-2010 12:00:00 25.54 C 8.16 g/m*3 25.54 C 0 km/h
374 02-08-2010 13:00:00 23.28 C 8.65 g/m*3 23.28 C 0 km/h
375 02-08-2010 14:00:00 20.48 C 11.23 g/m*3 20.48 C 0 km/h
Sensor: Nr:Datum:Temp:Abs-Feuchte:Windchill:Wind:
Aussen-T/F 376 02-08-2010 15:00:00 21.32 C 11.23 g/m*3 21.32 C 0 km/h
377 02-08-2010 16:00:00 23.06 C 10.93 g/m*3 23.06 C 0 km/h
378 02-08-2010 17:00:00 24.2 C 9.77 g/m*3 24.2 C 0 km/h
379 02-08-2010 18:00:00 21.28 C 11.17 g/m*3 21.28 C 0 km/h
380 02-08-2010 19:00:00 20.02 C 12.35 g/m*3 20.02 C 0 km/h
381 02-08-2010 20:00:00 18.6 C 13.5 g/m*3 18.6 C 0 km/h
382 02-08-2010 21:00:00 17.58 C 13.45 g/m*3 17.58 C 0 km/h
383 02-08-2010 22:00:00 17.12 C 13.32 g/m*3 17.12 C 0 km/h
384 02-08-2010 23:00:00 16.04 C 12.43 g/m*3 16.04 C 0 km/h
385 03-08-2010 00:00:00 15.94 C 12.08 g/m*3 15.94 C 0 km/h
386 03-08-2010 01:00:00 15.96 C 12.02 g/m*3 15.96 C 0 km/h
387 03-08-2010 02:00:00 15.46 C 11.76 g/m*3 15.46 C 0 km/h
388 03-08-2010 03:00:00 15.26 C 12.06 g/m*3 15.26 C 0 km/h
389 03-08-2010 04:00:00 15.02 C 12.04 g/m*3 15.02 C 0 km/h
390 03-08-2010 05:00:00 14.96 C 12.08 g/m*3 14.96 C 0 km/h
391 03-08-2010 06:00:00 14.62 C 11.9 g/m*3 14.62 C 0 km/h
392 03-08-2010 07:00:00 15.06 C 12.23 g/m*3 15.06 C 0 km/h
393 03-08-2010 08:00:00 15.96 C 12.37 g/m*3 15.96 C 0 km/h
394 03-08-2010 09:00:00 16.78 C 11.71 g/m*3 16.78 C 0 km/h
395 03-08-2010 10:00:00 17.64 C 11.03 g/m*3 17.64 C 0 km/h
396 03-08-2010 11:00:00 18.94 C 9.58 g/m*3 18.94 C 0 km/h
397 03-08-2010 12:00:00 21.22 C 7.94 g/m*3 21.22 C 0 km/h
398 03-08-2010 13:00:00 21.34 C 7.66 g/m*3 21.34 C 0 km/h
399 03-08-2010 14:00:00 21.88 C 8.29 g/m*3 21.88 C 0 km/h
400 03-08-2010 15:00:00 24.2 C 6.29 g/m*3 24.2 C 0 km/h
Sensor: Nr:Datum:Temp:Abs-Feuchte:Windchill:Wind:
Aussen-T/F 401 03-08-2010 16:00:00 25.38 C 5.31 g/m*3 25.38 C 0 km/h
402 03-08-2010 17:00:00 25.84 C 4.97 g/m*3 25.84 C 0 km/h
403 03-08-2010 18:00:00 26.12 C 5.15 g/m*3 26.12 C 0 km/h
404 03-08-2010 19:00:00 23.6 C 5.91 g/m*3 23.6 C 0 km/h
405 03-08-2010 20:00:00 21.72 C 7.22 g/m*3 21.72 C 0 km/h
406 03-08-2010 21:00:00 18.32 C 7.61 g/m*3 18.32 C 0 km/h
407 03-08-2010 22:00:00 17.26 C 8.29 g/m*3 17.26 C 0 km/h
408 03-08-2010 23:00:00 16.12 C 8.51 g/m*3 16.12 C 0 km/h
409 04-08-2010 00:00:00 15.44 C 8.98 g/m*3 15.44 C 0 km/h
410 04-08-2010 01:00:00 15.68 C 9.22 g/m*3 15.68 C 0 km/h
411 04-08-2010 02:00:00 15.42 C 9.71 g/m*3 15.42 C 0 km/h
412 04-08-2010 03:00:00 15.36 C 9.7 g/m*3 15.36 C 0 km/h
413 04-08-2010 04:00:00 15.2 C 9.53 g/m*3 15.2 C 0 km/h
414 04-08-2010 05:00:00 15.14 C 9.57 g/m*3 15.14 C 0 km/h
415 04-08-2010 06:00:00 15.28 C 9.78 g/m*3 15.28 C 0 km/h
416 04-08-2010 07:00:00 15.88 C 10.01 g/m*3 15.88 C 0 km/h
417 04-08-2010 08:00:00 16.86 C 9.96 g/m*3 16.86 C 0 km/h
418 04-08-2010 09:00:00 18.8 C 9.86 g/m*3 18.8 C 0 km/h
419 04-08-2010 10:00:00 21.08 C 9.13 g/m*3 21.08 C 0 km/h
420 04-08-2010 11:00:00 22.5 C 8.11 g/m*3 22.5 C 0 km/h
421 04-08-2010 12:00:00 23.72 C 7.02 g/m*3 23.72 C 0 km/h
422 04-08-2010 13:00:00 24.98 C 6.39 g/m*3 24.98 C 0 km/h
423 04-08-2010 14:00:00 24.56 C 6.65 g/m*3 24.56 C 0 km/h
424 04-08-2010 15:00:00 23.88 C 6.83 g/m*3 23.88 C 0 km/h
425 04-08-2010 16:00:00 23.36 C 7.01 g/m*3 23.36 C 0 km/h
Sensor: Nr:Datum:Temp:Abs-Feuchte:Windchill:Wind:
Aussen-T/F 426 04-08-2010 17:00:00 23.1 C 7.23 g/m*3 23.1 C 0 km/h
427 04-08-2010 18:00:00 23.32 C 7.37 g/m*3 23.32 C 0 km/h
428 04-08-2010 19:00:00 22.44 C 7.84 g/m*3 22.44 C 0 km/h
429 04-08-2010 20:00:00 21.14 C 8.98 g/m*3 21.14 C 0 km/h
430 04-08-2010 21:00:00 20.1 C 9.11 g/m*3 20.1 C 0 km/h
431 04-08-2010 22:00:00 19.325 C 10.09 g/m*3 19.33 C 0 km/h
432 04-08-2010 23:00:00 18.32 C 11.46 g/m*3 18.32 C 0 km/h
433 05-08-2010 00:00:00 16.78 C 12.37 g/m*3 16.78 C 0 km/h
434 05-08-2010 01:00:00 16.28 C 12.44 g/m*3 16.28 C 0 km/h
435 05-08-2010 02:00:00 15.82 C 12.37 g/m*3 15.82 C 0 km/h
436 05-08-2010 03:00:00 15.54 C 12.3 g/m*3 15.54 C 0 km/h
437 05-08-2010 04:00:00 15.3 C 12.14 g/m*3 15.3 C 0 km/h
438 05-08-2010 05:00:00 15.32 C 12.21 g/m*3 15.32 C 0 km/h
439 05-08-2010 06:00:00 15.68 C 12.56 g/m*3 15.68 C 0 km/h
440 05-08-2010 07:00:00 15.72 C 12.57 g/m*3 15.72 C 0 km/h
441 05-08-2010 08:00:00 16.2 C 12.55 g/m*3 16.2 C 0 km/h
442 05-08-2010 09:00:00 16.84 C 11.44 g/m*3 16.84 C 0 km/h
443 05-08-2010 10:00:00 17.46 C 10.38 g/m*3 17.46 C 0 km/h
444 05-08-2010 11:00:00 18.36 C 9.67 g/m*3 18.36 C 0 km/h
445 05-08-2010 12:00:00 18.42 C 9.35 g/m*3 18.42 C 0 km/h
446 05-08-2010 13:00:00 18.98 C 8.2 g/m*3 18.98 C 0 km/h
447 05-08-2010 14:00:00 21.28 C 7.56 g/m*3 21.28 C 0 km/h
448 05-08-2010 15:00:00 23 C 6.41 g/m*3 23 C 0 km/h
449 05-08-2010 16:00:00 25.08 C 5.69 g/m*3 25.08 C 0 km/h
450 05-08-2010 17:00:00 23.98 C 5.3 g/m*3 23.98 C 0 km/h
Sensor: Nr:Datum:Temp:Abs-Feuchte:Windchill:Wind:
Aussen-T/F 451 05-08-2010 18:00:00 22.7 C 5.62 g/m*3 22.7 C 0 km/h
452 05-08-2010 19:00:00 21.26 C 6.17 g/m*3 21.26 C 0 km/h
453 05-08-2010 20:00:00 20.22 C 6.9 g/m*3 20.22 C 0 km/h
454 05-08-2010 21:00:00 18.94 C 7.15 g/m*3 18.94 C 0 km/h
455 05-08-2010 22:00:00 17.7 C 7.48 g/m*3 17.7 C 0 km/h
456 05-08-2010 23:00:00 17 C 8.1 g/m*3 17 C 0 km/h
457 06-08-2010 00:00:00 16.02 C 8.48 g/m*3 16.02 C 0 km/h
458 06-08-2010 01:00:00 15.26 C 8.62 g/m*3 15.26 C 0 km/h
459 06-08-2010 02:00:00 14.52 C 8.87 g/m*3 14.52 C 0 km/h
460 06-08-2010 03:00:00 13.96 C 8.86 g/m*3 13.96 C 0 km/h
461 06-08-2010 04:00:00 13.44 C 9.3 g/m*3 13.44 C 0 km/h
462 06-08-2010 05:00:00 12.96 C 9.34 g/m*3 12.96 C 0 km/h
463 06-08-2010 06:00:00 13.34 C 9.29 g/m*3 13.34 C 0 km/h
464 06-08-2010 07:00:00 13.18 C 9.27 g/m*3 13.18 C 0 km/h
465 06-08-2010 08:00:00 13.48 C 9.49 g/m*3 13.48 C 0 km/h
466 06-08-2010 09:00:00 15.46 C 9.44 g/m*3 15.46 C 0 km/h
467 06-08-2010 10:00:00 17.84 C 8.31 g/m*3 17.84 C 0 km/h
468 06-08-2010 11:00:00 19.84 C 7.22 g/m*3 19.84 C 0 km/h
469 06-08-2010 12:00:00 21.34 C 6.17 g/m*3 21.34 C 0 km/h
470 06-08-2010 13:00:00 23.7 C 4.79 g/m*3 23.7 C 0 km/h
471 06-08-2010 14:00:00 24.84 C 4.56 g/m*3 24.84 C 0 km/h
472 06-08-2010 15:00:00 25.28 C 4.68 g/m*3 25.28 C 0 km/h
473 06-08-2010 16:00:00 28.1 C 5.47 g/m*3 28.1 C 0 km/h
474 06-08-2010 17:00:00 24.86 C 7.63 g/m*3 24.86 C 0 km/h
475 06-08-2010 18:00:00 26.42 C 4.98 g/m*3 26.42 C 0 km/h
Sensor: Nr:Datum:Temp:Abs-Feuchte:Windchill:Wind:
Aussen-T/F 476 06-08-2010 19:00:00 26.2 C 4.92 g/m*3 26.2 C 0 km/h
477 06-08-2010 20:00:00 23.66 C 5.29 g/m*3 23.66 C 0 km/h
478 06-08-2010 21:00:00 19.3 C 6.14 g/m*3 19.3 C 0 km/h
479 06-08-2010 22:00:00 17.72 C 6.34 g/m*3 17.72 C 0 km/h
480 06-08-2010 23:00:00 16.4 C 6.67 g/m*3 16.4 C 0 km/h
481 07-08-2010 00:00:00 15.04 C 7.15 g/m*3 15.04 C 0 km/h
482 07-08-2010 01:00:00 13.94 C 7.55 g/m*3 13.94 C 0 km/h
483 07-08-2010 02:00:00 13 C 7.89 g/m*3 13 C 0 km/h
484 07-08-2010 03:00:00 12.32 C 7.74 g/m*3 12.32 C 0 km/h
485 07-08-2010 04:00:00 11.64 C 7.71 g/m*3 11.64 C 0 km/h
486 07-08-2010 05:00:00 11.06 C 7.7 g/m*3 11.06 C 0 km/h
487 07-08-2010 06:00:00 10.48 C 7.77 g/m*3 10.48 C 0 km/h
488 07-08-2010 07:00:00 10.7 C 7.96 g/m*3 10.7 C 0 km/h
489 07-08-2010 08:00:00 11.74 C 8.07 g/m*3 11.74 C 0 km/h
490 07-08-2010 09:00:00 14.06 C 8.4 g/m*3 14.06 C 0 km/h
491 07-08-2010 10:00:00 18.22 C 8.5 g/m*3 18.22 C 0 km/h
492 07-08-2010 11:00:00 21.26 C 6.36 g/m*3 21.26 C 0 km/h
493 07-08-2010 12:00:00 22.86 C 5.46 g/m*3 22.86 C 0 km/h
494 07-08-2010 13:00:00 25.48 C 4.87 g/m*3 25.48 C 0 km/h
495 07-08-2010 14:00:00 26.66 C 5.05 g/m*3 26.66 C 0 km/h
496 07-08-2010 15:00:00 27.78 C 5.37 g/m*3 27.78 C 0 km/h
497 07-08-2010 16:00:00 29.2 C 5.81 g/m*3 29.2 C 0 km/h
498 07-08-2010 17:00:00 29.3 C 5.84 g/m*3 29.3 C 0 km/h
499 07-08-2010 18:00:00 27.4 C 6.26 g/m*3 27.4 C 0 km/h
500 07-08-2010 19:00:00 25.16 C 6.83 g/m*3 25.16 C 0 km/h
Sensor: Nr:Datum:Temp:Abs-Feuchte:Windchill:Wind:
Aussen-T/F 501 07-08-2010 20:00:00 23.86 C 6.99 g/m*3 23.86 C 0 km/h
502 07-08-2010 21:00:00 22.46 C 7.05 g/m*3 22.46 C 0 km/h
503 07-08-2010 22:00:00 21.96 C 7.4 g/m*3 21.96 C 0 km/h
504 07-08-2010 23:00:00 21.6 C 7.74 g/m*3 21.6 C 0 km/h
505 08-08-2010 00:00:00 21.04 C 8.12 g/m*3 21.04 C 0 km/h
506 08-08-2010 01:00:00 20.16 C 8.44 g/m*3 20.16 C 0 km/h
507 08-08-2010 02:00:00 19.82 C 9.44 g/m*3 19.82 C 0 km/h
508 08-08-2010 03:00:00 18.68 C 10.01 g/m*3 18.68 C 0 km/h
509 08-08-2010 04:00:00 18.36 C 10.39 g/m*3 18.36 C 0 km/h
510 08-08-2010 05:00:00 17.56 C 11.46 g/m*3 17.56 C 0 km/h
511 08-08-2010 06:00:00 16.68 C 12.49 g/m*3 16.68 C 0 km/h
512 08-08-2010 07:00:00 16.66 C 12.96 g/m*3 16.66 C 0 km/h
513 08-08-2010 08:00:00 17.2 C 13.47 g/m*3 17.2 C 0 km/h
514 08-08-2010 09:00:00 17.64 C 13.35 g/m*3 17.64 C 0 km/h
515 08-08-2010 10:00:00 18.46 C 12.66 g/m*3 18.46 C 0 km/h
516 08-08-2010 11:00:00 16.48 C 12.15 g/m*3 16.48 C 0 km/h
517 08-08-2010 12:00:00 16.58 C 12.56 g/m*3 16.58 C 0 km/h
518 08-08-2010 13:00:00 17.16 C 12.86 g/m*3 17.16 C 0 km/h
519 08-08-2010 14:00:00 18.98 C 12.57 g/m*3 18.98 C 0 km/h
520 08-08-2010 15:00:00 20.18 C 12.5 g/m*3 20.18 C 0 km/h
521 08-08-2010 16:00:00 19.94 C 12.36 g/m*3 19.94 C 0 km/h
522 08-08-2010 17:00:00 21.68 C 12 g/m*3 21.68 C 0 km/h
523 08-08-2010 18:00:00 21.42 C 10.21 g/m*3 21.42 C 0 km/h
524 08-08-2010 19:00:00 19.98 C 10.77 g/m*3 19.98 C 0 km/h
525 08-08-2010 20:00:00 17.72 C 11.81 g/m*3 17.72 C 0 km/h
Sensor: Nr:Datum:Temp:Abs-Feuchte:Windchill:Wind:
Aussen-T/F 526 08-08-2010 21:00:00 17.46 C 11.42 g/m*3 17.46 C 0 km/h
527 08-08-2010 22:00:00 17.1 C 11.5 g/m*3 17.1 C 0 km/h
528 08-08-2010 23:00:00 16.7 C 11.68 g/m*3 16.7 C 0 km/h
529 09-08-2010 00:00:00 16.42 C 12.05 g/m*3 16.42 C 0 km/h
530 09-08-2010 01:00:00 16.44 C 12.17 g/m*3 16.44 C 0 km/h
531 09-08-2010 02:00:00 15.6 C 11.68 g/m*3 15.6 C 0 km/h
532 09-08-2010 03:00:00 15.6 C 11.7 g/m*3 15.6 C 0 km/h
533 09-08-2010 04:00:00 15.74 C 11.4 g/m*3 15.74 C 0 km/h
534 09-08-2010 05:00:00 14.84 C 10.97 g/m*3 14.84 C 0 km/h
535 09-08-2010 06:00:00 14.6 C 11.31 g/m*3 14.6 C 0 km/h
536 09-08-2010 07:00:00 14.6 C 11.34 g/m*3 14.6 C 0 km/h
537 09-08-2010 08:00:00 15.22 C 11.05 g/m*3 15.22 C 0 km/h
538 09-08-2010 09:00:00 15.8 C 10.82 g/m*3 15.8 C 0 km/h
539 09-08-2010 10:00:00 17.4 C 10.55 g/m*3 17.4 C 0 km/h
540 09-08-2010 11:00:00 19.6 C 9.25 g/m*3 19.6 C 0 km/h
541 09-08-2010 12:00:00 21.3 C 8.61 g/m*3 21.3 C 0 km/h
542 09-08-2010 13:00:00 24.36 C 8.17 g/m*3 24.36 C 0 km/h
543 09-08-2010 14:00:00 24.1 C 7.83 g/m*3 24.1 C 0 km/h
544 09-08-2010 15:00:00 25.54 C 7.59 g/m*3 25.54 C 0 km/h
545 09-08-2010 16:00:00 26.18 C 6.84 g/m*3 26.18 C 0 km/h
546 09-08-2010 17:00:00 26.22 C 8.08 g/m*3 26.22 C 0 km/h
547 09-08-2010 18:00:00 27.5 C 7.88 g/m*3 27.5 C 0 km/h
548 09-08-2010 19:00:00 23.52 C 8.81 g/m*3 23.52 C 0 km/h
549 09-08-2010 20:00:00 21.26 C 8.55 g/m*3 21.26 C 0 km/h
550 09-08-2010 21:00:00 19.76 C 8.79 g/m*3 19.76 C 0 km/h
Sensor: Nr:Datum:Temp:Abs-Feuchte:Windchill:Wind:
Aussen-T/F 551 09-08-2010 22:00:00 18.64 C 8.97 g/m*3 18.64 C 0 km/h
552 09-08-2010 23:00:00 18.12 C 9.25 g/m*3 18.12 C 0 km/h
553 10-08-2010 00:00:00 17.62 C 9.79 g/m*3 17.62 C 0 km/h
554 10-08-2010 01:00:00 17.52 C 10.15 g/m*3 17.52 C 0 km/h
555 10-08-2010 02:00:00 17.38 C 10.04 g/m*3 17.38 C 0 km/h
556 10-08-2010 03:00:00 17.14 C 10.1 g/m*3 17.14 C 0 km/h
557 10-08-2010 04:00:00 16.86 C 10.24 g/m*3 16.86 C 0 km/h
558 10-08-2010 05:00:00 15.62 C 10.09 g/m*3 15.62 C 0 km/h
559 10-08-2010 06:00:00 14.66 C 9.92 g/m*3 14.66 C 0 km/h
560 10-08-2010 07:00:00 14.88 C 10.31 g/m*3 14.88 C 0 km/h
561 10-08-2010 08:00:00 15.84 C 10.71 g/m*3 15.84 C 0 km/h
562 10-08-2010 09:00:00 18.2 C 10.6 g/m*3 18.2 C 0 km/h
563 10-08-2010 10:00:00 20.92 C 11.01 g/m*3 20.92 C 0 km/h
564 10-08-2010 11:00:00 23.74 C 9.52 g/m*3 23.74 C 0 km/h
565 10-08-2010 12:00:00 25.9 C 6.83 g/m*3 25.9 C 0 km/h
566 10-08-2010 13:00:00 28.16 C 5.98 g/m*3 28.16 C 0 km/h
567 10-08-2010 14:00:00 29.04 C 6.22 g/m*3 29.04 C 0 km/h
568 10-08-2010 15:00:00 28.46 C 7.36 g/m*3 28.46 C 0 km/h
569 10-08-2010 16:00:00 29.88 C 6.51 g/m*3 29.88 C 0 km/h
570 10-08-2010 17:00:00 29.94 C 6.47 g/m*3 29.94 C 0 km/h
571 10-08-2010 18:00:00 29.68 C 6.74 g/m*3 29.68 C 0 km/h
572 10-08-2010 19:00:00 26.94 C 8.16 g/m*3 26.94 C 0 km/h
573 10-08-2010 20:00:00 24.76 C 8.27 g/m*3 24.76 C 0 km/h
574 10-08-2010 21:00:00 23.36 C 8.77 g/m*3 23.36 C 0 km/h
575 10-08-2010 22:00:00 22.86 C 8.93 g/m*3 22.86 C 0 km/h
Sensor: Nr:Datum:Temp:Abs-Feuchte:Windchill:Wind:
Aussen-T/F 576 10-08-2010 23:00:00 21.9 C 9.26 g/m*3 21.9 C 0 km/h
577 11-08-2010 00:00:00 21.46 C 9.67 g/m*3 21.46 C 0 km/h
578 11-08-2010 01:00:00 20.54 C 10.56 g/m*3 20.54 C 0 km/h
579 11-08-2010 02:00:00 18.38 C 12.32 g/m*3 18.38 C 0 km/h
580 11-08-2010 03:00:00 17.64 C 13.14 g/m*3 17.64 C 0 km/h
581 11-08-2010 04:00:00 17.52 C 13.4 g/m*3 17.52 C 0 km/h
582 11-08-2010 05:00:00 17.42 C 13.24 g/m*3 17.42 C 0 km/h
583 11-08-2010 06:00:00 17.4 C 13.04 g/m*3 17.4 C 0 km/h
584 11-08-2010 07:00:00 17.62 C 13.03 g/m*3 17.62 C 0 km/h
585 11-08-2010 08:00:00 18.68 C 13.02 g/m*3 18.68 C 0 km/h
586 11-08-2010 09:00:00 19.64 C 11.51 g/m*3 19.64 C 0 km/h
587 11-08-2010 10:00:00 20.8 C 11.08 g/m*3 20.8 C 0 km/h
588 11-08-2010 11:00:00 20.62 C 11.18 g/m*3 20.62 C 0 km/h
589 11-08-2010 12:00:00 22.46 C 11 g/m*3 22.46 C 0 km/h
590 11-08-2010 13:00:00 23.8 C 10.37 g/m*3 23.8 C 0 km/h
591 11-08-2010 14:00:00 24.4 C 10.1 g/m*3 24.4 C 0 km/h
592 11-08-2010 15:00:00 25.56 C 9.88 g/m*3 25.56 C 0 km/h
593 11-08-2010 16:00:00 22.88 C 12 g/m*3 22.88 C 0 km/h
594 11-08-2010 17:00:00 21.74 C 14 g/m*3 21.74 C 0 km/h
595 11-08-2010 18:00:00 22.86 C 14.31 g/m*3 22.86 C 0 km/h
596 11-08-2010 19:00:00 21.28 C 13.7 g/m*3 21.28 C 0 km/h
597 11-08-2010 20:00:00 19.56 C 13.57 g/m*3 19.56 C 0 km/h
598 11-08-2010 21:00:00 18.84 C 14.4 g/m*3 18.84 C 0 km/h
599 11-08-2010 22:00:00 18.48 C 14.38 g/m*3 18.48 C 0 km/h
600 11-08-2010 23:00:00 18.3 C 14.38 g/m*3 18.3 C 0 km/h
Sensor: Nr:Datum:Temp:Abs-Feuchte:Windchill:Wind:
Aussen-T/F 601 12-08-2010 00:00:00 17.88 C 14.27 g/m*3 17.88 C 0 km/h
602 12-08-2010 01:00:00 17.52 C 14.03 g/m*3 17.52 C 0 km/h
603 12-08-2010 02:00:00 17.16 C 13.73 g/m*3 17.16 C 0 km/h
604 12-08-2010 03:00:00 16.86 C 13.49 g/m*3 16.86 C 0 km/h
605 12-08-2010 04:00:00 16.46 C 13.22 g/m*3 16.46 C 0 km/h
606 12-08-2010 05:00:00 16.48 C 13.3 g/m*3 16.48 C 0 km/h
607 12-08-2010 06:00:00 16.72 C 13.52 g/m*3 16.72 C 0 km/h
608 12-08-2010 07:00:00 16.86 C 13.6 g/m*3 16.86 C 0 km/h
609 12-08-2010 08:00:00 16.64 C 12.89 g/m*3 16.64 C 0 km/h
610 12-08-2010 09:00:00 17.72 C 13.44 g/m*3 17.72 C 0 km/h
611 12-08-2010 10:00:00 18.58 C 12.24 g/m*3 18.58 C 0 km/h
612 12-08-2010 11:00:00 18.62 C 12.17 g/m*3 18.62 C 0 km/h
613 12-08-2010 12:00:00 19.56 C 11.25 g/m*3 19.56 C 0 km/h
614 12-08-2010 13:00:00 20.26 C 9.58 g/m*3 20.26 C 0 km/h
615 12-08-2010 14:00:00 20.3 C 9.04 g/m*3 20.3 C 0 km/h
616 12-08-2010 15:00:00 23.02 C 8.4 g/m*3 23.02 C 0 km/h
617 12-08-2010 16:00:00 22.56 C 7.14 g/m*3 22.56 C 0 km/h
618 12-08-2010 17:00:00 25.42 C 5.89 g/m*3 25.42 C 0 km/h
619 12-08-2010 18:00:00 23.3 C 6.65 g/m*3 23.3 C 0 km/h
620 12-08-2010 19:00:00 21.68 C 8.23 g/m*3 21.68 C 0 km/h
621 12-08-2010 20:00:00 20.1 C 8.45 g/m*3 20.1 C 0 km/h
622 12-08-2010 21:00:00 19.14 C 7.99 g/m*3 19.14 C 0 km/h
623 12-08-2010 22:00:00 18.44 C 8.58 g/m*3 18.44 C 0 km/h
624 12-08-2010 23:00:00 17.34 C 9.19 g/m*3 17.34 C 0 km/h
625 13-08-2010 00:00:00 16.82 C 9.42 g/m*3 16.82 C 0 km/h
Sensor: Nr:Datum:Temp:Abs-Feuchte:Windchill:Wind:
Aussen-T/F 626 13-08-2010 01:00:00 16.18 C 9.26 g/m*3 16.18 C 0 km/h
627 13-08-2010 02:00:00 15.82 C 9.68 g/m*3 15.82 C 0 km/h
628 13-08-2010 03:00:00 15.34 C 9.84 g/m*3 15.34 C 0 km/h
629 13-08-2010 04:00:00 15.04 C 10 g/m*3 15.04 C 0 km/h
630 13-08-2010 05:00:00 14.76 C 9.98 g/m*3 14.76 C 0 km/h
631 13-08-2010 06:00:00 14.7 C 10.05 g/m*3 14.7 C 0 km/h
632 13-08-2010 07:00:00 15.02 C 10.12 g/m*3 15.02 C 0 km/h
633 13-08-2010 08:00:00 15.16 C 10.33 g/m*3 15.16 C 0 km/h
634 13-08-2010 09:00:00 16.26 C 10.3 g/m*3 16.26 C 0 km/h
635 13-08-2010 10:00:00 18.84 C 9.65 g/m*3 18.84 C 0 km/h
636 13-08-2010 11:00:00 21.24 C 8.4 g/m*3 21.24 C 0 km/h
637 13-08-2010 12:00:00 22.2 C 7.74 g/m*3 22.2 C 0 km/h
638 13-08-2010 13:00:00 23 C 6.99 g/m*3 23 C 0 km/h
639 13-08-2010 14:00:00 23.92 C 6.5 g/m*3 23.92 C 0 km/h
640 13-08-2010 15:00:00 24.42 C 6.02 g/m*3 24.42 C 0 km/h
641 13-08-2010 16:00:00 24.24 C 6.75 g/m*3 24.24 C 0 km/h
642 13-08-2010 17:00:00 23.66 C 7.43 g/m*3 23.66 C 0 km/h
643 13-08-2010 18:00:00 22.5 C 8.15 g/m*3 22.5 C 0 km/h
644 13-08-2010 19:00:00 21.84 C 7.88 g/m*3 21.84 C 0 km/h
645 13-08-2010 20:00:00 19.9 C 7.94 g/m*3 19.9 C 0 km/h
646 13-08-2010 21:00:00 17.66 C 7.83 g/m*3 17.66 C 0 km/h
647 13-08-2010 22:00:00 16.72 C 8.2 g/m*3 16.72 C 0 km/h
648 13-08-2010 23:00:00 15.44 C 8.64 g/m*3 15.44 C 0 km/h
649 14-08-2010 00:00:00 14.7 C 8.91 g/m*3 14.7 C 0 km/h
650 14-08-2010 01:00:00 13.98 C 9.11 g/m*3 13.98 C 0 km/h
Sensor: Nr:Datum:Temp:Abs-Feuchte:Windchill:Wind:
Aussen-T/F 651 14-08-2010 02:00:00 13.32 C 9 g/m*3 13.32 C 0 km/h
652 14-08-2010 03:00:00 12.6 C 8.87 g/m*3 12.6 C 0 km/h
653 14-08-2010 04:00:00 12.06 C 8.75 g/m*3 12.06 C 0 km/h
654 14-08-2010 05:00:00 11.62 C 8.76 g/m*3 11.62 C 0 km/h
655 14-08-2010 06:00:00 11.12 C 8.73 g/m*3 11.12 C 0 km/h
656 14-08-2010 07:00:00 11.28 C 8.9 g/m*3 11.28 C 0 km/h
657 14-08-2010 08:00:00 12.32 C 9.42 g/m*3 12.32 C 0 km/h
658 14-08-2010 09:00:00 14.4 C 9.94 g/m*3 14.4 C 0 km/h
659 14-08-2010 10:00:00 17.62 C 10.39 g/m*3 17.62 C 0 km/h
660 14-08-2010 11:00:00 20.68 C 10.36 g/m*3 20.68 C 0 km/h
661 14-08-2010 12:00:00 22.96 C 9.19 g/m*3 22.96 C 0 km/h
662 14-08-2010 13:00:00 26.24 C 7.4 g/m*3 26.24 C 0 km/h
663 14-08-2010 14:00:00 27.62 C 6.98 g/m*3 27.62 C 0 km/h
664 14-08-2010 15:00:00 28.04 C 6.7 g/m*3 28.04 C 0 km/h
665 14-08-2010 16:00:00 30.1 C 6.46 g/m*3 30.1 C 0 km/h
666 14-08-2010 17:00:00 30.88 C 6.36 g/m*3 30.88 C 0 km/h
667 14-08-2010 18:00:00 31.22 C 6.48 g/m*3 31.22 C 0 km/h
668 14-08-2010 19:00:00 27.86 C 7.56 g/m*3 27.86 C 0 km/h
669 14-08-2010 20:00:00 24.86 C 8.18 g/m*3 24.86 C 0 km/h
670 14-08-2010 21:00:00 22.14 C 8.73 g/m*3 22.14 C 0 km/h
671 14-08-2010 22:00:00 21.24 C 9.14 g/m*3 21.24 C 0 km/h
672 14-08-2010 23:00:00 20.36 C 9.14 g/m*3 20.36 C 0 km/h
673 15-08-2010 00:00:00 19.74 C 8.82 g/m*3 19.74 C 0 km/h
674 15-08-2010 01:00:00 19.38 C 8.73 g/m*3 19.38 C 0 km/h
675 15-08-2010 02:00:00 18.98 C 8.98 g/m*3 18.98 C 0 km/h
Sensor: Nr:Datum:Temp:Abs-Feuchte:Windchill:Wind:
Aussen-T/F 676 15-08-2010 03:00:00 18.6 C 9.29 g/m*3 18.6 C 0 km/h
677 15-08-2010 04:00:00 18.14 C 9.14 g/m*3 18.14 C 0 km/h
678 15-08-2010 05:00:00 18.06 C 8.88 g/m*3 18.06 C 0 km/h
679 15-08-2010 06:00:00 17.9 C 9.04 g/m*3 17.9 C 0 km/h
680 15-08-2010 07:00:00 17.1 C 9.69 g/m*3 17.1 C 0 km/h
681 15-08-2010 08:00:00 15.24 C 11.48 g/m*3 15.24 C 0 km/h
682 15-08-2010 09:00:00 15.2 C 11.99 g/m*3 15.2 C 0 km/h
683 15-08-2010 10:00:00 15.48 C 12.44 g/m*3 15.48 C 0 km/h
684 15-08-2010 11:00:00 15.82 C 12.8 g/m*3 15.82 C 0 km/h
685 15-08-2010 12:00:00 16.04 C 12.97 g/m*3 16.04 C 0 km/h
686 15-08-2010 13:00:00 16.14 C 13.05 g/m*3 16.14 C 0 km/h
687 15-08-2010 14:00:00 16.44 C 13.29 g/m*3 16.44 C 0 km/h
688 15-08-2010 15:00:00 16.4 C 13.26 g/m*3 16.4 C 0 km/h
689 15-08-2010 16:00:00 16.48 C 13.32 g/m*3 16.48 C 0 km/h
690 15-08-2010 17:00:00 16.68 C 13.48 g/m*3 16.68 C 0 km/h
691 15-08-2010 18:00:00 16.6 C 13.42 g/m*3 16.6 C 0 km/h
692 15-08-2010 19:00:00 16.6 C 13.42 g/m*3 16.6 C 0 km/h
693 15-08-2010 20:00:00 16.38 C 13.24 g/m*3 16.38 C 0 km/h
694 15-08-2010 21:00:00 16.24 C 13.13 g/m*3 16.24 C 0 km/h
695 15-08-2010 22:00:00 16.14 C 13.05 g/m*3 16.14 C 0 km/h
696 15-08-2010 23:00:00 15.5 C 12.56 g/m*3 15.5 C 0 km/h
697 16-08-2010 00:00:00 14.9 C 12.11 g/m*3 14.9 C 0 km/h
698 16-08-2010 01:00:00 14.72 C 11.87 g/m*3 14.72 C 0 km/h
699 16-08-2010 02:00:00 14.6 C 11.61 g/m*3 14.6 C 0 km/h
700 16-08-2010 03:00:00 14.6 C 11.64 g/m*3 14.6 C 0 km/h
Sensor: Nr:Datum:Temp:Abs-Feuchte:Windchill:Wind:
Aussen-T/F 701 16-08-2010 04:00:00 14.5 C 11.34 g/m*3 14.5 C 0 km/h
702 16-08-2010 05:00:00 14.5 C 11.39 g/m*3 14.5 C 0 km/h
703 16-08-2010 06:00:00 14.54 C 11.37 g/m*3 14.54 C 0 km/h
704 16-08-2010 07:00:00 14.84 C 11.45 g/m*3 14.84 C 0 km/h
705 16-08-2010 08:00:00 15.92 C 11.44 g/m*3 15.92 C 0 km/h
706 16-08-2010 09:00:00 17.4 C 11.09 g/m*3 17.4 C 0 km/h
707 16-08-2010 10:00:00 17.2 C 10.84 g/m*3 17.2 C 0 km/h
708 16-08-2010 11:00:00 17.7 C 11.09 g/m*3 17.7 C 0 km/h
709 16-08-2010 12:00:00 17.76 C 11.45 g/m*3 17.76 C 0 km/h
710 16-08-2010 13:00:00 18.38 C 10.59 g/m*3 18.38 C 0 km/h
711 16-08-2010 14:00:00 19.88 C 9.88 g/m*3 19.88 C 0 km/h
712 16-08-2010 15:00:00 19.72 C 9.42 g/m*3 19.72 C 0 km/h
713 16-08-2010 16:00:00 19.76 C 9.75 g/m*3 19.76 C 0 km/h
714 16-08-2010 17:00:00 19.96 C 9.79 g/m*3 19.96 C 0 km/h
715 16-08-2010 18:00:00 19.76 C 9.65 g/m*3 19.76 C 0 km/h
716 16-08-2010 19:00:00 18.6 C 10.06 g/m*3 18.6 C 0 km/h
717 16-08-2010 20:00:00 17.9 C 10.63 g/m*3 17.9 C 0 km/h
718 16-08-2010 21:00:00 17.44 C 11.32 g/m*3 17.44 C 0 km/h
719 16-08-2010 22:00:00 17.58 C 11.83 g/m*3 17.58 C 0 km/h
720 16-08-2010 23:00:00 17.76 C 12.05 g/m*3 17.76 C 0 km/h
721 17-08-2010 00:00:00 17.62 C 11.95 g/m*3 17.62 C 0 km/h
722 17-08-2010 01:00:00 16.68 C 12.29 g/m*3 16.68 C 0 km/h
723 17-08-2010 02:00:00 16.48 C 12.37 g/m*3 16.48 C 0 km/h
724 17-08-2010 03:00:00 16.42 C 11.79 g/m*3 16.42 C 0 km/h
725 17-08-2010 04:00:00 16.42 C 11.18 g/m*3 16.42 C 0 km/h
Sensor: Nr:Datum:Temp:Abs-Feuchte:Windchill:Wind:
Aussen-T/F 726 17-08-2010 05:00:00 15.62 C 11.34 g/m*3 15.62 C 0 km/h
727 17-08-2010 06:00:00 15.84 C 11.23 g/m*3 15.84 C 0 km/h
728 17-08-2010 07:00:00 16.36 C 10.83 g/m*3 16.36 C 0 km/h
729 17-08-2010 08:00:00 16.72 C 10.33 g/m*3 16.72 C 0 km/h
730 17-08-2010 09:00:00 16.98 C 9.65 g/m*3 16.98 C 0 km/h
731 17-08-2010 10:00:00 17.06 C 9.35 g/m*3 17.06 C 0 km/h
732 17-08-2010 11:00:00 17.58 C 9.2 g/m*3 17.58 C 0 km/h
733 17-08-2010 12:00:00 16.62 C 10.13 g/m*3 16.62 C 0 km/h
734 17-08-2010 13:00:00 17.3 C 11.73 g/m*3 17.3 C 0 km/h
735 17-08-2010 14:00:00 17.74 C 9.16 g/m*3 17.74 C 0 km/h
736 17-08-2010 15:00:00 17.08 C 8.75 g/m*3 17.08 C 0 km/h
737 17-08-2010 16:00:00 14.7 C 9.74 g/m*3 14.7 C 0 km/h
738 17-08-2010 17:00:00 14.42 C 9.98 g/m*3 14.42 C 0 km/h
739 17-08-2010 18:00:00 14.8 C 11 g/m*3 14.8 C 0 km/h
740 17-08-2010 19:00:00 14.84 C 11.05 g/m*3 14.84 C 0 km/h
741 17-08-2010 20:00:00 14.32 C 11.02 g/m*3 14.32 C 0 km/h
742 17-08-2010 21:00:00 14.38 C 11.31 g/m*3 14.38 C 0 km/h
743 17-08-2010 22:00:00 14.62 C 10.75 g/m*3 14.62 C 0 km/h
744 17-08-2010 23:00:00 15 C 10.05 g/m*3 15 C 0 km/h
745 18-08-2010 00:00:00 15.52 C 9.66 g/m*3 15.52 C 0 km/h
746 18-08-2010 01:00:00 15.76 C 9.43 g/m*3 15.76 C 0 km/h
747 18-08-2010 02:00:00 15.54 C 9.43 g/m*3 15.54 C 0 km/h
748 18-08-2010 03:00:00 15.46 C 9.49 g/m*3 15.46 C 0 km/h
749 18-08-2010 04:00:00 15.2 C 9.55 g/m*3 15.2 C 0 km/h
750 18-08-2010 05:00:00 14.96 C 9.8 g/m*3 14.96 C 0 km/h
Sensor: Nr:Datum:Temp:Abs-Feuchte:Windchill:Wind:
Aussen-T/F 751 18-08-2010 06:00:00 15.08 C 9.56 g/m*3 15.08 C 0 km/h
752 18-08-2010 07:00:00 15.44 C 9.69 g/m*3 15.44 C 0 km/h
753 18-08-2010 08:00:00 16.16 C 9.88 g/m*3 16.16 C 0 km/h
754 18-08-2010 09:00:00 17.1 C 10.16 g/m*3 17.1 C 0 km/h
755 18-08-2010 10:00:00 18.16 C 10.2 g/m*3 18.16 C 0 km/h
756 18-08-2010 11:00:00 18.7 C 10.18 g/m*3 18.7 C 0 km/h
757 18-08-2010 12:00:00 18.82 C 10.67 g/m*3 18.82 C 0 km/h
758 18-08-2010 13:00:00 20.8 C 10.25 g/m*3 20.8 C 0 km/h
759 18-08-2010 14:00:00 22.84 C 9.04 g/m*3 22.84 C 0 km/h
760 18-08-2010 15:00:00 22.24 C 9.01 g/m*3 22.24 C 0 km/h
761 18-08-2010 16:00:00 23.68 C 9.02 g/m*3 23.68 C 0 km/h
762 18-08-2010 17:00:00 23.88 C 8.86 g/m*3 23.88 C 0 km/h
763 18-08-2010 18:00:00 22.36 C 9.15 g/m*3 22.36 C 0 km/h
764 18-08-2010 19:00:00 20.68 C 9.35 g/m*3 20.68 C 0 km/h
765 18-08-2010 20:00:00 19.44 C 10 g/m*3 19.44 C 0 km/h
766 18-08-2010 21:00:00 18.82 C 10.19 g/m*3 18.82 C 0 km/h
767 18-08-2010 22:00:00 17.6 C 10.59 g/m*3 17.6 C 0 km/h
768 18-08-2010 23:00:00 17.58 C 10.19 g/m*3 17.58 C 0 km/h
769 19-08-2010 00:00:00 17.36 C 9.14 g/m*3 17.36 C 0 km/h
770 19-08-2010 01:00:00 16.86 C 9.18 g/m*3 16.86 C 0 km/h
771 19-08-2010 02:00:00 16.32 C 8.81 g/m*3 16.32 C 0 km/h
772 19-08-2010 03:00:00 15.9 C 9.21 g/m*3 15.9 C 0 km/h
773 19-08-2010 04:00:00 15.54 C 9.38 g/m*3 15.54 C 0 km/h
774 19-08-2010 05:00:00 15.1 C 9.31 g/m*3 15.1 C 0 km/h
775 19-08-2010 06:00:00 14.18 C 8.9 g/m*3 14.18 C 0 km/h
Sensor: Nr:Datum:Temp:Abs-Feuchte:Windchill:Wind:
Aussen-T/F 776 19-08-2010 07:00:00 13.92 C 8.21 g/m*3 13.92 C 0 km/h
777 19-08-2010 08:00:00 14.78 C 8.05 g/m*3 14.78 C 0 km/h
778 19-08-2010 09:00:00 15.72 C 8.06 g/m*3 15.72 C 0 km/h
779 19-08-2010 10:00:00 17.9 C 7.7 g/m*3 17.9 C 0 km/h
780 19-08-2010 11:00:00 20 C 7.26 g/m*3 20 C 0 km/h
781 19-08-2010 12:00:00 21.44 C 6.65 g/m*3 21.44 C 0 km/h
782 19-08-2010 13:00:00 22.64 C 6.16 g/m*3 22.64 C 0 km/h
783 19-08-2010 14:00:00 23.04 C 6.02 g/m*3 23.04 C 0 km/h
784 19-08-2010 15:00:00 23.74 C 6.22 g/m*3 23.74 C 0 km/h
785 19-08-2010 16:00:00 23.28 C 7.64 g/m*3 23.28 C 0 km/h
786 19-08-2010 17:00:00 23.9 C 7.53 g/m*3 23.9 C 0 km/h
787 19-08-2010 18:00:00 25.42 C 5.75 g/m*3 25.42 C 0 km/h
788 19-08-2010 19:00:00 25.24 C 6.63 g/m*3 25.24 C 0 km/h
789 19-08-2010 20:00:00 20.5 C 7.15 g/m*3 20.5 C 0 km/h
790 19-08-2010 21:00:00 18.08 C 7.78 g/m*3 18.08 C 0 km/h
791 19-08-2010 22:00:00 16.86 C 8.01 g/m*3 16.86 C 0 km/h
792 19-08-2010 23:00:00 15.62 C 8.36 g/m*3 15.62 C 0 km/h
793 20-08-2010 00:00:00 14.72 C 8.55 g/m*3 14.72 C 0 km/h
794 20-08-2010 01:00:00 14.04 C 8.61 g/m*3 14.04 C 0 km/h
795 20-08-2010 02:00:00 13.34 C 8.59 g/m*3 13.34 C 0 km/h
796 20-08-2010 03:00:00 12.8 C 8.62 g/m*3 12.8 C 0 km/h
797 20-08-2010 04:00:00 12.26 C 8.58 g/m*3 12.26 C 0 km/h
798 20-08-2010 05:00:00 11.9 C 8.56 g/m*3 11.9 C 0 km/h
799 20-08-2010 06:00:00 11.48 C 8.54 g/m*3 11.48 C 0 km/h
800 20-08-2010 07:00:00 11.76 C 8.78 g/m*3 11.76 C 0 km/h
Sensor: Nr:Datum:Temp:Abs-Feuchte:Windchill:Wind:
Aussen-T/F 801 20-08-2010 08:00:00 12.54 C 9.19 g/m*3 12.54 C 0 km/h
802 20-08-2010 09:00:00 14.5 C 9.85 g/m*3 14.5 C 0 km/h
803 20-08-2010 10:00:00 18.02 C 10.3 g/m*3 18.02 C 0 km/h
804 20-08-2010 11:00:00 20.98 C 10.87 g/m*3 20.98 C 0 km/h
805 20-08-2010 12:00:00 23.76 C 10.86 g/m*3 23.76 C 0 km/h
806 20-08-2010 13:00:00 26.76 C 9.04 g/m*3 26.76 C 0 km/h
807 20-08-2010 14:00:00 28.36 C 7.82 g/m*3 28.36 C 0 km/h
808 20-08-2010 15:00:00 29.54 C 7.45 g/m*3 29.54 C 0 km/h
809 20-08-2010 16:00:00 30.72 C 7.57 g/m*3 30.72 C 0 km/h
810 20-08-2010 17:00:00 31.16 C 7.29 g/m*3 31.16 C 0 km/h
811 20-08-2010 18:00:00 31.22 C 7.64 g/m*3 31.22 C 0 km/h
812 20-08-2010 19:00:00 29.58 C 8.42 g/m*3 29.58 C 0 km/h
813 20-08-2010 20:00:00 25.1 C 9.07 g/m*3 25.1 C 0 km/h
814 20-08-2010 21:00:00 23.08 C 9.58 g/m*3 23.08 C 0 km/h
815 20-08-2010 22:00:00 22.025 C 10.2 g/m*3 22.03 C 0 km/h
816 20-08-2010 23:00:00 20.9 C 10.64 g/m*3 20.9 C 0 km/h
817 21-08-2010 00:00:00 19.76 C 10.77 g/m*3 19.76 C 0 km/h
818 21-08-2010 01:00:00 18.84 C 11.01 g/m*3 18.84 C 0 km/h
819 21-08-2010 02:00:00 18.16 C 11.04 g/m*3 18.16 C 0 km/h
820 21-08-2010 03:00:00 17.66 C 11.11 g/m*3 17.66 C 0 km/h
821 21-08-2010 04:00:00 17.06 C 11.12 g/m*3 17.06 C 0 km/h
822 21-08-2010 05:00:00 16.46 C 10.95 g/m*3 16.46 C 0 km/h
823 21-08-2010 06:00:00 16.04 C 10.9 g/m*3 16.04 C 0 km/h
824 21-08-2010 07:00:00 16 C 11.06 g/m*3 16 C 0 km/h
825 21-08-2010 08:00:00 16.78 C 11.54 g/m*3 16.78 C 0 km/h
Sensor: Nr:Datum:Temp:Abs-Feuchte:Windchill:Wind:
Aussen-T/F 826 21-08-2010 09:00:00 18.42 C 12.22 g/m*3 18.42 C 0 km/h
827 21-08-2010 10:00:00 21.4 C 12.86 g/m*3 21.4 C 0 km/h
828 21-08-2010 11:00:00 24.76 C 12.17 g/m*3 24.76 C 0 km/h
829 21-08-2010 12:00:00 27.54 C 9.81 g/m*3 27.54 C 0 km/h
830 21-08-2010 13:00:00 29.12 C 9.19 g/m*3 29.12 C 0 km/h
831 21-08-2010 14:00:00 30.42 C 8.69 g/m*3 30.42 C 0 km/h
832 21-08-2010 15:00:00 31.28 C 8.51 g/m*3 31.28 C 0 km/h
833 21-08-2010 16:00:00 32.14 C 7.89 g/m*3 32.14 C 0 km/h
834 21-08-2010 17:00:00 32.38 C 7.58 g/m*3 32.38 C 0 km/h
835 21-08-2010 18:00:00 32.42 C 7.39 g/m*3 32.42 C 0 km/h
836 21-08-2010 19:00:00 31.66 C 7.96 g/m*3 31.66 C 0 km/h
837 21-08-2010 20:00:00 28.82 C 9.33 g/m*3 28.82 C 0 km/h
838 21-08-2010 21:00:00 25.72 C 10.26 g/m*3 25.72 C 0 km/h
839 21-08-2010 22:00:00 24.34 C 10.87 g/m*3 24.34 C 0 km/h
840 21-08-2010 23:00:00 23.16 C 11.24 g/m*3 23.16 C 0 km/h
841 22-08-2010 00:00:00 22 C 11.45 g/m*3 22 C 0 km/h
842 22-08-2010 01:00:00 21.04 C 11.68 g/m*3 21.04 C 0 km/h
843 22-08-2010 02:00:00 20.14 C 11.88 g/m*3 20.14 C 0 km/h
844 22-08-2010 03:00:00 19.52 C 12.1 g/m*3 19.52 C 0 km/h
845 22-08-2010 04:00:00 19.16 C 12.11 g/m*3 19.16 C 0 km/h
846 22-08-2010 05:00:00 18.54 C 12.08 g/m*3 18.54 C 0 km/h
847 22-08-2010 06:00:00 18 C 12.01 g/m*3 18 C 0 km/h
848 22-08-2010 07:00:00 18.3 C 12.2 g/m*3 18.3 C 0 km/h
849 22-08-2010 08:00:00 18.96 C 12.62 g/m*3 18.96 C 0 km/h
850 22-08-2010 09:00:00 20.32 C 12.64 g/m*3 20.32 C 0 km/h
Sensor: Nr:Datum:Temp:Abs-Feuchte:Windchill:Wind:
Aussen-T/F 851 22-08-2010 10:00:00 23.1 C 12.69 g/m*3 23.1 C 0 km/h
852 22-08-2010 11:00:00 24.88 C 12.71 g/m*3 24.88 C 0 km/h
853 22-08-2010 12:00:00 27.46 C 11.67 g/m*3 27.46 C 0 km/h
854 22-08-2010 13:00:00 28.44 C 10.53 g/m*3 28.44 C 0 km/h
855 22-08-2010 14:00:00 28.74 C 10.48 g/m*3 28.74 C 0 km/h
856 22-08-2010 15:00:00 25.76 C 12.2 g/m*3 25.76 C 0 km/h
857 22-08-2010 16:00:00 27.8 C 11.89 g/m*3 27.8 C 0 km/h
858 22-08-2010 17:00:00 26.68 C 11.88 g/m*3 26.68 C 0 km/h
859 22-08-2010 18:00:00 26.28 C 11.72 g/m*3 26.28 C 0 km/h
860 22-08-2010 19:00:00 25.52 C 11.57 g/m*3 25.52 C 0 km/h
861 22-08-2010 20:00:00 24.42 C 10.65 g/m*3 24.42 C 0 km/h
862 22-08-2010 21:00:00 23.16 C 11.49 g/m*3 23.16 C 0 km/h
863 22-08-2010 22:00:00 22.66 C 11.69 g/m*3 22.66 C 0 km/h
864 22-08-2010 23:00:00 21.52 C 11.89 g/m*3 21.52 C 0 km/h
865 23-08-2010 00:00:00 20.88 C 12.01 g/m*3 20.88 C 0 km/h
866 23-08-2010 01:00:00 20.38 C 12.16 g/m*3 20.38 C 0 km/h
867 23-08-2010 02:00:00 20.02 C 12.32 g/m*3 20.02 C 0 km/h
868 23-08-2010 03:00:00 19.82 C 12.31 g/m*3 19.82 C 0 km/h
869 23-08-2010 04:00:00 19.52 C 12.33 g/m*3 19.52 C 0 km/h
870 23-08-2010 05:00:00 19.44 C 12.21 g/m*3 19.44 C 0 km/h
871 23-08-2010 06:00:00 19.48 C 12.34 g/m*3 19.48 C 0 km/h
872 23-08-2010 07:00:00 19.92 C 12.49 g/m*3 19.92 C 0 km/h
873 23-08-2010 08:00:00 19.74 C 13.31 g/m*3 19.74 C 0 km/h
874 23-08-2010 09:00:00 19.44 C 14.52 g/m*3 19.44 C 0 km/h
875 23-08-2010 10:00:00 20.64 C 15.07 g/m*3 20.64 C 0 km/h
Sensor: Nr:Datum:Temp:Abs-Feuchte:Windchill:Wind:
Aussen-T/F 876 23-08-2010 11:00:00 22.26 C 14.78 g/m*3 22.26 C 0 km/h
877 23-08-2010 12:00:00 23.08 C 15.61 g/m*3 23.08 C 0 km/h
878 23-08-2010 13:00:00 23.68 C 14.36 g/m*3 23.68 C 0 km/h
879 23-08-2010 14:00:00 24.34 C 14.28 g/m*3 24.34 C 0 km/h
880 23-08-2010 15:00:00 25.86 C 12.32 g/m*3 25.86 C 0 km/h
881 23-08-2010 16:00:00 25.94 C 11.4 g/m*3 25.94 C 0 km/h
882 23-08-2010 17:00:00 23.58 C 11.98 g/m*3 23.58 C 0 km/h
883 23-08-2010 18:00:00 21.12 C 13.76 g/m*3 21.12 C 0 km/h
884 23-08-2010 19:00:00 20.76 C 13.77 g/m*3 20.76 C 0 km/h
885 23-08-2010 20:00:00 20.34 C 12.94 g/m*3 20.34 C 0 km/h
886 23-08-2010 21:00:00 19.8 C 12.61 g/m*3 19.8 C 0 km/h
887 23-08-2010 22:00:00 19.58 C 12.24 g/m*3 19.58 C 0 km/h
888 23-08-2010 23:00:00 19.3 C 11.94 g/m*3 19.3 C 0 km/h
889 24-08-2010 00:00:00 19.18 C 12.09 g/m*3 19.18 C 0 km/h
890 24-08-2010 01:00:00 19.2 C 12.43 g/m*3 19.2 C 0 km/h
891 24-08-2010 02:00:00 19.68 C 12.28 g/m*3 19.68 C 0 km/h
892 24-08-2010 03:00:00 18.34 C 11.85 g/m*3 18.34 C 0 km/h
893 24-08-2010 04:00:00 18.06 C 9.53 g/m*3 18.06 C 0 km/h
894 24-08-2010 05:00:00 17.24 C 9.51 g/m*3 17.24 C 0 km/h
895 24-08-2010 06:00:00 17.08 C 9.48 g/m*3 17.08 C 0 km/h
896 24-08-2010 07:00:00 16.44 C 9.23 g/m*3 16.44 C 0 km/h
897 24-08-2010 08:00:00 16.16 C 8.45 g/m*3 16.16 C 0 km/h
898 24-08-2010 09:00:00 16.76 C 7.3 g/m*3 16.76 C 0 km/h
899 24-08-2010 10:00:00 17.88 C 7.23 g/m*3 17.88 C 0 km/h
900 24-08-2010 11:00:00 19.08 C 6.88 g/m*3 19.08 C 0 km/h
Sensor: Nr:Datum:Temp:Abs-Feuchte:Windchill:Wind:
Aussen-T/F 901 24-08-2010 12:00:00 20.04 C 6.34 g/m*3 20.04 C 0 km/h
902 24-08-2010 13:00:00 21 C 5.94 g/m*3 21 C 0 km/h
903 24-08-2010 14:00:00 21.46 C 5.49 g/m*3 21.46 C 0 km/h
904 24-08-2010 15:00:00 21.82 C 5.11 g/m*3 21.82 C 0 km/h
905 24-08-2010 16:00:00 23.04 C 4.61 g/m*3 23.04 C 0 km/h
906 24-08-2010 17:00:00 23.22 C 4.7 g/m*3 23.22 C 0 km/h
907 24-08-2010 18:00:00 22.92 C 5.11 g/m*3 22.92 C 0 km/h
908 24-08-2010 19:00:00 21.68 C 5.18 g/m*3 21.68 C 0 km/h
909 24-08-2010 20:00:00 19.76 C 5.79 g/m*3 19.76 C 0 km/h
910 24-08-2010 21:00:00 18.28 C 6.12 g/m*3 18.28 C 0 km/h
911 24-08-2010 22:00:00 17.4 C 6.28 g/m*3 17.4 C 0 km/h
912 24-08-2010 23:00:00 16.78 C 6.43 g/m*3 16.78 C 0 km/h
913 25-08-2010 00:00:00 16.16 C 6.55 g/m*3 16.16 C 0 km/h
914 25-08-2010 01:00:00 15.52 C 6.8 g/m*3 15.52 C 0 km/h
915 25-08-2010 02:00:00 14.66 C 7.11 g/m*3 14.66 C 0 km/h
916 25-08-2010 03:00:00 13.76 C 7.56 g/m*3 13.76 C 0 km/h
917 25-08-2010 04:00:00 13.4 C 7.7 g/m*3 13.4 C 0 km/h
918 25-08-2010 05:00:00 13.38 C 7.52 g/m*3 13.38 C 0 km/h
919 25-08-2010 06:00:00 12.94 C 7.71 g/m*3 12.94 C 0 km/h
920 25-08-2010 07:00:00 12.76 C 7.84 g/m*3 12.76 C 0 km/h
921 25-08-2010 08:00:00 13.54 C 7.86 g/m*3 13.54 C 0 km/h
922 25-08-2010 09:00:00 14.92 C 7.91 g/m*3 14.92 C 0 km/h
923 25-08-2010 10:00:00 16.3 C 7.8 g/m*3 16.3 C 0 km/h
924 25-08-2010 11:00:00 17.9 C 7.82 g/m*3 17.9 C 0 km/h
925 25-08-2010 12:00:00 20 C 7.19 g/m*3 20 C 0 km/h
Sensor: Nr:Datum:Temp:Abs-Feuchte:Windchill:Wind:
Aussen-T/F 926 25-08-2010 13:00:00 20.82 C 6.67 g/m*3 20.82 C 0 km/h
927 25-08-2010 14:00:00 21.46 C 6.43 g/m*3 21.46 C 0 km/h
928 25-08-2010 15:00:00 23.54 C 6.1 g/m*3 23.54 C 0 km/h
929 25-08-2010 16:00:00 24.46 C 5.67 g/m*3 24.46 C 0 km/h
930 25-08-2010 17:00:00 23.2 C 6.65 g/m*3 23.2 C 0 km/h
931 25-08-2010 18:00:00 21.9 C 7.1 g/m*3 21.9 C 0 km/h
932 25-08-2010 19:00:00 20.22 C 7.91 g/m*3 20.22 C 0 km/h
933 25-08-2010 20:00:00 19.04 C 8.23 g/m*3 19.04 C 0 km/h
934 25-08-2010 21:00:00 18.12 C 8.35 g/m*3 18.12 C 0 km/h
935 25-08-2010 22:00:00 17.56 C 8.5 g/m*3 17.56 C 0 km/h
936 25-08-2010 23:00:00 17.3 C 8.81 g/m*3 17.3 C 0 km/h
937 26-08-2010 00:00:00 17.28 C 9.06 g/m*3 17.28 C 0 km/h
938 26-08-2010 01:00:00 17.48 C 9.11 g/m*3 17.48 C 0 km/h
939 26-08-2010 02:00:00 16.88 C 9.97 g/m*3 16.88 C 0 km/h
940 26-08-2010 03:00:00 16.86 C 10.04 g/m*3 16.86 C 0 km/h
941 26-08-2010 04:00:00 16.94 C 9.86 g/m*3 16.94 C 0 km/h
942 26-08-2010 05:00:00 18.28 C 10.31 g/m*3 18.28 C 0 km/h
943 26-08-2010 06:00:00 18.18 C 10.53 g/m*3 18.18 C 0 km/h
944 26-08-2010 07:00:00 19.26 C 10.69 g/m*3 19.26 C 0 km/h
945 26-08-2010 08:00:00 20.2 C 11.12 g/m*3 20.2 C 0 km/h
946 26-08-2010 09:00:00 21.52 C 11.33 g/m*3 21.52 C 0 km/h
947 26-08-2010 10:00:00 22.76 C 11.19 g/m*3 22.76 C 0 km/h
948 26-08-2010 11:00:00 23.76 C 11.16 g/m*3 23.76 C 0 km/h
949 26-08-2010 12:00:00 23.54 C 11.15 g/m*3 23.54 C 0 km/h
950 26-08-2010 13:00:00 22.96 C 11.2 g/m*3 22.96 C 0 km/h
Sensor: Nr:Datum:Temp:Abs-Feuchte:Windchill:Wind:
Aussen-T/F 951 26-08-2010 14:00:00 23.8 C 11.19 g/m*3 23.8 C 0 km/h
952 26-08-2010 15:00:00 23.68 C 11.32 g/m*3 23.68 C 0 km/h
953 26-08-2010 16:00:00 23.94 C 11.28 g/m*3 23.94 C 0 km/h
954 26-08-2010 17:00:00 23.62 C 11.29 g/m*3 23.62 C 0 km/h
955 26-08-2010 18:00:00 23.18 C 11.67 g/m*3 23.18 C 0 km/h
956 26-08-2010 19:00:00 21.66 C 13.36 g/m*3 21.66 C 0 km/h
957 26-08-2010 20:00:00 20.94 C 14.49 g/m*3 20.94 C 0 km/h
958 26-08-2010 21:00:00 20.42 C 14.03 g/m*3 20.42 C 0 km/h
959 26-08-2010 22:00:00 19.76 C 14.62 g/m*3 19.76 C 0 km/h
960 26-08-2010 23:00:00 19.44 C 14.95 g/m*3 19.44 C 0 km/h
961 27-08-2010 00:00:00 18.98 C 14.91 g/m*3 18.98 C 0 km/h
962 27-08-2010 01:00:00 18.76 C 14.97 g/m*3 18.76 C 0 km/h
963 27-08-2010 02:00:00 18.62 C 14.98 g/m*3 18.62 C 0 km/h
964 27-08-2010 03:00:00 18.38 C 14.77 g/m*3 18.38 C 0 km/h
965 27-08-2010 04:00:00 18.34 C 14.73 g/m*3 18.34 C 0 km/h
966 27-08-2010 05:00:00 18.4 C 14.88 g/m*3 18.4 C 0 km/h
967 27-08-2010 06:00:00 18.82 C 15.32 g/m*3 18.82 C 0 km/h
968 27-08-2010 07:00:00 18.68 C 15.03 g/m*3 18.68 C 0 km/h
969 27-08-2010 08:00:00 18.58 C 14.94 g/m*3 18.58 C 0 km/h
970 27-08-2010 09:00:00 19.26 C 15.06 g/m*3 19.26 C 0 km/h
971 27-08-2010 10:00:00 19.32 C 14.35 g/m*3 19.32 C 0 km/h
972 27-08-2010 11:00:00 18.16 C 13.58 g/m*3 18.16 C 0 km/h
973 27-08-2010 12:00:00 20.1 C 13.52 g/m*3 20.1 C 0 km/h
974 27-08-2010 13:00:00 22.92 C 12.6 g/m*3 22.92 C 0 km/h
975 27-08-2010 14:00:00 20.76 C 12.07 g/m*3 20.76 C 0 km/h
Sensor: Nr:Datum:Temp:Abs-Feuchte:Windchill:Wind:
Aussen-T/F 976 27-08-2010 15:00:00 18.92 C 13.49 g/m*3 18.92 C 0 km/h
977 27-08-2010 16:00:00 21.9 C 12.89 g/m*3 21.9 C 0 km/h
978 27-08-2010 17:00:00 21.3 C 11.71 g/m*3 21.3 C 0 km/h
979 27-08-2010 18:00:00 16.8 C 12.01 g/m*3 16.8 C 0 km/h
980 27-08-2010 19:00:00 15.64 C 10.93 g/m*3 15.64 C 0 km/h
981 27-08-2010 20:00:00 15.12 C 10.44 g/m*3 15.12 C 0 km/h
982 27-08-2010 21:00:00 14.58 C 10.17 g/m*3 14.58 C 0 km/h
983 27-08-2010 22:00:00 14.74 C 10.02 g/m*3 14.74 C 0 km/h
984 27-08-2010 23:00:00 13.96 C 9.34 g/m*3 13.96 C 0 km/h
985 28-08-2010 00:00:00 13.78 C 9.21 g/m*3 13.78 C 0 km/h
986 28-08-2010 01:00:00 13.1 C 9.88 g/m*3 13.1 C 0 km/h
987 28-08-2010 02:00:00 13.14 C 9.82 g/m*3 13.14 C 0 km/h
988 28-08-2010 03:00:00 13.1 C 9.56 g/m*3 13.1 C 0 km/h
989 28-08-2010 04:00:00 12.54 C 9.3 g/m*3 12.54 C 0 km/h
990 28-08-2010 05:00:00 12.12 C 9.15 g/m*3 12.12 C 0 km/h
991 28-08-2010 06:00:00 11.58 C 8.76 g/m*3 11.58 C 0 km/h
992 28-08-2010 07:00:00 11.72 C 8.88 g/m*3 11.72 C 0 km/h
993 28-08-2010 08:00:00 13.08 C 8.94 g/m*3 13.08 C 0 km/h
994 28-08-2010 09:00:00 14.22 C 8.58 g/m*3 14.22 C 0 km/h
995 28-08-2010 10:00:00 15.14 C 8.35 g/m*3 15.14 C 0 km/h
996 28-08-2010 11:00:00 16.44 C 7.81 g/m*3 16.44 C 0 km/h
997 28-08-2010 12:00:00 15.42 C 8.71 g/m*3 15.42 C 0 km/h
998 28-08-2010 13:00:00 16.24 C 10.62 g/m*3 16.24 C 0 km/h
999 28-08-2010 14:00:00 15.6 C 7.69 g/m*3 15.6 C 0 km/h
1000 28-08-2010 15:00:00 16.72 C 7.46 g/m*3 16.72 C 0 km/h
Sensor: Nr:Datum:Temp:Abs-Feuchte:Windchill:Wind:
Aussen-T/F 1001 28-08-2010 16:00:00 15.1 C 8.08 g/m*3 15.1 C 0 km/h
1002 28-08-2010 17:00:00 15.6 C 8.67 g/m*3 15.6 C 0 km/h
1003 28-08-2010 18:00:00 17.56 C 7.42 g/m*3 17.56 C 0 km/h
1004 28-08-2010 19:00:00 15.26 C 8.34 g/m*3 15.26 C 0 km/h
1005 28-08-2010 20:00:00 13.1 C 9.04 g/m*3 13.1 C 0 km/h
1006 28-08-2010 21:00:00 12.46 C 9.12 g/m*3 12.46 C 0 km/h
1007 28-08-2010 22:00:00 12.24 C 8.96 g/m*3 12.24 C 0 km/h
1008 28-08-2010 23:00:00 12.36 C 8.72 g/m*3 12.36 C 0 km/h
1009 29-08-2010 00:00:00 11.9 C 8.47 g/m*3 11.9 C 0 km/h
1010 29-08-2010 01:00:00 11.5 C 8.45 g/m*3 11.5 C 0 km/h
1011 29-08-2010 02:00:00 11.74 C 8.54 g/m*3 11.74 C 0 km/h
1012 29-08-2010 03:00:00 11.76 C 8.48 g/m*3 11.76 C 0 km/h
1013 29-08-2010 04:00:00 11.5 C 8.39 g/m*3 11.5 C 0 km/h
1014 29-08-2010 05:00:00 11.74 C 8.33 g/m*3 11.74 C 0 km/h
1015 29-08-2010 06:00:00 12.1 C 8.3 g/m*3 12.1 C 0 km/h
1016 29-08-2010 07:00:00 12.2 C 8.33 g/m*3 12.2 C 0 km/h
1017 29-08-2010 08:00:00 12.44 C 8.35 g/m*3 12.44 C 0 km/h
1018 29-08-2010 09:00:00 14 C 8.18 g/m*3 14 C 0 km/h
1019 29-08-2010 10:00:00 15.4 C 8.04 g/m*3 15.4 C 0 km/h
1020 29-08-2010 11:00:00 16.26 C 7.92 g/m*3 16.26 C 0 km/h
1021 29-08-2010 12:00:00 15.12 C 9.04 g/m*3 15.12 C 0 km/h
1022 29-08-2010 13:00:00 16.04 C 8.71 g/m*3 16.04 C 0 km/h
1023 29-08-2010 14:00:00 16.46 C 8.4 g/m*3 16.46 C 0 km/h
1024 29-08-2010 15:00:00 15.08 C 8.92 g/m*3 15.08 C 0 km/h
1025 29-08-2010 16:00:00 15.76 C 8.51 g/m*3 15.76 C 0 km/h
Sensor: Nr:Datum:Temp:Abs-Feuchte:Windchill:Wind:
Aussen-T/F 1026 29-08-2010 17:00:00 14.96 C 8.31 g/m*3 14.96 C 0 km/h
1027 29-08-2010 18:00:00 13.06 C 9.31 g/m*3 13.06 C 0 km/h
1028 29-08-2010 19:00:00 12 C 9.29 g/m*3 12 C 0 km/h
1029 29-08-2010 20:00:00 11.78 C 8.96 g/m*3 11.78 C 0 km/h
1030 29-08-2010 21:00:00 11.64 C 8.71 g/m*3 11.64 C 0 km/h
1031 29-08-2010 22:00:00 9.2 C 8.02 g/m*3 9.2 C 0 km/h
1032 29-08-2010 23:00:00 9.12 C 8.16 g/m*3 9.12 C 0 km/h
1033 30-08-2010 00:00:00 9.2 C 7.98 g/m*3 9.2 C 0 km/h
1034 30-08-2010 01:00:00 9.94 C 7.84 g/m*3 9.94 C 0 km/h
1035 30-08-2010 02:00:00 10.52 C 7.77 g/m*3 10.52 C 0 km/h
1036 30-08-2010 03:00:00 10.82 C 7.66 g/m*3 10.82 C 0 km/h
1037 30-08-2010 04:00:00 10.26 C 7.99 g/m*3 10.26 C 0 km/h
1038 30-08-2010 05:00:00 9.62 C 8.02 g/m*3 9.62 C 0 km/h
1039 30-08-2010 06:00:00 10.06 C 8.47 g/m*3 10.06 C 0 km/h
1040 30-08-2010 07:00:00 9.96 C 8.4 g/m*3 9.96 C 0 km/h
1041 30-08-2010 08:00:00 10.82 C 8.63 g/m*3 10.82 C 0 km/h
1042 30-08-2010 09:00:00 10.98 C 8.64 g/m*3 10.98 C 0 km/h
1043 30-08-2010 10:00:00 11.86 C 8.83 g/m*3 11.86 C 0 km/h
1044 30-08-2010 11:00:00 13 C 8.32 g/m*3 13 C 0 km/h
1045 30-08-2010 12:00:00 14.02 C 7.63 g/m*3 14.02 C 0 km/h
1046 30-08-2010 13:00:00 16.04 C 6.77 g/m*3 16.04 C 0 km/h
1047 30-08-2010 14:00:00 16.28 C 7.73 g/m*3 16.28 C 0 km/h
1048 30-08-2010 15:00:00 17.48 C 7.8 g/m*3 17.48 C 0 km/h
1049 30-08-2010 16:00:00 15.86 C 9.16 g/m*3 15.86 C 0 km/h
1050 30-08-2010 17:00:00 15.04 C 9.23 g/m*3 15.04 C 0 km/h
Sensor: Nr:Datum:Temp:Abs-Feuchte:Windchill:Wind:
Aussen-T/F 1051 30-08-2010 18:00:00 14.32 C 8.76 g/m*3 14.32 C 0 km/h
1052 30-08-2010 19:00:00 14.04 C 8.97 g/m*3 14.04 C 0 km/h
1053 30-08-2010 20:00:00 13.76 C 8.72 g/m*3 13.76 C 0 km/h
1054 30-08-2010 21:00:00 12.72 C 9.56 g/m*3 12.72 C 0 km/h
1055 30-08-2010 22:00:00 12.72 C 9.92 g/m*3 12.72 C 0 km/h
1056 30-08-2010 23:00:00 12.3 C 9.69 g/m*3 12.3 C 0 km/h
1057 31-08-2010 00:00:00 12.22 C 9.62 g/m*3 12.22 C 0 km/h
1058 31-08-2010 01:00:00 12.42 C 9.45 g/m*3 12.42 C 0 km/h
1059 31-08-2010 02:00:00 12.36 C 9.31 g/m*3 12.36 C 0 km/h
1060 31-08-2010 03:00:00 12.1 C 9.07 g/m*3 12.1 C 0 km/h
1061 31-08-2010 04:00:00 11.52 C 9.06 g/m*3 11.52 C 0 km/h
1062 31-08-2010 05:00:00 11.38 C 9.04 g/m*3 11.38 C 0 km/h
1063 31-08-2010 06:00:00 11.7 C 9.22 g/m*3 11.7 C 0 km/h
1064 31-08-2010 07:00:00 12.2 C 9.09 g/m*3 12.2 C 0 km/h
1065 31-08-2010 08:00:00 12.64 C 9.07 g/m*3 12.64 C 0 km/h
1066 31-08-2010 09:00:00 13.58 C 8.86 g/m*3 13.58 C 0 km/h
1067 31-08-2010 10:00:00 14.14 C 8.35 g/m*3 14.14 C 0 km/h
1068 31-08-2010 11:00:00 15.6 C 8.09 g/m*3 15.6 C 0 km/h
1069 31-08-2010 12:00:00 16.88 C 7.93 g/m*3 16.88 C 0 km/h
1070 31-08-2010 13:00:00 17.96 C 6.99 g/m*3 17.96 C 0 km/h
1071 31-08-2010 14:00:00 20.16 C 6.45 g/m*3 20.16 C 0 km/h
1072 31-08-2010 15:00:00 21.2 C 5.86 g/m*3 21.2 C 0 km/h
1073 31-08-2010 16:00:00 21.46 C 5.64 g/m*3 21.46 C 0 km/h
1074 31-08-2010 17:00:00 21.82 C 5.57 g/m*3 21.82 C 0 km/h
1075 31-08-2010 18:00:00 22.26 C 5.67 g/m*3 22.26 C 0 km/h
Sensor: Nr:Datum:Temp:Abs-Feuchte:Windchill:Wind:
Aussen-T/F 1076 31-08-2010 19:00:00 20.32 C 6.55 g/m*3 20.32 C 0 km/h
1077 31-08-2010 20:00:00 16.38 C 7.17 g/m*3 16.38 C 0 km/h
1078 31-08-2010 21:00:00 14.44 C 7.61 g/m*3 14.44 C 0 km/h
1079 31-08-2010 22:00:00 13.24 C 8.1 g/m*3 13.24 C 0 km/h
1080 31-08-2010 23:00:00 12.32 C 8.09 g/m*3 12.32 C 0 km/h
1081 01-09-2010 00:00:00 11.58 C 8.08 g/m*3 11.58 C 0 km/h
1082 01-09-2010 01:00:00 10.98 C 8.1 g/m*3 10.98 C 0 km/h
1083 01-09-2010 02:00:00 10.36 C 7.96 g/m*3 10.36 C 0 km/h
1084 01-09-2010 03:00:00 9.74 C 7.97 g/m*3 9.74 C 0 km/h
1085 01-09-2010 04:00:00 9.14 C 7.86 g/m*3 9.14 C 0 km/h
1086 01-09-2010 05:00:00 8.92 C 7.95 g/m*3 8.92 C 0 km/h
1087 01-09-2010 06:00:00 8.94 C 8.04 g/m*3 8.94 C 0 km/h
1088 01-09-2010 07:00:00 9.02 C 7.98 g/m*3 9.02 C 0 km/h
1089 01-09-2010 08:00:00 9.26 C 8.05 g/m*3 9.26 C 0 km/h
1090 01-09-2010 09:00:00 10.22 C 8.14 g/m*3 10.22 C 0 km/h
1091 01-09-2010 10:00:00 12.1 C 8.56 g/m*3 12.1 C 0 km/h
1092 01-09-2010 11:00:00 14.26 C 8.78 g/m*3 14.26 C 0 km/h
1093 01-09-2010 12:00:00 17.24 C 8.54 g/m*3 17.24 C 0 km/h
1094 01-09-2010 13:00:00 19.52 C 7.96 g/m*3 19.52 C 0 km/h
1095 01-09-2010 14:00:00 21.18 C 7.03 g/m*3 21.18 C 0 km/h
1096 01-09-2010 15:00:00 23.6 C 6 g/m*3 23.6 C 0 km/h
1097 01-09-2010 16:00:00 23.8 C 6.02 g/m*3 23.8 C 0 km/h
1098 01-09-2010 17:00:00 22.04 C 6.38 g/m*3 22.04 C 0 km/h
1099 01-09-2010 18:00:00 21.1 C 6.96 g/m*3 21.1 C 0 km/h
1100 01-09-2010 19:00:00 19.62 C 7.88 g/m*3 19.62 C 0 km/h
Sensor: Nr:Datum:Temp:Abs-Feuchte:Windchill:Wind:
Aussen-T/F 1101 01-09-2010 20:00:00 17.36 C 8.72 g/m*3 17.36 C 0 km/h
1102 01-09-2010 21:00:00 16.24 C 8.85 g/m*3 16.24 C 0 km/h
1103 01-09-2010 22:00:00 15.55 C 8.82 g/m*3 15.55 C 0 km/h
1104 01-09-2010 23:00:00 14.16 C 8.28 g/m*3 14.16 C 0 km/h
1105 02-09-2010 00:00:00 13.02 C 8.22 g/m*3 13.02 C 0 km/h
1106 02-09-2010 01:00:00 12.32 C 8.37 g/m*3 12.32 C 0 km/h
1107 02-09-2010 02:00:00 11.6 C 8.56 g/m*3 11.6 C 0 km/h
1108 02-09-2010 03:00:00 11 C 8.31 g/m*3 11 C 0 km/h
1109 02-09-2010 04:00:00 10.44 C 8.29 g/m*3 10.44 C 0 km/h
1110 02-09-2010 05:00:00 10.32 C 8.5 g/m*3 10.32 C 0 km/h
1111 02-09-2010 06:00:00 10.34 C 8.6 g/m*3 10.34 C 0 km/h
1112 02-09-2010 07:00:00 10.68 C 8.81 g/m*3 10.68 C 0 km/h
1113 02-09-2010 08:00:00 11.34 C 8.96 g/m*3 11.34 C 0 km/h
1114 02-09-2010 09:00:00 12.4 C 8.98 g/m*3 12.4 C 0 km/h
1115 02-09-2010 10:00:00 14.02 C 8.65 g/m*3 14.02 C 0 km/h
1116 02-09-2010 11:00:00 15.46 C 9.02 g/m*3 15.46 C 0 km/h
1117 02-09-2010 12:00:00 18.66 C 8.75 g/m*3 18.66 C 0 km/h
1118 02-09-2010 13:00:00 20.84 C 7.37 g/m*3 20.84 C 0 km/h
1119 02-09-2010 14:00:00 22.2 C 7.22 g/m*3 22.2 C 0 km/h
1120 02-09-2010 15:00:00 21.42 C 6.91 g/m*3 21.42 C 0 km/h
1121 02-09-2010 16:00:00 20.6 C 6.91 g/m*3 20.6 C 0 km/h
1122 02-09-2010 17:00:00 19.54 C 7.13 g/m*3 19.54 C 0 km/h
1123 02-09-2010 18:00:00 18.66 C 7.41 g/m*3 18.66 C 0 km/h
1124 02-09-2010 19:00:00 17.64 C 8.93 g/m*3 17.64 C 0 km/h
1125 02-09-2010 20:00:00 15.14 C 10.01 g/m*3 15.14 C 0 km/h
Sensor: Nr:Datum:Temp:Abs-Feuchte:Windchill:Wind:
Aussen-T/F 1126 02-09-2010 21:00:00 14.42 C 9.85 g/m*3 14.42 C 0 km/h
1127 02-09-2010 22:00:00 13.84 C 9.34 g/m*3 13.84 C 0 km/h
1128 02-09-2010 23:00:00 12.98 C 9.2 g/m*3 12.98 C 0 km/h
1129 03-09-2010 00:00:00 12.42 C 9.1 g/m*3 12.42 C 0 km/h
1130 03-09-2010 01:00:00 11.82 C 8.92 g/m*3 11.82 C 0 km/h
1131 03-09-2010 02:00:00 11.24 C 8.76 g/m*3 11.24 C 0 km/h
1132 03-09-2010 03:00:00 10.72 C 8.63 g/m*3 10.72 C 0 km/h
1133 03-09-2010 04:00:00 10.34 C 8.6 g/m*3 10.34 C 0 km/h
1134 03-09-2010 05:00:00 10.4 C 8.75 g/m*3 10.4 C 0 km/h
1135 03-09-2010 06:00:00 11.08 C 9.24 g/m*3 11.08 C 0 km/h
1136 03-09-2010 07:00:00 11.36 C 9.32 g/m*3 11.36 C 0 km/h
1137 03-09-2010 08:00:00 11.64 C 9.34 g/m*3 11.64 C 0 km/h
1138 03-09-2010 09:00:00 12.44 C 9.29 g/m*3 12.44 C 0 km/h
1139 03-09-2010 10:00:00 13.58 C 9.22 g/m*3 13.58 C 0 km/h
1140 03-09-2010 11:00:00 15.9 C 8.94 g/m*3 15.9 C 0 km/h
1141 03-09-2010 12:00:00 17.86 C 8.47 g/m*3 17.86 C 0 km/h
1142 03-09-2010 13:00:00 19.68 C 8.18 g/m*3 19.68 C 0 km/h
1143 03-09-2010 14:00:00 20.4 C 7.64 g/m*3 20.4 C 0 km/h
1144 03-09-2010 15:00:00 22.78 C 7.02 g/m*3 22.78 C 0 km/h
1145 03-09-2010 16:00:00 25.12 C 6.58 g/m*3 25.12 C 0 km/h
1146 03-09-2010 17:00:00 24.12 C 6.53 g/m*3 24.12 C 0 km/h
1147 03-09-2010 18:00:00 22.7 C 8.12 g/m*3 22.7 C 0 km/h
1148 03-09-2010 19:00:00 20.7 C 8.86 g/m*3 20.7 C 0 km/h
1149 03-09-2010 20:00:00 18.62 C 8.25 g/m*3 18.62 C 0 km/h
1150 03-09-2010 21:00:00 16.32 C 8.56 g/m*3 16.32 C 0 km/h
Sensor: Nr:Datum:Temp:Abs-Feuchte:Windchill:Wind:
Aussen-T/F 1151 03-09-2010 22:00:00 15.36 C 8.86 g/m*3 15.36 C 0 km/h
1152 03-09-2010 23:00:00 15.34 C 9.22 g/m*3 15.34 C 0 km/h
1153 04-09-2010 00:00:00 15.1 C 9.29 g/m*3 15.1 C 0 km/h
1154 04-09-2010 01:00:00 14.82 C 9.41 g/m*3 14.82 C 0 km/h
1155 04-09-2010 02:00:00 14.28 C 9.4 g/m*3 14.28 C 0 km/h
1156 04-09-2010 03:00:00 13.72 C 9.41 g/m*3 13.72 C 0 km/h
1157 04-09-2010 04:00:00 13.2 C 9.48 g/m*3 13.2 C 0 km/h
1158 04-09-2010 05:00:00 13.1 C 9.59 g/m*3 13.1 C 0 km/h
1159 04-09-2010 06:00:00 12.54 C 9.3 g/m*3 12.54 C 0 km/h
1160 04-09-2010 07:00:00 12.08 C 9.25 g/m*3 12.08 C 0 km/h
1161 04-09-2010 08:00:00 12.8 C 9.77 g/m*3 12.8 C 0 km/h
1162 04-09-2010 09:00:00 14.44 C 9.96 g/m*3 14.44 C 0 km/h
1163 04-09-2010 10:00:00 16.3 C 9.49 g/m*3 16.3 C 0 km/h
1164 04-09-2010 11:00:00 18.88 C 8.77 g/m*3 18.88 C 0 km/h
1165 04-09-2010 12:00:00 18.86 C 7.89 g/m*3 18.86 C 0 km/h
1166 04-09-2010 13:00:00 19.58 C 7.62 g/m*3 19.58 C 0 km/h
1167 04-09-2010 14:00:00 22.2 C 6.71 g/m*3 22.2 C 0 km/h
1168 04-09-2010 15:00:00 22.88 C 6.29 g/m*3 22.88 C 0 km/h
1169 04-09-2010 16:00:00 22.42 C 5.53 g/m*3 22.42 C 0 km/h
1170 04-09-2010 17:00:00 23.12 C 4.88 g/m*3 23.12 C 0 km/h
1171 04-09-2010 18:00:00 22.74 C 4.37 g/m*3 22.74 C 0 km/h
1172 04-09-2010 19:00:00 19.74 C 5.55 g/m*3 19.74 C 0 km/h
1173 04-09-2010 20:00:00 16.14 C 6.54 g/m*3 16.14 C 0 km/h
1174 04-09-2010 21:00:00 14.92 C 6.94 g/m*3 14.92 C 0 km/h
1175 04-09-2010 22:00:00 14.16 C 7.26 g/m*3 14.16 C 0 km/h
Sensor: Nr:Datum:Temp:Abs-Feuchte:Windchill:Wind:
Aussen-T/F 1176 04-09-2010 23:00:00 13.12 C 7.59 g/m*3 13.12 C 0 km/h
1177 05-09-2010 00:00:00 12.16 C 7.62 g/m*3 12.16 C 0 km/h
1178 05-09-2010 01:00:00 11.22 C 7.53 g/m*3 11.22 C 0 km/h
1179 05-09-2010 02:00:00 10.44 C 7.52 g/m*3 10.44 C 0 km/h
1180 05-09-2010 03:00:00 9.72 C 7.4 g/m*3 9.72 C 0 km/h
1181 05-09-2010 04:00:00 9.12 C 7.27 g/m*3 9.12 C 0 km/h
1182 05-09-2010 05:00:00 8.64 C 7.27 g/m*3 8.64 C 0 km/h
1183 05-09-2010 06:00:00 8.08 C 7.25 g/m*3 8.08 C 0 km/h
1184 05-09-2010 07:00:00 8.4 C 7.52 g/m*3 8.4 C 0 km/h
1185 05-09-2010 08:00:00 9.82 C 7.91 g/m*3 9.82 C 0 km/h
1186 05-09-2010 09:00:00 11.1 C 7.88 g/m*3 11.1 C 0 km/h
1187 05-09-2010 10:00:00 12.36 C 8.44 g/m*3 12.36 C 0 km/h
1188 05-09-2010 11:00:00 15.42 C 8.16 g/m*3 15.42 C 0 km/h
1189 05-09-2010 12:00:00 18.02 C 6.52 g/m*3 18.02 C 0 km/h
1190 05-09-2010 13:00:00 20.14 C 5.92 g/m*3 20.14 C 0 km/h
1191 05-09-2010 14:00:00 23.5 C 5.2 g/m*3 23.5 C 0 km/h
1192 05-09-2010 15:00:00 24.16 C 4.83 g/m*3 24.16 C 0 km/h
1193 05-09-2010 16:00:00 24.4 C 4.67 g/m*3 24.4 C 0 km/h
1194 05-09-2010 17:00:00 24.6 C 5.04 g/m*3 24.6 C 0 km/h
1195 05-09-2010 18:00:00 24.84 C 5.29 g/m*3 24.84 C 0 km/h
1196 05-09-2010 19:00:00 19.38 C 6.4 g/m*3 19.38 C 0 km/h
1197 05-09-2010 20:00:00 16.44 C 6.38 g/m*3 16.44 C 0 km/h
1198 05-09-2010 21:00:00 14.9 C 6.81 g/m*3 14.9 C 0 km/h
1199 05-09-2010 22:00:00 14.12 C 7.1 g/m*3 14.12 C 0 km/h
1200 05-09-2010 23:00:00 13.94 C 6.92 g/m*3 13.94 C 0 km/h
Sensor: Nr:Datum:Temp:Abs-Feuchte:Windchill:Wind:
Aussen-T/F 1201 06-09-2010 00:00:00 13.22 C 7.08 g/m*3 13.22 C 0 km/h
1202 06-09-2010 01:00:00 12.36 C 7.11 g/m*3 12.36 C 0 km/h
1203 06-09-2010 02:00:00 11.62 C 7.2 g/m*3 11.62 C 0 km/h
1204 06-09-2010 03:00:00 11.1 C 7.15 g/m*3 11.1 C 0 km/h
1205 06-09-2010 04:00:00 10.7 C 7.09 g/m*3 10.7 C 0 km/h
1206 06-09-2010 05:00:00 10.24 C 7.02 g/m*3 10.24 C 0 km/h
1207 06-09-2010 06:00:00 9.56 C 7 g/m*3 9.56 C 0 km/h
1208 06-09-2010 07:00:00 9.28 C 7.07 g/m*3 9.28 C 0 km/h
1209 06-09-2010 08:00:00 9.68 C 7.22 g/m*3 9.68 C 0 km/h
1210 06-09-2010 09:00:00 10.94 C 7.52 g/m*3 10.94 C 0 km/h
1211 06-09-2010 10:00:00 13.48 C 7.52 g/m*3 13.48 C 0 km/h
1212 06-09-2010 11:00:00 16.32 C 7.14 g/m*3 16.32 C 0 km/h
1213 06-09-2010 12:00:00 18.64 C 5.58 g/m*3 18.64 C 0 km/h
1214 06-09-2010 13:00:00 20.24 C 5.4 g/m*3 20.24 C 0 km/h
1215 06-09-2010 14:00:00 22.34 C 4.51 g/m*3 22.34 C 0 km/h
1216 06-09-2010 15:00:00 24 C 4.35 g/m*3 24 C 0 km/h
1217 06-09-2010 16:00:00 23.88 C 4.32 g/m*3 23.88 C 0 km/h
1218 06-09-2010 17:00:00 24.42 C 4.46 g/m*3 24.42 C 0 km/h
1219 06-09-2010 18:00:00 21.44 C 5.34 g/m*3 21.44 C 0 km/h
1220 06-09-2010 19:00:00 18.72 C 5.87 g/m*3 18.72 C 0 km/h
1221 06-09-2010 20:00:00 17.1 C 5.62 g/m*3 17.1 C 0 km/h
1222 06-09-2010 21:00:00 16.22 C 5.44 g/m*3 16.22 C 0 km/h
1223 06-09-2010 22:00:00 15.5 C 5.6 g/m*3 15.5 C 0 km/h
1224 06-09-2010 23:00:00 15.2 C 5.63 g/m*3 15.2 C 0 km/h
1225 07-09-2010 00:00:00 15.38 C 5.51 g/m*3 15.38 C 0 km/h
Sensor: Nr:Datum:Temp:Abs-Feuchte:Windchill:Wind:
Aussen-T/F 1226 07-09-2010 01:00:00 15.42 C 5.39 g/m*3 15.42 C 0 km/h
1227 07-09-2010 02:00:00 15.46 C 5.38 g/m*3 15.46 C 0 km/h
1228 07-09-2010 03:00:00 14.34 C 6.03 g/m*3 14.34 C 0 km/h
1229 07-09-2010 04:00:00 13.06 C 7.01 g/m*3 13.06 C 0 km/h
1230 07-09-2010 05:00:00 12.98 C 7.11 g/m*3 12.98 C 0 km/h
1231 07-09-2010 06:00:00 12.5 C 7.04 g/m*3 12.5 C 0 km/h
1232 07-09-2010 07:00:00 12.12 C 7.09 g/m*3 12.12 C 0 km/h
1233 07-09-2010 08:00:00 11.56 C 8.11 g/m*3 11.56 C 0 km/h
1234 07-09-2010 09:00:00 11.46 C 8.41 g/m*3 11.46 C 0 km/h
1235 07-09-2010 10:00:00 11.46 C 8.88 g/m*3 11.46 C 0 km/h
1236 07-09-2010 11:00:00 11.64 C 9.21 g/m*3 11.64 C 0 km/h
1237 07-09-2010 12:00:00 12.42 C 9.5 g/m*3 12.42 C 0 km/h
1238 07-09-2010 13:00:00 12.78 C 9.31 g/m*3 12.78 C 0 km/h
1239 07-09-2010 14:00:00 13.36 C 9.37 g/m*3 13.36 C 0 km/h
1240 07-09-2010 15:00:00 14.58 C 9.12 g/m*3 14.58 C 0 km/h
1241 07-09-2010 16:00:00 15.52 C 9.11 g/m*3 15.52 C 0 km/h
1242 07-09-2010 17:00:00 14.88 C 9.06 g/m*3 14.88 C 0 km/h
1243 07-09-2010 18:00:00 13.98 C 9.08 g/m*3 13.98 C 0 km/h
1244 07-09-2010 19:00:00 13.78 C 9.38 g/m*3 13.78 C 0 km/h
1245 07-09-2010 20:00:00 13.24 C 9.55 g/m*3 13.24 C 0 km/h
1246 07-09-2010 21:00:00 12.96 C 9.89 g/m*3 12.96 C 0 km/h
1247 07-09-2010 22:00:00 12.86 C 10.03 g/m*3 12.86 C 0 km/h
1248 07-09-2010 23:00:00 12.92 C 10.16 g/m*3 12.92 C 0 km/h
1249 08-09-2010 00:00:00 12.88 C 10.24 g/m*3 12.88 C 0 km/h
1250 08-09-2010 01:00:00 13 C 10.37 g/m*3 13 C 0 km/h
Sensor: Nr:Datum:Temp:Abs-Feuchte:Windchill:Wind:
Aussen-T/F 1251 08-09-2010 02:00:00 13.2 C 10.61 g/m*3 13.2 C 0 km/h
1252 08-09-2010 03:00:00 13.56 C 10.92 g/m*3 13.56 C 0 km/h
1253 08-09-2010 04:00:00 13.56 C 10.92 g/m*3 13.56 C 0 km/h
1254 08-09-2010 05:00:00 14.16 C 11.4 g/m*3 14.16 C 0 km/h
1255 08-09-2010 06:00:00 14.36 C 11.44 g/m*3 14.36 C 0 km/h
1256 08-09-2010 07:00:00 14.22 C 11.25 g/m*3 14.22 C 0 km/h
1257 08-09-2010 08:00:00 14.22 C 11.25 g/m*3 14.22 C 0 km/h
1258 08-09-2010 09:00:00 15.22 C 11.62 g/m*3 15.22 C 0 km/h
1259 08-09-2010 10:00:00 15.52 C 11.41 g/m*3 15.52 C 0 km/h
1260 08-09-2010 11:00:00 15.24 C 11.03 g/m*3 15.24 C 0 km/h
1261 08-09-2010 12:00:00 14.74 C 11.26 g/m*3 14.74 C 0 km/h
1262 08-09-2010 13:00:00 16.22 C 12.12 g/m*3 16.22 C 0 km/h
1263 08-09-2010 14:00:00 17.58 C 11.56 g/m*3 17.58 C 0 km/h
1264 08-09-2010 15:00:00 17.94 C 11.17 g/m*3 17.94 C 0 km/h
1265 08-09-2010 16:00:00 18.54 C 10.69 g/m*3 18.54 C 0 km/h
1266 08-09-2010 17:00:00 19.88 C 10.23 g/m*3 19.88 C 0 km/h
1267 08-09-2010 18:00:00 19.06 C 10.24 g/m*3 19.06 C 0 km/h
1268 08-09-2010 19:00:00 18.2 C 10.54 g/m*3 18.2 C 0 km/h
1269 08-09-2010 20:00:00 16.8 C 10.52 g/m*3 16.8 C 0 km/h
1270 08-09-2010 21:00:00 15.72 C 9.7 g/m*3 15.72 C 0 km/h
1271 08-09-2010 22:00:00 14.78 C 9.79 g/m*3 14.78 C 0 km/h
1272 08-09-2010 23:00:00 14.48 C 10.01 g/m*3 14.48 C 0 km/h
1273 09-09-2010 00:00:00 14.38 C 10.2 g/m*3 14.38 C 0 km/h
1274 09-09-2010 01:00:00 15.04 C 10.08 g/m*3 15.04 C 0 km/h
1275 09-09-2010 02:00:00 15.14 C 9.93 g/m*3 15.14 C 0 km/h
Sensor: Nr:Datum:Temp:Abs-Feuchte:Windchill:Wind:
Aussen-T/F 1276 09-09-2010 03:00:00 15.32 C 9.78 g/m*3 15.32 C 0 km/h
1277 09-09-2010 04:00:00 15.22 C 9.33 g/m*3 15.22 C 0 km/h
1278 09-09-2010 05:00:00 14.9 C 9.02 g/m*3 14.9 C 0 km/h
1279 09-09-2010 06:00:00 14.78 C 8.88 g/m*3 14.78 C 0 km/h
1280 09-09-2010 07:00:00 14.58 C 9.07 g/m*3 14.58 C 0 km/h
1281 09-09-2010 08:00:00 14.8 C 9.1 g/m*3 14.8 C 0 km/h
1282 09-09-2010 09:00:00 15.26 C 9.09 g/m*3 15.26 C 0 km/h
1283 09-09-2010 10:00:00 16.76 C 9.1 g/m*3 16.76 C 0 km/h
1284 09-09-2010 11:00:00 17.78 C 8.88 g/m*3 17.78 C 0 km/h
1285 09-09-2010 12:00:00 18.64 C 8.17 g/m*3 18.64 C 0 km/h
1286 09-09-2010 13:00:00 18.8 C 8.21 g/m*3 18.8 C 0 km/h
1287 09-09-2010 14:00:00 18.98 C 8.59 g/m*3 18.98 C 0 km/h
1288 09-09-2010 15:00:00 19.38 C 9.13 g/m*3 19.38 C 0 km/h
1289 09-09-2010 16:00:00 17.1 C 10.92 g/m*3 17.1 C 0 km/h
1290 09-09-2010 17:00:00 17.92 C 11.62 g/m*3 17.92 C 0 km/h
1291 09-09-2010 18:00:00 17.7 C 10.47 g/m*3 17.7 C 0 km/h
1292 09-09-2010 19:00:00 16.54 C 9.46 g/m*3 16.54 C 0 km/h
1293 09-09-2010 20:00:00 15.4 C 9.78 g/m*3 15.4 C 0 km/h
1294 09-09-2010 21:00:00 14.8 C 10.26 g/m*3 14.8 C 0 km/h
1295 09-09-2010 22:00:00 14.74 C 10.17 g/m*3 14.74 C 0 km/h
1296 09-09-2010 23:00:00 14.98 C 9.71 g/m*3 14.98 C 0 km/h
1297 10-09-2010 00:00:00 14.66 C 9.92 g/m*3 14.66 C 0 km/h
1298 10-09-2010 01:00:00 14 C 9.77 g/m*3 14 C 0 km/h
1299 10-09-2010 02:00:00 13.9 C 9.95 g/m*3 13.9 C 0 km/h
1300 10-09-2010 03:00:00 13.9 C 10.07 g/m*3 13.9 C 0 km/h
Sensor: Nr:Datum:Temp:Abs-Feuchte:Windchill:Wind:
Aussen-T/F 1301 10-09-2010 04:00:00 13.84 C 10.25 g/m*3 13.84 C 0 km/h
1302 10-09-2010 05:00:00 13.06 C 9.99 g/m*3 13.06 C 0 km/h
1303 10-09-2010 06:00:00 13.12 C 10.24 g/m*3 13.12 C 0 km/h
1304 10-09-2010 07:00:00 13.18 C 9.84 g/m*3 13.18 C 0 km/h
1305 10-09-2010 08:00:00 13.32 C 9.95 g/m*3 13.32 C 0 km/h
1306 10-09-2010 09:00:00 14.6 C 9.54 g/m*3 14.6 C 0 km/h
1307 10-09-2010 10:00:00 16.16 C 9.35 g/m*3 16.16 C 0 km/h
1308 10-09-2010 11:00:00 17.88 C 9.21 g/m*3 17.88 C 0 km/h
1309 10-09-2010 12:00:00 18.74 C 9.18 g/m*3 18.74 C 0 km/h
1310 10-09-2010 13:00:00 19.18 C 8.66 g/m*3 19.18 C 0 km/h
1311 10-09-2010 14:00:00 19.94 C 8.75 g/m*3 19.94 C 0 km/h
1312 10-09-2010 15:00:00 20.82 C 8.59 g/m*3 20.82 C 0 km/h
1313 10-09-2010 16:00:00 21.1 C 8.44 g/m*3 21.1 C 0 km/h
1314 10-09-2010 17:00:00 20.18 C 8.98 g/m*3 20.18 C 0 km/h
1315 10-09-2010 18:00:00 17.86 C 10.21 g/m*3 17.86 C 0 km/h
1316 10-09-2010 19:00:00 16.26 C 11.43 g/m*3 16.26 C 0 km/h
1317 10-09-2010 20:00:00 15.68 C 11.57 g/m*3 15.68 C 0 km/h
1318 10-09-2010 21:00:00 15.8 C 11.68 g/m*3 15.8 C 0 km/h
1319 10-09-2010 22:00:00 15.68 C 11.44 g/m*3 15.68 C 0 km/h
1320 10-09-2010 23:00:00 15.46 C 11.18 g/m*3 15.46 C 0 km/h
1321 11-09-2010 00:00:00 15.14 C 10.86 g/m*3 15.14 C 0 km/h
1322 11-09-2010 01:00:00 15 C 10.8 g/m*3 15 C 0 km/h
1323 11-09-2010 02:00:00 14.74 C 10.73 g/m*3 14.74 C 0 km/h
1324 11-09-2010 03:00:00 14.08 C 10.42 g/m*3 14.08 C 0 km/h
1325 11-09-2010 04:00:00 13.14 C 9.86 g/m*3 13.14 C 0 km/h
Sensor: Nr:Datum:Temp:Abs-Feuchte:Windchill:Wind:
Aussen-T/F 1326 11-09-2010 05:00:00 12.64 C 9.78 g/m*3 12.64 C 0 km/h
1327 11-09-2010 06:00:00 12.74 C 9.91 g/m*3 12.74 C 0 km/h
1328 11-09-2010 07:00:00 12.16 C 9.54 g/m*3 12.16 C 0 km/h
1329 11-09-2010 08:00:00 13.04 C 10.23 g/m*3 13.04 C 0 km/h
1330 11-09-2010 09:00:00 13.76 C 10.55 g/m*3 13.76 C 0 km/h
1331 11-09-2010 10:00:00 15.66 C 11.32 g/m*3 15.66 C 0 km/h
1332 11-09-2010 11:00:00 18.24 C 11.37 g/m*3 18.24 C 0 km/h
1333 11-09-2010 12:00:00 19.9 C 9.59 g/m*3 19.9 C 0 km/h
1334 11-09-2010 13:00:00 21.76 C 8.81 g/m*3 21.76 C 0 km/h
1335 11-09-2010 14:00:00 24.2 C 8.14 g/m*3 24.2 C 0 km/h
1336 11-09-2010 15:00:00 26.04 C 7.86 g/m*3 26.04 C 0 km/h
1337 11-09-2010 16:00:00 26.34 C 8.19 g/m*3 26.34 C 0 km/h
1338 11-09-2010 17:00:00 27.62 C 8.31 g/m*3 27.62 C 0 km/h
1339 11-09-2010 18:00:00 26.06 C 9.28 g/m*3 26.06 C 0 km/h
1340 11-09-2010 19:00:00 21.76 C 9.72 g/m*3 21.76 C 0 km/h
1341 11-09-2010 20:00:00 19.34 C 9.51 g/m*3 19.34 C 0 km/h
1342 11-09-2010 21:00:00 18.1 C 10.01 g/m*3 18.1 C 0 km/h
1343 11-09-2010 22:00:00 17.2 C 10.28 g/m*3 17.2 C 0 km/h
1344 11-09-2010 23:00:00 16.56 C 10.4 g/m*3 16.56 C 0 km/h
1345 12-09-2010 00:00:00 16.06 C 10.42 g/m*3 16.06 C 0 km/h
1346 12-09-2010 01:00:00 15.34 C 10.34 g/m*3 15.34 C 0 km/h
1347 12-09-2010 02:00:00 14.88 C 10.39 g/m*3 14.88 C 0 km/h
1348 12-09-2010 03:00:00 14.46 C 10.2 g/m*3 14.46 C 0 km/h
1349 12-09-2010 04:00:00 14.1 C 10.07 g/m*3 14.1 C 0 km/h
1350 12-09-2010 05:00:00 13.76 C 9.98 g/m*3 13.76 C 0 km/h
Sensor: Nr:Datum:Temp:Abs-Feuchte:Windchill:Wind:
Aussen-T/F 1351 12-09-2010 06:00:00 13.52 C 9.93 g/m*3 13.52 C 0 km/h
1352 12-09-2010 07:00:00 13.7 C 10.14 g/m*3 13.7 C 0 km/h
1353 12-09-2010 08:00:00 14.26 C 10.3 g/m*3 14.26 C 0 km/h
1354 12-09-2010 09:00:00 14.84 C 10.51 g/m*3 14.84 C 0 km/h
1355 12-09-2010 10:00:00 16.94 C 11.16 g/m*3 16.94 C 0 km/h
1356 12-09-2010 11:00:00 20.02 C 10.69 g/m*3 20.02 C 0 km/h
1357 12-09-2010 12:00:00 21.62 C 10.75 g/m*3 21.62 C 0 km/h
1358 12-09-2010 13:00:00 24.4 C 9.84 g/m*3 24.4 C 0 km/h
1359 12-09-2010 14:00:00 23.86 C 9.2 g/m*3 23.86 C 0 km/h
1360 12-09-2010 15:00:00 19.32 C 8.87 g/m*3 19.32 C 0 km/h
1361 12-09-2010 16:00:00 17.78 C 9.19 g/m*3 17.78 C 0 km/h
1362 12-09-2010 17:00:00 16.2 C 9.68 g/m*3 16.2 C 0 km/h
1363 12-09-2010 18:00:00 14.92 C 10.59 g/m*3 14.92 C 0 km/h
1364 12-09-2010 19:00:00 14.26 C 10.79 g/m*3 14.26 C 0 km/h
1365 12-09-2010 20:00:00 13.82 C 10.81 g/m*3 13.82 C 0 km/h
1366 12-09-2010 21:00:00 13.78 C 10.97 g/m*3 13.78 C 0 km/h
1367 12-09-2010 22:00:00 13.78 C 11.07 g/m*3 13.78 C 0 km/h
1368 12-09-2010 23:00:00 13.58 C 10.93 g/m*3 13.58 C 0 km/h
1369 13-09-2010 00:00:00 13.68 C 11 g/m*3 13.68 C 0 km/h
1370 13-09-2010 01:00:00 13.7 C 11.01 g/m*3 13.7 C 0 km/h
1371 13-09-2010 02:00:00 13.52 C 10.89 g/m*3 13.52 C 0 km/h
1372 13-09-2010 03:00:00 13.26 C 10.58 g/m*3 13.26 C 0 km/h
1373 13-09-2010 04:00:00 13 C 10.21 g/m*3 13 C 0 km/h
1374 13-09-2010 05:00:00 13.26 C 9.77 g/m*3 13.26 C 0 km/h
1375 13-09-2010 06:00:00 13.3 C 9.57 g/m*3 13.3 C 0 km/h
Sensor: Nr:Datum:Temp:Abs-Feuchte:Windchill:Wind:
Aussen-T/F 1376 13-09-2010 07:00:00 12.72 C 9.18 g/m*3 12.72 C 0 km/h
1377 13-09-2010 08:00:00 13.04 C 9.62 g/m*3 13.04 C 0 km/h
1378 13-09-2010 09:00:00 13.98 C 9.47 g/m*3 13.98 C 0 km/h
1379 13-09-2010 10:00:00 15.32 C 9.05 g/m*3 15.32 C 0 km/h
1380 13-09-2010 11:00:00 16.5 C 8.57 g/m*3 16.5 C 0 km/h
1381 13-09-2010 12:00:00 17.24 C 7.93 g/m*3 17.24 C 0 km/h
1382 13-09-2010 13:00:00 18.94 C 7.53 g/m*3 18.94 C 0 km/h
1383 13-09-2010 14:00:00 20.18 C 6.95 g/m*3 20.18 C 0 km/h
1384 13-09-2010 15:00:00 20.8 C 7.1 g/m*3 20.8 C 0 km/h
1385 13-09-2010 16:00:00 21.56 C 6.93 g/m*3 21.56 C 0 km/h
1386 13-09-2010 17:00:00 20.48 C 7.96 g/m*3 20.48 C 0 km/h
1387 13-09-2010 18:00:00 18.22 C 8.62 g/m*3 18.22 C 0 km/h
1388 13-09-2010 19:00:00 16.92 C 8.55 g/m*3 16.92 C 0 km/h
1389 13-09-2010 20:00:00 15.24 C 8.9 g/m*3 15.24 C 0 km/h
1390 13-09-2010 21:00:00 14.52 C 8.97 g/m*3 14.52 C 0 km/h
1391 13-09-2010 22:00:00 13.7 C 8.86 g/m*3 13.7 C 0 km/h
1392 13-09-2010 23:00:00 13.14 C 8.85 g/m*3 13.14 C 0 km/h
1393 14-09-2010 00:00:00 12.82 C 9.2 g/m*3 12.82 C 0 km/h
1394 14-09-2010 01:00:00 12.8 C 9.27 g/m*3 12.8 C 0 km/h
1395 14-09-2010 02:00:00 13.1 C 9.33 g/m*3 13.1 C 0 km/h
1396 14-09-2010 03:00:00 13.36 C 9.23 g/m*3 13.36 C 0 km/h
1397 14-09-2010 04:00:00 12.94 C 9.42 g/m*3 12.94 C 0 km/h
1398 14-09-2010 05:00:00 12.96 C 9.84 g/m*3 12.96 C 0 km/h
1399 14-09-2010 06:00:00 13.9 C 9.28 g/m*3 13.9 C 0 km/h
1400 14-09-2010 07:00:00 14.06 C 8.93 g/m*3 14.06 C 0 km/h
Sensor: Nr:Datum:Temp:Abs-Feuchte:Windchill:Wind:
Aussen-T/F 1401 14-09-2010 08:00:00 14.1 C 9.32 g/m*3 14.1 C 0 km/h
1402 14-09-2010 09:00:00 15.16 C 9.06 g/m*3 15.16 C 0 km/h
1403 14-09-2010 10:00:00 16.1 C 9.07 g/m*3 16.1 C 0 km/h
1404 14-09-2010 11:00:00 17.06 C 9.15 g/m*3 17.06 C 0 km/h
1405 14-09-2010 12:00:00 18.44 C 9.18 g/m*3 18.44 C 0 km/h
1406 14-09-2010 13:00:00 19.98 C 9.22 g/m*3 19.98 C 0 km/h
1407 14-09-2010 14:00:00 19.66 C 8.84 g/m*3 19.66 C 0 km/h
1408 14-09-2010 15:00:00 20.4 C 8.63 g/m*3 20.4 C 0 km/h
1409 14-09-2010 16:00:00 20.68 C 7.88 g/m*3 20.68 C 0 km/h
1410 14-09-2010 17:00:00 20.14 C 7.46 g/m*3 20.14 C 0 km/h
1411 14-09-2010 18:00:00 19.34 C 7.81 g/m*3 19.34 C 0 km/h
1412 14-09-2010 19:00:00 18.8 C 7.73 g/m*3 18.8 C 0 km/h
1413 14-09-2010 20:00:00 18.6 C 7.7 g/m*3 18.6 C 0 km/h
1414 14-09-2010 21:00:00 18.54 C 7.77 g/m*3 18.54 C 0 km/h
1415 14-09-2010 22:00:00 18.5 C 7.83 g/m*3 18.5 C 0 km/h
1416 14-09-2010 23:00:00 18.22 C 7.91 g/m*3 18.22 C 0 km/h
1417 15-09-2010 00:00:00 18.02 C 7.87 g/m*3 18.02 C 0 km/h
1418 15-09-2010 01:00:00 18.18 C 7.67 g/m*3 18.18 C 0 km/h
1419 15-09-2010 02:00:00 18.32 C 7.64 g/m*3 18.32 C 0 km/h
1420 15-09-2010 03:00:00 18.06 C 8.23 g/m*3 18.06 C 0 km/h
1421 15-09-2010 04:00:00 17.7 C 9.11 g/m*3 17.7 C 0 km/h
1422 15-09-2010 05:00:00 15 C 9.75 g/m*3 15 C 0 km/h
1423 15-09-2010 06:00:00 12.78 C 10.09 g/m*3 12.78 C 0 km/h
1424 15-09-2010 07:00:00 12.74 C 10.29 g/m*3 12.74 C 0 km/h
1425 15-09-2010 08:00:00 12.7 C 10.35 g/m*3 12.7 C 0 km/h
Sensor: Nr:Datum:Temp:Abs-Feuchte:Windchill:Wind:
Aussen-T/F 1426 15-09-2010 09:00:00 12.92 C 10.36 g/m*3 12.92 C 0 km/h
1427 15-09-2010 10:00:00 14.06 C 9.95 g/m*3 14.06 C 0 km/h
1428 15-09-2010 11:00:00 15.02 C 8.86 g/m*3 15.02 C 0 km/h
1429 15-09-2010 12:00:00 16.5 C 7.02 g/m*3 16.5 C 0 km/h
1430 15-09-2010 13:00:00 17.24 C 6.31 g/m*3 17.24 C 0 km/h
1431 15-09-2010 14:00:00 18.38 C 5.66 g/m*3 18.38 C 0 km/h
1432 15-09-2010 15:00:00 19.52 C 5.75 g/m*3 19.52 C 0 km/h
1433 15-09-2010 16:00:00 19.52 C 5.98 g/m*3 19.52 C 0 km/h
1434 15-09-2010 17:00:00 19.68 C 5.8 g/m*3 19.68 C 0 km/h
1435 15-09-2010 18:00:00 17.84 C 5.32 g/m*3 17.84 C 0 km/h
1436 15-09-2010 19:00:00 16.6 C 5.65 g/m*3 16.6 C 0 km/h
1437 15-09-2010 20:00:00 15.84 C 6.26 g/m*3 15.84 C 0 km/h
1438 15-09-2010 21:00:00 15.18 C 6.38 g/m*3 15.18 C 0 km/h
1439 15-09-2010 22:00:00 14.96 C 5.96 g/m*3 14.96 C 0 km/h
1440 15-09-2010 23:00:00 14.86 C 5.64 g/m*3 14.86 C 0 km/h
1441 16-09-2010 00:00:00 14.18 C 5.9 g/m*3 14.18 C 0 km/h
1442 16-09-2010 01:00:00 14.1 C 5.41 g/m*3 14.1 C 0 km/h
1443 16-09-2010 02:00:00 13.94 C 5.79 g/m*3 13.94 C 0 km/h
1444 16-09-2010 03:00:00 13.84 C 6.71 g/m*3 13.84 C 0 km/h
1445 16-09-2010 04:00:00 13.58 C 6.98 g/m*3 13.58 C 0 km/h
1446 16-09-2010 05:00:00 13.36 C 7.26 g/m*3 13.36 C 0 km/h
1447 16-09-2010 06:00:00 12.44 C 8.08 g/m*3 12.44 C 0 km/h
1448 16-09-2010 07:00:00 11.78 C 8.68 g/m*3 11.78 C 0 km/h
1449 16-09-2010 08:00:00 11.86 C 8.83 g/m*3 11.86 C 0 km/h
1450 16-09-2010 09:00:00 12.64 C 9.25 g/m*3 12.64 C 0 km/h
Sensor: Nr:Datum:Temp:Abs-Feuchte:Windchill:Wind:
Aussen-T/F 1451 16-09-2010 10:00:00 14.12 C 8.65 g/m*3 14.12 C 0 km/h
1452 16-09-2010 11:00:00 15.26 C 8.23 g/m*3 15.26 C 0 km/h
1453 16-09-2010 12:00:00 17.02 C 7.68 g/m*3 17.02 C 0 km/h
1454 16-09-2010 13:00:00 17.32 C 7.17 g/m*3 17.32 C 0 km/h
1455 16-09-2010 14:00:00 15.28 C 8.71 g/m*3 15.28 C 0 km/h
1456 16-09-2010 15:00:00 17.22 C 9.15 g/m*3 17.22 C 0 km/h
1457 16-09-2010 16:00:00 16.36 C 8.49 g/m*3 16.36 C 0 km/h
1458 16-09-2010 17:00:00 15.3 C 9.51 g/m*3 15.3 C 0 km/h
1459 16-09-2010 18:00:00 14.9 C 8.95 g/m*3 14.9 C 0 km/h
1460 16-09-2010 19:00:00 13.42 C 9.68 g/m*3 13.42 C 0 km/h
1461 16-09-2010 20:00:00 12.84 C 10.02 g/m*3 12.84 C 0 km/h
1462 16-09-2010 21:00:00 12.62 C 10.08 g/m*3 12.62 C 0 km/h
1463 16-09-2010 22:00:00 12.2 C 9.58 g/m*3 12.2 C 0 km/h
1464 16-09-2010 23:00:00 12.1 C 9.29 g/m*3 12.1 C 0 km/h
1465 17-09-2010 00:00:00 12.16 C 9.24 g/m*3 12.16 C 0 km/h
1466 17-09-2010 01:00:00 12.06 C 9.26 g/m*3 12.06 C 0 km/h
1467 17-09-2010 02:00:00 11.96 C 9.29 g/m*3 11.96 C 0 km/h
1468 17-09-2010 03:00:00 12.06 C 8.94 g/m*3 12.06 C 0 km/h
1469 17-09-2010 04:00:00 11.94 C 8.73 g/m*3 11.94 C 0 km/h
1470 17-09-2010 05:00:00 11.2 C 8.23 g/m*3 11.2 C 0 km/h
1471 17-09-2010 06:00:00 10.6 C 8.59 g/m*3 10.6 C 0 km/h
1472 17-09-2010 07:00:00 10.02 C 8.15 g/m*3 10.02 C 0 km/h
1473 17-09-2010 08:00:00 10.22 C 7.66 g/m*3 10.22 C 0 km/h
1474 17-09-2010 09:00:00 10.86 C 7.28 g/m*3 10.86 C 0 km/h
1475 17-09-2010 10:00:00 12.06 C 7.55 g/m*3 12.06 C 0 km/h
Sensor: Nr:Datum:Temp:Abs-Feuchte:Windchill:Wind:
Aussen-T/F 1476 17-09-2010 11:00:00 13.72 C 7.56 g/m*3 13.72 C 0 km/h
1477 17-09-2010 12:00:00 15.7 C 6.58 g/m*3 15.7 C 0 km/h
1478 17-09-2010 13:00:00 16.66 C 5.9 g/m*3 16.66 C 0 km/h
1479 17-09-2010 14:00:00 17.62 C 5.29 g/m*3 17.62 C 0 km/h
1480 17-09-2010 15:00:00 17.48 C 5.06 g/m*3 17.48 C 0 km/h
1481 17-09-2010 16:00:00 19.06 C 4.94 g/m*3 19.06 C 0 km/h
1482 17-09-2010 17:00:00 19.46 C 4.45 g/m*3 19.46 C 0 km/h
1483 17-09-2010 18:00:00 16.66 C 6.1 g/m*3 16.66 C 0 km/h
1484 17-09-2010 19:00:00 15.24 C 6.69 g/m*3 15.24 C 0 km/h
1485 17-09-2010 20:00:00 14.26 C 7.06 g/m*3 14.26 C 0 km/h
1486 17-09-2010 21:00:00 13.48 C 7.15 g/m*3 13.48 C 0 km/h
1487 17-09-2010 22:00:00 13.34 C 6.72 g/m*3 13.34 C 0 km/h
1488 17-09-2010 23:00:00 12.58 C 6.81 g/m*3 12.58 C 0 km/h
1489 18-09-2010 00:00:00 12.12 C 6.94 g/m*3 12.12 C 0 km/h
1490 18-09-2010 01:00:00 10.9 C 7 g/m*3 10.9 C 0 km/h
1491 18-09-2010 02:00:00 10 C 7.2 g/m*3 10 C 0 km/h
1492 18-09-2010 03:00:00 9.38 C 7.3 g/m*3 9.38 C 0 km/h
1493 18-09-2010 04:00:00 8.54 C 7.19 g/m*3 8.54 C 0 km/h
1494 18-09-2010 05:00:00 7.94 C 7.18 g/m*3 7.94 C 0 km/h
1495 18-09-2010 06:00:00 7.62 C 7.36 g/m*3 7.62 C 0 km/h
1496 18-09-2010 07:00:00 7.5 C 7.3 g/m*3 7.5 C 0 km/h
1497 18-09-2010 08:00:00 7.46 C 7.23 g/m*3 7.46 C 0 km/h
1498 18-09-2010 09:00:00 8.12 C 7.55 g/m*3 8.12 C 0 km/h
1499 18-09-2010 10:00:00 10.2 C 8.18 g/m*3 10.2 C 0 km/h
1500 18-09-2010 11:00:00 13.46 C 6.65 g/m*3 13.46 C 0 km/h
Sensor: Nr:Datum:Temp:Abs-Feuchte:Windchill:Wind:
Aussen-T/F 1501 18-09-2010 12:00:00 15.14 C 5.92 g/m*3 15.14 C 0 km/h
1502 18-09-2010 13:00:00 15.6 C 5.43 g/m*3 15.6 C 0 km/h
1503 18-09-2010 14:00:00 15.26 C 4.77 g/m*3 15.26 C 0 km/h
1504 18-09-2010 15:00:00 16.3 C 4.58 g/m*3 16.3 C 0 km/h
1505 18-09-2010 16:00:00 16.22 C 4.86 g/m*3 16.22 C 0 km/h
1506 18-09-2010 17:00:00 15.86 C 5.73 g/m*3 15.86 C 0 km/h
1507 18-09-2010 18:00:00 15.66 C 6.06 g/m*3 15.66 C 0 km/h
1508 18-09-2010 19:00:00 13.26 C 6.08 g/m*3 13.26 C 0 km/h
1509 18-09-2010 20:00:00 11.08 C 6.6 g/m*3 11.08 C 0 km/h
1510 18-09-2010 21:00:00 10.02 C 6.62 g/m*3 10.02 C 0 km/h
1511 18-09-2010 22:00:00 8.98 C 6.69 g/m*3 8.98 C 0 km/h
1512 18-09-2010 23:00:00 8.2 C 6.77 g/m*3 8.2 C 0 km/h
1513 19-09-2010 00:00:00 7.56 C 6.72 g/m*3 7.56 C 0 km/h
1514 19-09-2010 01:00:00 6.92 C 6.54 g/m*3 6.92 C 0 km/h
1515 19-09-2010 02:00:00 6.44 C 6.53 g/m*3 6.44 C 0 km/h
1516 19-09-2010 03:00:00 6.42 C 6.57 g/m*3 6.42 C 0 km/h
1517 19-09-2010 04:00:00 6.2 C 6.5 g/m*3 6.2 C 0 km/h
1518 19-09-2010 05:00:00 6.04 C 6.42 g/m*3 6.04 C 0 km/h
1519 19-09-2010 06:00:00 5.76 C 6.33 g/m*3 5.76 C 0 km/h
1520 19-09-2010 07:00:00 6 C 6.46 g/m*3 6 C 0 km/h
1521 19-09-2010 08:00:00 6.96 C 6.79 g/m*3 6.96 C 0 km/h
1522 19-09-2010 09:00:00 8.12 C 6.98 g/m*3 8.12 C 0 km/h
1523 19-09-2010 10:00:00 10.72 C 6.69 g/m*3 10.72 C 0 km/h
1524 19-09-2010 11:00:00 12.92 C 6.27 g/m*3 12.92 C 0 km/h
1525 19-09-2010 12:00:00 14.94 C 5.67 g/m*3 14.94 C 0 km/h
Sensor: Nr:Datum:Temp:Abs-Feuchte:Windchill:Wind:
Aussen-T/F 1526 19-09-2010 13:00:00 16.12 C 5.54 g/m*3 16.12 C 0 km/h
1527 19-09-2010 14:00:00 17.38 C 5.68 g/m*3 17.38 C 0 km/h
1528 19-09-2010 15:00:00 18.62 C 5.45 g/m*3 18.62 C 0 km/h
1529 19-09-2010 16:00:00 19.04 C 5.29 g/m*3 19.04 C 0 km/h
1530 19-09-2010 17:00:00 18.78 C 5.69 g/m*3 18.78 C 0 km/h
1531 19-09-2010 18:00:00 17.08 C 5.99 g/m*3 17.08 C 0 km/h
1532 19-09-2010 19:00:00 15.78 C 5.97 g/m*3 15.78 C 0 km/h
1533 19-09-2010 20:00:00 14.46 C 6.3 g/m*3 14.46 C 0 km/h
1534 19-09-2010 21:00:00 13.96 C 6.62 g/m*3 13.96 C 0 km/h
1535 19-09-2010 22:00:00 13.32 C 6.78 g/m*3 13.32 C 0 km/h
1536 19-09-2010 23:00:00 12.28 C 6.77 g/m*3 12.28 C 0 km/h
1537 20-09-2010 00:00:00 11.68 C 6.87 g/m*3 11.68 C 0 km/h
1538 20-09-2010 01:00:00 10.44 C 6.78 g/m*3 10.44 C 0 km/h
1539 20-09-2010 02:00:00 9.84 C 6.88 g/m*3 9.84 C 0 km/h
1540 20-09-2010 03:00:00 9.64 C 7.02 g/m*3 9.64 C 0 km/h
1541 20-09-2010 04:00:00 8.98 C 6.89 g/m*3 8.98 C 0 km/h
1542 20-09-2010 05:00:00 8.32 C 6.89 g/m*3 8.32 C 0 km/h
1543 20-09-2010 06:00:00 8.48 C 7.03 g/m*3 8.48 C 0 km/h
1544 20-09-2010 07:00:00 8.52 C 7.1 g/m*3 8.52 C 0 km/h
1545 20-09-2010 08:00:00 9.18 C 6.87 g/m*3 9.18 C 0 km/h
1546 20-09-2010 09:00:00 9.84 C 6.92 g/m*3 9.84 C 0 km/h
1547 20-09-2010 10:00:00 12.4 C 7.21 g/m*3 12.4 C 0 km/h
1548 20-09-2010 11:00:00 14.62 C 6.99 g/m*3 14.62 C 0 km/h
1549 20-09-2010 12:00:00 16.26 C 6.34 g/m*3 16.26 C 0 km/h
1550 20-09-2010 13:00:00 18.02 C 6.12 g/m*3 18.02 C 0 km/h
Sensor: Nr:Datum:Temp:Abs-Feuchte:Windchill:Wind:
Aussen-T/F 1551 20-09-2010 14:00:00 20.02 C 5.81 g/m*3 20.02 C 0 km/h
1552 20-09-2010 15:00:00 21.42 C 5.86 g/m*3 21.42 C 0 km/h
1553 20-09-2010 16:00:00 22.46 C 6.22 g/m*3 22.46 C 0 km/h
1554 20-09-2010 17:00:00 22.28 C 6.11 g/m*3 22.28 C 0 km/h
1555 20-09-2010 18:00:00 21.3 C 6.67 g/m*3 21.3 C 0 km/h
1556 20-09-2010 19:00:00 17.5 C 7.19 g/m*3 17.5 C 0 km/h
1557 20-09-2010 20:00:00 15.34 C 7.54 g/m*3 15.34 C 0 km/h
1558 20-09-2010 21:00:00 14.2 C 7.72 g/m*3 14.2 C 0 km/h
1559 20-09-2010 22:00:00 13.22 C 8.07 g/m*3 13.22 C 0 km/h
1560 20-09-2010 23:00:00 12.28 C 8.05 g/m*3 12.28 C 0 km/h
1561 21-09-2010 00:00:00 11.52 C 7.88 g/m*3 11.52 C 0 km/h
1562 21-09-2010 01:00:00 10.9 C 7.8 g/m*3 10.9 C 0 km/h
1563 21-09-2010 02:00:00 10.24 C 7.69 g/m*3 10.24 C 0 km/h
1564 21-09-2010 03:00:00 9.74 C 7.71 g/m*3 9.74 C 0 km/h
1565 21-09-2010 04:00:00 9.22 C 7.51 g/m*3 9.22 C 0 km/h
1566 21-09-2010 05:00:00 8.78 C 7.46 g/m*3 8.78 C 0 km/h
1567 21-09-2010 06:00:00 8.34 C 7.37 g/m*3 8.34 C 0 km/h
1568 21-09-2010 07:00:00 8.14 C 7.34 g/m*3 8.14 C 0 km/h
1569 21-09-2010 08:00:00 8.26 C 7.53 g/m*3 8.26 C 0 km/h
1570 21-09-2010 09:00:00 9.18 C 7.97 g/m*3 9.18 C 0 km/h
1571 21-09-2010 10:00:00 11.12 C 8.71 g/m*3 11.12 C 0 km/h
1572 21-09-2010 11:00:00 14.12 C 8.65 g/m*3 14.12 C 0 km/h
1573 21-09-2010 12:00:00 16.14 C 8.99 g/m*3 16.14 C 0 km/h
1574 21-09-2010 13:00:00 17.02 C 9.65 g/m*3 17.02 C 0 km/h
1575 21-09-2010 14:00:00 17.82 C 9.48 g/m*3 17.82 C 0 km/h
Sensor: Nr:Datum:Temp:Abs-Feuchte:Windchill:Wind:
Aussen-T/F 1576 21-09-2010 15:00:00 23.12 C 8.2 g/m*3 23.12 C 0 km/h
1577 21-09-2010 16:00:00 25.16 C 7.62 g/m*3 25.16 C 0 km/h
1578 21-09-2010 17:00:00 24.6 C 7.56 g/m*3 24.6 C 0 km/h
1579 21-09-2010 18:00:00 22.18 C 7.88 g/m*3 22.18 C 0 km/h
1580 21-09-2010 19:00:00 18.64 C 8.36 g/m*3 18.64 C 0 km/h
1581 21-09-2010 20:00:00 16.3 C 8.52 g/m*3 16.3 C 0 km/h
1582 21-09-2010 21:00:00 15.06 C 8.49 g/m*3 15.06 C 0 km/h
1583 21-09-2010 22:00:00 13.9 C 8.51 g/m*3 13.9 C 0 km/h
1584 21-09-2010 23:00:00 12.98 C 8.54 g/m*3 12.98 C 0 km/h
1585 22-09-2010 00:00:00 12.2 C 8.55 g/m*3 12.2 C 0 km/h
1586 22-09-2010 01:00:00 11.5 C 8.41 g/m*3 11.5 C 0 km/h
1587 22-09-2010 02:00:00 10.78 C 8.15 g/m*3 10.78 C 0 km/h
1588 22-09-2010 03:00:00 10.22 C 8 g/m*3 10.22 C 0 km/h
1589 22-09-2010 04:00:00 9.72 C 7.94 g/m*3 9.72 C 0 km/h
1590 22-09-2010 05:00:00 9.84 C 8.15 g/m*3 9.84 C 0 km/h
1591 22-09-2010 06:00:00 9.78 C 8.15 g/m*3 9.78 C 0 km/h
1592 22-09-2010 07:00:00 9.56 C 8.04 g/m*3 9.56 C 0 km/h
1593 22-09-2010 08:00:00 9.36 C 7.96 g/m*3 9.36 C 0 km/h
1594 22-09-2010 09:00:00 10.18 C 8.15 g/m*3 10.18 C 0 km/h
1595 22-09-2010 10:00:00 12.42 C 8.64 g/m*3 12.42 C 0 km/h
1596 22-09-2010 11:00:00 13.78 C 9.19 g/m*3 13.78 C 0 km/h
1597 22-09-2010 12:00:00 16.54 C 9.97 g/m*3 16.54 C 0 km/h
1598 22-09-2010 13:00:00 19.76 C 10.09 g/m*3 19.76 C 0 km/h
1599 22-09-2010 14:00:00 22.86 C 10.07 g/m*3 22.86 C 0 km/h
1600 22-09-2010 15:00:00 25.06 C 9.29 g/m*3 25.06 C 0 km/h
Sensor: Nr:Datum:Temp:Abs-Feuchte:Windchill:Wind:
Aussen-T/F 1601 22-09-2010 16:00:00 27.32 C 8.59 g/m*3 27.32 C 0 km/h
1602 22-09-2010 17:00:00 27.06 C 8.16 g/m*3 27.06 C 0 km/h
1603 22-09-2010 18:00:00 24.88 C 9.1 g/m*3 24.88 C 0 km/h
1604 22-09-2010 19:00:00 20.88 C 9.2 g/m*3 20.88 C 0 km/h
1605 22-09-2010 20:00:00 18.54 C 9.1 g/m*3 18.54 C 0 km/h
1606 22-09-2010 21:00:00 17.46 C 9.31 g/m*3 17.46 C 0 km/h
1607 22-09-2010 22:00:00 16.18 C 9.26 g/m*3 16.18 C 0 km/h
1608 22-09-2010 23:00:00 14.92 C 8.78 g/m*3 14.92 C 0 km/h
1609 23-09-2010 00:00:00 14.02 C 8.65 g/m*3 14.02 C 0 km/h
1610 23-09-2010 01:00:00 13.22 C 8.71 g/m*3 13.22 C 0 km/h
1611 23-09-2010 02:00:00 12.44 C 8.7 g/m*3 12.44 C 0 km/h
1612 23-09-2010 03:00:00 11.8 C 8.57 g/m*3 11.8 C 0 km/h
1613 23-09-2010 04:00:00 11.16 C 8.39 g/m*3 11.16 C 0 km/h
1614 23-09-2010 05:00:00 10.64 C 8.22 g/m*3 10.64 C 0 km/h
1615 23-09-2010 06:00:00 10.46 C 8.2 g/m*3 10.46 C 0 km/h
1616 23-09-2010 07:00:00 10.52 C 8.25 g/m*3 10.52 C 0 km/h
1617 23-09-2010 08:00:00 10.88 C 8.42 g/m*3 10.88 C 0 km/h
1618 23-09-2010 09:00:00 11.64 C 8.65 g/m*3 11.64 C 0 km/h
1619 23-09-2010 10:00:00 12.98 C 9.24 g/m*3 12.98 C 0 km/h
1620 23-09-2010 11:00:00 15.64 C 10.08 g/m*3 15.64 C 0 km/h
1621 23-09-2010 12:00:00 18.66 C 10.61 g/m*3 18.66 C 0 km/h
1622 23-09-2010 13:00:00 22.3 C 10.7 g/m*3 22.3 C 0 km/h
1623 23-09-2010 14:00:00 24.06 C 10.22 g/m*3 24.06 C 0 km/h
1624 23-09-2010 15:00:00 25.04 C 9.37 g/m*3 25.04 C 0 km/h
1625 23-09-2010 16:00:00 25.14 C 9.88 g/m*3 25.14 C 0 km/h
Sensor: Nr:Datum:Temp:Abs-Feuchte:Windchill:Wind:
Aussen-T/F 1626 23-09-2010 17:00:00 23.48 C 10.73 g/m*3 23.48 C 0 km/h
1627 23-09-2010 18:00:00 22.12 C 10.63 g/m*3 22.12 C 0 km/h
1628 23-09-2010 19:00:00 19.9 C 11.06 g/m*3 19.9 C 0 km/h
1629 23-09-2010 20:00:00 18.5 C 11.3 g/m*3 18.5 C 0 km/h
1630 23-09-2010 21:00:00 18.5 C 11.49 g/m*3 18.5 C 0 km/h
1631 23-09-2010 22:00:00 17.94 C 11.82 g/m*3 17.94 C 0 km/h
1632 23-09-2010 23:00:00 16.44 C 12.26 g/m*3 16.44 C 0 km/h
1633 24-09-2010 00:00:00 15.7 C 12.18 g/m*3 15.7 C 0 km/h
1634 24-09-2010 01:00:00 15.54 C 12.3 g/m*3 15.54 C 0 km/h
1635 24-09-2010 02:00:00 15.38 C 12.15 g/m*3 15.38 C 0 km/h
1636 24-09-2010 03:00:00 14.94 C 11.91 g/m*3 14.94 C 0 km/h
1637 24-09-2010 04:00:00 14.78 C 11.89 g/m*3 14.78 C 0 km/h
1638 24-09-2010 05:00:00 14.54 C 11.72 g/m*3 14.54 C 0 km/h
1639 24-09-2010 06:00:00 14.7 C 11.83 g/m*3 14.7 C 0 km/h
1640 24-09-2010 07:00:00 14.4 C 11.62 g/m*3 14.4 C 0 km/h
1641 24-09-2010 08:00:00 14.58 C 11.82 g/m*3 14.58 C 0 km/h
1642 24-09-2010 09:00:00 14.88 C 12.07 g/m*3 14.88 C 0 km/h
1643 24-09-2010 10:00:00 14.98 C 12.06 g/m*3 14.98 C 0 km/h
1644 24-09-2010 11:00:00 15.22 C 12.22 g/m*3 15.22 C 0 km/h
1645 24-09-2010 12:00:00 15.14 C 12.18 g/m*3 15.14 C 0 km/h
1646 24-09-2010 13:00:00 14.56 C 11.73 g/m*3 14.56 C 0 km/h
1647 24-09-2010 14:00:00 13.54 C 11.02 g/m*3 13.54 C 0 km/h
1648 24-09-2010 15:00:00 13.08 C 10.8 g/m*3 13.08 C 0 km/h
1649 24-09-2010 16:00:00 13.8 C 11.32 g/m*3 13.8 C 0 km/h
1650 24-09-2010 17:00:00 13.48 C 11.03 g/m*3 13.48 C 0 km/h
Sensor: Nr:Datum:Temp:Abs-Feuchte:Windchill:Wind:
Aussen-T/F 1651 24-09-2010 18:00:00 13.26 C 10.83 g/m*3 13.26 C 0 km/h
1652 24-09-2010 19:00:00 12.84 C 10.64 g/m*3 12.84 C 0 km/h
1653 24-09-2010 20:00:00 12.7 C 10.58 g/m*3 12.7 C 0 km/h
1654 24-09-2010 21:00:00 12.82 C 10.65 g/m*3 12.82 C 0 km/h
1655 24-09-2010 22:00:00 12.7 C 10.58 g/m*3 12.7 C 0 km/h
1656 24-09-2010 23:00:00 12.4 C 10.38 g/m*3 12.4 C 0 km/h
1657 25-09-2010 00:00:00 12.48 C 10.43 g/m*3 12.48 C 0 km/h
1658 25-09-2010 01:00:00 12.52 C 10.46 g/m*3 12.52 C 0 km/h
1659 25-09-2010 02:00:00 12.6 C 10.51 g/m*3 12.6 C 0 km/h
1660 25-09-2010 03:00:00 12.62 C 10.52 g/m*3 12.62 C 0 km/h
1661 25-09-2010 04:00:00 12.54 C 10.47 g/m*3 12.54 C 0 km/h
1662 25-09-2010 05:00:00 12.38 C 10.35 g/m*3 12.38 C 0 km/h
1663 25-09-2010 06:00:00 12.06 C 10.06 g/m*3 12.06 C 0 km/h
1664 25-09-2010 07:00:00 11.88 C 9.94 g/m*3 11.88 C 0 km/h
1665 25-09-2010 08:00:00 11.26 C 9.5 g/m*3 11.26 C 0 km/h
1666 25-09-2010 09:00:00 10.48 C 8.81 g/m*3 10.48 C 0 km/h
1667 25-09-2010 10:00:00 11.04 C 8.25 g/m*3 11.04 C 0 km/h
1668 25-09-2010 11:00:00 12.3 C 7.45 g/m*3 12.3 C 0 km/h
1669 25-09-2010 12:00:00 12.44 C 6.9 g/m*3 12.44 C 0 km/h
1670 25-09-2010 13:00:00 13.26 C 6.04 g/m*3 13.26 C 0 km/h
1671 25-09-2010 14:00:00 14.24 C 5.36 g/m*3 14.24 C 0 km/h
1672 25-09-2010 15:00:00 15.04 C 4.68 g/m*3 15.04 C 0 km/h
1673 25-09-2010 16:00:00 14.72 C 4.97 g/m*3 14.72 C 0 km/h
1674 25-09-2010 17:00:00 15.6 C 5.08 g/m*3 15.6 C 0 km/h
1675 25-09-2010 18:00:00 14.22 C 5.06 g/m*3 14.22 C 0 km/h
Sensor: Nr:Datum:Temp:Abs-Feuchte:Windchill:Wind:
Aussen-T/F 1676 25-09-2010 19:00:00 12.98 C 5.75 g/m*3 12.98 C 0 km/h
1677 25-09-2010 20:00:00 11.7 C 5.88 g/m*3 11.7 C 0 km/h
1678 25-09-2010 21:00:00 10.12 C 6.31 g/m*3 10.12 C 0 km/h
1679 25-09-2010 22:00:00 10.28 C 6.68 g/m*3 10.28 C 0 km/h
1680 25-09-2010 23:00:00 9.28 C 7.4 g/m*3 9.28 C 0 km/h
1681 26-09-2010 00:00:00 9.44 C 7.76 g/m*3 9.44 C 0 km/h
1682 26-09-2010 01:00:00 9.48 C 7.24 g/m*3 9.48 C 0 km/h
1683 26-09-2010 02:00:00 9.42 C 7.05 g/m*3 9.42 C 0 km/h
1684 26-09-2010 03:00:00 9.2 C 7.07 g/m*3 9.2 C 0 km/h
1685 26-09-2010 04:00:00 8.88 C 7.28 g/m*3 8.88 C 0 km/h
1686 26-09-2010 05:00:00 9.02 C 7.33 g/m*3 9.02 C 0 km/h
1687 26-09-2010 06:00:00 8.9 C 7.38 g/m*3 8.9 C 0 km/h
1688 26-09-2010 07:00:00 8.8 C 7.45 g/m*3 8.8 C 0 km/h
1689 26-09-2010 08:00:00 9.62 C 7.3 g/m*3 9.62 C 0 km/h
1690 26-09-2010 09:00:00 10.26 C 7.18 g/m*3 10.26 C 0 km/h
1691 26-09-2010 10:00:00 11.84 C 6.75 g/m*3 11.84 C 0 km/h
1692 26-09-2010 11:00:00 13.22 C 6.44 g/m*3 13.22 C 0 km/h
1693 26-09-2010 12:00:00 14.48 C 6.39 g/m*3 14.48 C 0 km/h
1694 26-09-2010 13:00:00 13 C 7.58 g/m*3 13 C 0 km/h
1695 26-09-2010 14:00:00 13.3 C 8.3 g/m*3 13.3 C 0 km/h
1696 26-09-2010 15:00:00 14.18 C 8.12 g/m*3 14.18 C 0 km/h
1697 26-09-2010 16:00:00 14.92 C 7.04 g/m*3 14.92 C 0 km/h
1698 26-09-2010 17:00:00 15.18 C 6.61 g/m*3 15.18 C 0 km/h
1699 26-09-2010 18:00:00 12.96 C 6.95 g/m*3 12.96 C 0 km/h
1700 26-09-2010 19:00:00 12.24 C 7.1 g/m*3 12.24 C 0 km/h
Sensor: Nr:Datum:Temp:Abs-Feuchte:Windchill:Wind:
Aussen-T/F 1701 26-09-2010 20:00:00 11.78 C 7.21 g/m*3 11.78 C 0 km/h
1702 26-09-2010 21:00:00 11.16 C 7.12 g/m*3 11.16 C 0 km/h
1703 26-09-2010 22:00:00 9.7 C 7.06 g/m*3 9.7 C 0 km/h
1704 26-09-2010 23:00:00 8.84 C 7.17 g/m*3 8.84 C 0 km/h
1705 27-09-2010 00:00:00 8.12 C 7.07 g/m*3 8.12 C 0 km/h
1706 27-09-2010 01:00:00 7.46 C 7.04 g/m*3 7.46 C 0 km/h
1707 27-09-2010 02:00:00 6.84 C 6.86 g/m*3 6.84 C 0 km/h
1708 27-09-2010 03:00:00 6.46 C 6.75 g/m*3 6.46 C 0 km/h
1709 27-09-2010 04:00:00 6.24 C 6.8 g/m*3 6.24 C 0 km/h
1710 27-09-2010 05:00:00 6.24 C 6.83 g/m*3 6.24 C 0 km/h
1711 27-09-2010 06:00:00 6.32 C 6.89 g/m*3 6.32 C 0 km/h
1712 27-09-2010 07:00:00 6.74 C 7.13 g/m*3 6.74 C 0 km/h
1713 27-09-2010 08:00:00 7.7 C 7.61 g/m*3 7.7 C 0 km/h
1714 27-09-2010 09:00:00 9.24 C 8.2 g/m*3 9.24 C 0 km/h
1715 27-09-2010 10:00:00 10.76 C 7.57 g/m*3 10.76 C 0 km/h
1716 27-09-2010 11:00:00 11.98 C 6.79 g/m*3 11.98 C 0 km/h
1717 27-09-2010 12:00:00 12.78 C 6.82 g/m*3 12.78 C 0 km/h
1718 27-09-2010 13:00:00 13.48 C 6.73 g/m*3 13.48 C 0 km/h
1719 27-09-2010 14:00:00 13.26 C 6.66 g/m*3 13.26 C 0 km/h
1720 27-09-2010 15:00:00 13.4 C 6.65 g/m*3 13.4 C 0 km/h
1721 27-09-2010 16:00:00 13.38 C 7.2 g/m*3 13.38 C 0 km/h
1722 27-09-2010 17:00:00 12.9 C 7.69 g/m*3 12.9 C 0 km/h
1723 27-09-2010 18:00:00 11.94 C 7.73 g/m*3 11.94 C 0 km/h
1724 27-09-2010 19:00:00 10.58 C 8.13 g/m*3 10.58 C 0 km/h
1725 27-09-2010 20:00:00 10.3 C 8.39 g/m*3 10.3 C 0 km/h
Sensor: Nr:Datum:Temp:Abs-Feuchte:Windchill:Wind:
Aussen-T/F 1726 27-09-2010 21:00:00 10.34 C 8.55 g/m*3 10.34 C 0 km/h
1727 27-09-2010 22:00:00 10.3 C 8.6 g/m*3 10.3 C 0 km/h
1728 27-09-2010 23:00:00 10.16 C 8.64 g/m*3 10.16 C 0 km/h
1729 28-09-2010 00:00:00 10 C 8.68 g/m*3 10 C 0 km/h
1730 28-09-2010 01:00:00 9.98 C 8.75 g/m*3 9.98 C 0 km/h
1731 28-09-2010 02:00:00 9.9 C 8.78 g/m*3 9.9 C 0 km/h
1732 28-09-2010 03:00:00 9.9 C 8.87 g/m*3 9.9 C 0 km/h
1733 28-09-2010 04:00:00 9.92 C 8.86 g/m*3 9.92 C 0 km/h
1734 28-09-2010 05:00:00 10 C 8.93 g/m*3 10 C 0 km/h
1735 28-09-2010 06:00:00 10.08 C 8.97 g/m*3 10.08 C 0 km/h
1736 28-09-2010 07:00:00 10 C 8.93 g/m*3 10 C 0 km/h
1737 28-09-2010 08:00:00 10.04 C 8.95 g/m*3 10.04 C 0 km/h
1738 28-09-2010 09:00:00 10.24 C 9.06 g/m*3 10.24 C 0 km/h
1739 28-09-2010 10:00:00 10.58 C 9.26 g/m*3 10.58 C 0 km/h
1740 28-09-2010 11:00:00 11.18 C 9.62 g/m*3 11.18 C 0 km/h
1741 28-09-2010 12:00:00 11.48 C 9.72 g/m*3 11.48 C 0 km/h
1742 28-09-2010 13:00:00 11.74 C 9.71 g/m*3 11.74 C 0 km/h
1743 28-09-2010 14:00:00 11.76 C 9.66 g/m*3 11.76 C 0 km/h
1744 28-09-2010 15:00:00 11.74 C 9.73 g/m*3 11.74 C 0 km/h
1745 28-09-2010 16:00:00 11.84 C 9.85 g/m*3 11.84 C 0 km/h
1746 28-09-2010 17:00:00 11.98 C 10.01 g/m*3 11.98 C 0 km/h
1747 28-09-2010 18:00:00 11.86 C 9.99 g/m*3 11.86 C 0 km/h
1748 28-09-2010 19:00:00 11.72 C 9.95 g/m*3 11.72 C 0 km/h
1749 28-09-2010 20:00:00 11.6 C 9.87 g/m*3 11.6 C 0 km/h
1750 28-09-2010 21:00:00 11.58 C 9.86 g/m*3 11.58 C 0 km/h
Sensor: Nr:Datum:Temp:Abs-Feuchte:Windchill:Wind:
Aussen-T/F 1751 28-09-2010 22:00:00 11.62 C 9.89 g/m*3 11.62 C 0 km/h
1752 28-09-2010 23:00:00 11.6 C 9.87 g/m*3 11.6 C 0 km/h
1753 29-09-2010 00:00:00 11.64 C 9.9 g/m*3 11.64 C 0 km/h
1754 29-09-2010 01:00:00 11.62 C 9.89 g/m*3 11.62 C 0 km/h
1755 29-09-2010 02:00:00 11.56 C 9.85 g/m*3 11.56 C 0 km/h
1756 29-09-2010 03:00:00 11.48 C 9.8 g/m*3 11.48 C 0 km/h
1757 29-09-2010 04:00:00 11.48 C 9.8 g/m*3 11.48 C 0 km/h
1758 29-09-2010 05:00:00 11.4 C 9.75 g/m*3 11.4 C 0 km/h
1759 29-09-2010 06:00:00 11.52 C 9.82 g/m*3 11.52 C 0 km/h
1760 29-09-2010 07:00:00 11.04 C 9.53 g/m*3 11.04 C 0 km/h
1761 29-09-2010 08:00:00 11.18 C 9.62 g/m*3 11.18 C 0 km/h
1762 29-09-2010 09:00:00 11.44 C 9.57 g/m*3 11.44 C 0 km/h
1763 29-09-2010 10:00:00 12.92 C 8.98 g/m*3 12.92 C 0 km/h
1764 29-09-2010 11:00:00 13.96 C 8.42 g/m*3 13.96 C 0 km/h
1765 29-09-2010 12:00:00 14.4 C 8.03 g/m*3 14.4 C 0 km/h
1766 29-09-2010 13:00:00 15.74 C 7.89 g/m*3 15.74 C 0 km/h
1767 29-09-2010 14:00:00 16.82 C 7.64 g/m*3 16.82 C 0 km/h
1768 29-09-2010 15:00:00 19.16 C 6.88 g/m*3 19.16 C 0 km/h
1769 29-09-2010 16:00:00 18.14 C 7.62 g/m*3 18.14 C 0 km/h
1770 29-09-2010 17:00:00 18.3 C 7.54 g/m*3 18.3 C 0 km/h
1771 29-09-2010 18:00:00 14.62 C 7.84 g/m*3 14.62 C 0 km/h
1772 29-09-2010 19:00:00 13.08 C 7.68 g/m*3 13.08 C 0 km/h
1773 29-09-2010 20:00:00 13.12 C 7.7 g/m*3 13.12 C 0 km/h
1774 29-09-2010 21:00:00 12.5 C 7.94 g/m*3 12.5 C 0 km/h
1775 29-09-2010 22:00:00 12.38 C 8.36 g/m*3 12.38 C 0 km/h
Sensor: Nr:Datum:Temp:Abs-Feuchte:Windchill:Wind:
Aussen-T/F 1776 29-09-2010 23:00:00 11.96 C 8.33 g/m*3 11.96 C 0 km/h
1777 30-09-2010 00:00:00 12.16 C 8.44 g/m*3 12.16 C 0 km/h
1778 30-09-2010 01:00:00 11.86 C 7.75 g/m*3 11.86 C 0 km/h
1779 30-09-2010 02:00:00 11.46 C 7.62 g/m*3 11.46 C 0 km/h
1780 30-09-2010 03:00:00 11.16 C 7.87 g/m*3 11.16 C 0 km/h
1781 30-09-2010 04:00:00 11.02 C 7.88 g/m*3 11.02 C 0 km/h
1782 30-09-2010 05:00:00 10.76 C 7.79 g/m*3 10.76 C 0 km/h
1783 30-09-2010 06:00:00 10.7 C 7.33 g/m*3 10.7 C 0 km/h
1784 30-09-2010 07:00:00 10.66 C 7.66 g/m*3 10.66 C 0 km/h
1785 30-09-2010 08:00:00 10.9 C 7.76 g/m*3 10.9 C 0 km/h
1786 30-09-2010 09:00:00 11.4 C 7.86 g/m*3 11.4 C 0 km/h
1787 30-09-2010 10:00:00 11.64 C 8.27 g/m*3 11.64 C 0 km/h
1788 30-09-2010 11:00:00 11.86 C 8.47 g/m*3 11.86 C 0 km/h
1789 30-09-2010 12:00:00 11.98 C 8.94 g/m*3 11.98 C 0 km/h
1790 30-09-2010 13:00:00 12.58 C 9.55 g/m*3 12.58 C 0 km/h
1791 30-09-2010 14:00:00 12.94 C 9.9 g/m*3 12.94 C 0 km/h
1792 30-09-2010 15:00:00 13.26 C 10.12 g/m*3 13.26 C 0 km/h
1793 30-09-2010 16:00:00 13.4 C 10.16 g/m*3 13.4 C 0 km/h
1794 30-09-2010 17:00:00 12.96 C 9.98 g/m*3 12.96 C 0 km/h
1795 30-09-2010 18:00:00 12.48 C 9.82 g/m*3 12.48 C 0 km/h
1796 30-09-2010 19:00:00 12.14 C 9.78 g/m*3 12.14 C 0 km/h
1797 30-09-2010 20:00:00 12.16 C 9.92 g/m*3 12.16 C 0 km/h
1798 30-09-2010 21:00:00 12.08 C 9.96 g/m*3 12.08 C 0 km/h
1799 30-09-2010 22:00:00 11.96 C 9.93 g/m*3 11.96 C 0 km/h
1800 30-09-2010 23:00:00 12 C 10 g/m*3 12 C 0 km/h
Sensor: Nr:Datum:Temp:Abs-Feuchte:Windchill:Wind:
Aussen-T/F 1801 01-10-2010 00:00:00 12.02 C 10.05 g/m*3 12.02 C 0 km/h
1802 01-10-2010 01:00:00 11.58 C 9.86 g/m*3 11.58 C 0 km/h
1803 01-10-2010 02:00:00 11.44 C 9.78 g/m*3 11.44 C 0 km/h
1804 01-10-2010 03:00:00 11.56 C 9.85 g/m*3 11.56 C 0 km/h
1805 01-10-2010 04:00:00 11.7 C 9.94 g/m*3 11.7 C 0 km/h
1806 01-10-2010 05:00:00 11.62 C 9.89 g/m*3 11.62 C 0 km/h
1807 01-10-2010 06:00:00 11.4 C 9.75 g/m*3 11.4 C 0 km/h
1808 01-10-2010 07:00:00 11 C 9.51 g/m*3 11 C 0 km/h
1809 01-10-2010 08:00:00 10.3 C 9.1 g/m*3 10.3 C 0 km/h
1810 01-10-2010 09:00:00 11.24 C 9.65 g/m*3 11.24 C 0 km/h
1811 01-10-2010 10:00:00 11.72 C 9.63 g/m*3 11.72 C 0 km/h
1812 01-10-2010 11:00:00 12.46 C 8.84 g/m*3 12.46 C 0 km/h
1813 01-10-2010 12:00:00 12.68 C 8.49 g/m*3 12.68 C 0 km/h
1814 01-10-2010 13:00:00 13.18 C 8.12 g/m*3 13.18 C 0 km/h
1815 01-10-2010 14:00:00 13.32 C 7.94 g/m*3 13.32 C 0 km/h
1816 01-10-2010 15:00:00 15.3 C 7.78 g/m*3 15.3 C 0 km/h
1817 01-10-2010 16:00:00 16.74 C 7.61 g/m*3 16.74 C 0 km/h
1818 01-10-2010 17:00:00 16.14 C 8.35 g/m*3 16.14 C 0 km/h
1819 01-10-2010 18:00:00 14.34 C 8.79 g/m*3 14.34 C 0 km/h
1820 01-10-2010 19:00:00 12.18 C 8.56 g/m*3 12.18 C 0 km/h
1821 01-10-2010 20:00:00 11.26 C 8.51 g/m*3 11.26 C 0 km/h
1822 01-10-2010 21:00:00 10.86 C 8.53 g/m*3 10.86 C 0 km/h
1823 01-10-2010 22:00:00 10.98 C 8.76 g/m*3 10.98 C 0 km/h
1824 01-10-2010 23:00:00 11.06 C 8.74 g/m*3 11.06 C 0 km/h
1825 02-10-2010 00:00:00 11.12 C 8.71 g/m*3 11.12 C 0 km/h
Sensor: Nr:Datum:Temp:Abs-Feuchte:Windchill:Wind:
Aussen-T/F 1826 02-10-2010 01:00:00 10.92 C 8.74 g/m*3 10.92 C 0 km/h
1827 02-10-2010 02:00:00 10.96 C 8.97 g/m*3 10.96 C 0 km/h
1828 02-10-2010 03:00:00 11.1 C 9.15 g/m*3 11.1 C 0 km/h
1829 02-10-2010 04:00:00 11.08 C 9.26 g/m*3 11.08 C 0 km/h
1830 02-10-2010 05:00:00 10.98 C 9.3 g/m*3 10.98 C 0 km/h
1831 02-10-2010 06:00:00 11 C 9.39 g/m*3 11 C 0 km/h
1832 02-10-2010 07:00:00 11.14 C 9.55 g/m*3 11.14 C 0 km/h
1833 02-10-2010 08:00:00 11.46 C 9.79 g/m*3 11.46 C 0 km/h
1834 02-10-2010 09:00:00 12 C 10.12 g/m*3 12 C 0 km/h
1835 02-10-2010 10:00:00 13.14 C 10.75 g/m*3 13.14 C 0 km/h
1836 02-10-2010 11:00:00 14.32 C 11.27 g/m*3 14.32 C 0 km/h
1837 02-10-2010 12:00:00 15.04 C 11.52 g/m*3 15.04 C 0 km/h
1838 02-10-2010 13:00:00 15.74 C 11.53 g/m*3 15.74 C 0 km/h
1839 02-10-2010 14:00:00 15.64 C 11.41 g/m*3 15.64 C 0 km/h
1840 02-10-2010 15:00:00 16 C 11.47 g/m*3 16 C 0 km/h
1841 02-10-2010 16:00:00 16.24 C 11.09 g/m*3 16.24 C 0 km/h
1842 02-10-2010 17:00:00 16.28 C 10.92 g/m*3 16.28 C 0 km/h
1843 02-10-2010 18:00:00 15.42 C 10.92 g/m*3 15.42 C 0 km/h
1844 02-10-2010 19:00:00 14.94 C 10.94 g/m*3 14.94 C 0 km/h
1845 02-10-2010 20:00:00 14.8 C 11.1 g/m*3 14.8 C 0 km/h
1846 02-10-2010 21:00:00 14.5 C 11.02 g/m*3 14.5 C 0 km/h
1847 02-10-2010 22:00:00 14.48 C 11.16 g/m*3 14.48 C 0 km/h
1848 02-10-2010 23:00:00 14.56 C 11.13 g/m*3 14.56 C 0 km/h
1849 03-10-2010 00:00:00 14.44 C 11.08 g/m*3 14.44 C 0 km/h
1850 03-10-2010 01:00:00 14.7 C 10.7 g/m*3 14.7 C 0 km/h
Sensor: Nr:Datum:Temp:Abs-Feuchte:Windchill:Wind:
Aussen-T/F 1851 03-10-2010 02:00:00 14.58 C 10.32 g/m*3 14.58 C 0 km/h
1852 03-10-2010 03:00:00 13.92 C 10.59 g/m*3 13.92 C 0 km/h
1853 03-10-2010 04:00:00 14.08 C 10.62 g/m*3 14.08 C 0 km/h
1854 03-10-2010 05:00:00 14.26 C 10.34 g/m*3 14.26 C 0 km/h
1855 03-10-2010 06:00:00 13.46 C 10.24 g/m*3 13.46 C 0 km/h
1856 03-10-2010 07:00:00 13.42 C 10.43 g/m*3 13.42 C 0 km/h
1857 03-10-2010 08:00:00 13.98 C 10.41 g/m*3 13.98 C 0 km/h
1858 03-10-2010 09:00:00 15.12 C 10.08 g/m*3 15.12 C 0 km/h
1859 03-10-2010 10:00:00 16.78 C 9.91 g/m*3 16.78 C 0 km/h
1860 03-10-2010 11:00:00 18.14 C 10.13 g/m*3 18.14 C 0 km/h
1861 03-10-2010 12:00:00 19.68 C 9.74 g/m*3 19.68 C 0 km/h
1862 03-10-2010 13:00:00 21.36 C 9.43 g/m*3 21.36 C 0 km/h
1863 03-10-2010 14:00:00 23.34 C 9.09 g/m*3 23.34 C 0 km/h
1864 03-10-2010 15:00:00 24.72 C 8.61 g/m*3 24.72 C 0 km/h
1865 03-10-2010 16:00:00 25.12 C 8.67 g/m*3 25.12 C 0 km/h
1866 03-10-2010 17:00:00 25.22 C 9.37 g/m*3 25.22 C 0 km/h
1867 03-10-2010 18:00:00 21.54 C 10.55 g/m*3 21.54 C 0 km/h
1868 03-10-2010 19:00:00 18.78 C 10.84 g/m*3 18.78 C 0 km/h
1869 03-10-2010 20:00:00 18.34 C 10.88 g/m*3 18.34 C 0 km/h
1870 03-10-2010 21:00:00 17.96 C 11.03 g/m*3 17.96 C 0 km/h
1871 03-10-2010 22:00:00 17.56 C 10.86 g/m*3 17.56 C 0 km/h
1872 03-10-2010 23:00:00 17.56 C 10.32 g/m*3 17.56 C 0 km/h
1873 04-10-2010 00:00:00 17.28 C 9.86 g/m*3 17.28 C 0 km/h
1874 04-10-2010 01:00:00 17.18 C 9.59 g/m*3 17.18 C 0 km/h
1875 04-10-2010 02:00:00 16.82 C 9.65 g/m*3 16.82 C 0 km/h
Sensor: Nr:Datum:Temp:Abs-Feuchte:Windchill:Wind:
Aussen-T/F 1876 04-10-2010 03:00:00 15.76 C 9.96 g/m*3 15.76 C 0 km/h
1877 04-10-2010 04:00:00 15.1 C 9.99 g/m*3 15.1 C 0 km/h
1878 04-10-2010 05:00:00 14.3 C 9.95 g/m*3 14.3 C 0 km/h
1879 04-10-2010 06:00:00 13.92 C 9.94 g/m*3 13.92 C 0 km/h
1880 04-10-2010 07:00:00 13.62 C 9.83 g/m*3 13.62 C 0 km/h
1881 04-10-2010 08:00:00 14.26 C 9.8 g/m*3 14.26 C 0 km/h
1882 04-10-2010 09:00:00 15 C 9.23 g/m*3 15 C 0 km/h
1883 04-10-2010 10:00:00 15.66 C 8.97 g/m*3 15.66 C 0 km/h
1884 04-10-2010 11:00:00 17.62 C 8.92 g/m*3 17.62 C 0 km/h
1885 04-10-2010 12:00:00 17.84 C 8.76 g/m*3 17.84 C 0 km/h
1886 04-10-2010 13:00:00 18.72 C 8.62 g/m*3 18.72 C 0 km/h
1887 04-10-2010 14:00:00 19.76 C 8.72 g/m*3 19.76 C 0 km/h
1888 04-10-2010 15:00:00 22.5 C 8.63 g/m*3 22.5 C 0 km/h
1889 04-10-2010 16:00:00 23.64 C 8.23 g/m*3 23.64 C 0 km/h
1890 04-10-2010 17:00:00 21.14 C 9.16 g/m*3 21.14 C 0 km/h
1891 04-10-2010 18:00:00 18.68 C 9.66 g/m*3 18.68 C 0 km/h
1892 04-10-2010 19:00:00 16.52 C 10.09 g/m*3 16.52 C 0 km/h
1893 04-10-2010 20:00:00 16.22 C 10.02 g/m*3 16.22 C 0 km/h
1894 04-10-2010 21:00:00 15.42 C 9.94 g/m*3 15.42 C 0 km/h
1895 04-10-2010 22:00:00 14.56 C 9.91 g/m*3 14.56 C 0 km/h
1896 04-10-2010 23:00:00 14.2 C 9.92 g/m*3 14.2 C 0 km/h
1897 05-10-2010 00:00:00 14.2 C 10.01 g/m*3 14.2 C 0 km/h
1898 05-10-2010 01:00:00 13.94 C 9.9 g/m*3 13.94 C 0 km/h
1899 05-10-2010 02:00:00 13.52 C 9.84 g/m*3 13.52 C 0 km/h
1900 05-10-2010 03:00:00 13.6 C 10 g/m*3 13.6 C 0 km/h
Sensor: Nr:Datum:Temp:Abs-Feuchte:Windchill:Wind:
Aussen-T/F 1901 05-10-2010 04:00:00 13.6 C 10.1 g/m*3 13.6 C 0 km/h
1902 05-10-2010 05:00:00 13.6 C 10.14 g/m*3 13.6 C 0 km/h
1903 05-10-2010 06:00:00 13.42 C 10.38 g/m*3 13.42 C 0 km/h
1904 05-10-2010 07:00:00 13.4 C 10.56 g/m*3 13.4 C 0 km/h
1905 05-10-2010 08:00:00 13.14 C 10.41 g/m*3 13.14 C 0 km/h
1906 05-10-2010 09:00:00 13.3 C 10.68 g/m*3 13.3 C 0 km/h
1907 05-10-2010 10:00:00 14.8 C 11.81 g/m*3 14.8 C 0 km/h
1908 05-10-2010 11:00:00 17.48 C 13.01 g/m*3 17.48 C 0 km/h
1909 05-10-2010 12:00:00 18.1 C 11.43 g/m*3 18.1 C 0 km/h
1910 05-10-2010 13:00:00 19.18 C 11.23 g/m*3 19.18 C 0 km/h
1911 05-10-2010 14:00:00 19.26 C 10.95 g/m*3 19.26 C 0 km/h
1912 05-10-2010 15:00:00 18.8 C 12.63 g/m*3 18.8 C 0 km/h
1913 05-10-2010 16:00:00 18.5 C 12.47 g/m*3 18.5 C 0 km/h
1914 05-10-2010 17:00:00 17.1 C 11.67 g/m*3 17.1 C 0 km/h
1915 05-10-2010 18:00:00 17.02 C 11.44 g/m*3 17.02 C 0 km/h
1916 05-10-2010 19:00:00 16.66 C 11.31 g/m*3 16.66 C 0 km/h
1917 05-10-2010 20:00:00 16.36 C 10.94 g/m*3 16.36 C 0 km/h
1918 05-10-2010 21:00:00 15.68 C 10.26 g/m*3 15.68 C 0 km/h
1919 05-10-2010 22:00:00 15.3 C 9.98 g/m*3 15.3 C 0 km/h
1920 05-10-2010 23:00:00 15.6 C 9.97 g/m*3 15.6 C 0 km/h
1921 06-10-2010 00:00:00 15.6 C 9.97 g/m*3 15.6 C 0 km/h
1922 06-10-2010 01:00:00 15.5 C 9.99 g/m*3 15.5 C 0 km/h
1923 06-10-2010 02:00:00 15.44 C 10.17 g/m*3 15.44 C 0 km/h
1924 06-10-2010 03:00:00 15.28 C 10.1 g/m*3 15.28 C 0 km/h
1925 06-10-2010 04:00:00 15.1 C 10.09 g/m*3 15.1 C 0 km/h
Sensor: Nr:Datum:Temp:Abs-Feuchte:Windchill:Wind:
Aussen-T/F 1926 06-10-2010 05:00:00 14.92 C 10.26 g/m*3 14.92 C 0 km/h
1927 06-10-2010 06:00:00 14.82 C 10.1 g/m*3 14.82 C 0 km/h
1928 06-10-2010 07:00:00 14.66 C 9.95 g/m*3 14.66 C 0 km/h
1929 06-10-2010 08:00:00 14.52 C 10.19 g/m*3 14.52 C 0 km/h
1930 06-10-2010 09:00:00 15.54 C 10.12 g/m*3 15.54 C 0 km/h
1931 06-10-2010 10:00:00 16.24 C 9.93 g/m*3 16.24 C 0 km/h
1932 06-10-2010 11:00:00 17.76 C 9.27 g/m*3 17.76 C 0 km/h
1933 06-10-2010 12:00:00 19.04 C 8.69 g/m*3 19.04 C 0 km/h
1934 06-10-2010 13:00:00 20.2 C 8.5 g/m*3 20.2 C 0 km/h
1935 06-10-2010 14:00:00 21.62 C 8.24 g/m*3 21.62 C 0 km/h
1936 06-10-2010 15:00:00 23.06 C 8.25 g/m*3 23.06 C 0 km/h
1937 06-10-2010 16:00:00 22.84 C 8.96 g/m*3 22.84 C 0 km/h
1938 06-10-2010 17:00:00 21.08 C 10.16 g/m*3 21.08 C 0 km/h
1939 06-10-2010 18:00:00 18.94 C 10.23 g/m*3 18.94 C 0 km/h
1940 06-10-2010 19:00:00 17.3 C 10.19 g/m*3 17.3 C 0 km/h
1941 06-10-2010 20:00:00 16.9 C 10.13 g/m*3 16.9 C 0 km/h
1942 06-10-2010 21:00:00 16.36 C 10.42 g/m*3 16.36 C 0 km/h
1943 06-10-2010 22:00:00 15.74 C 10.52 g/m*3 15.74 C 0 km/h
1944 06-10-2010 23:00:00 14.9 C 10.32 g/m*3 14.9 C 0 km/h
1945 07-10-2010 00:00:00 14.22 C 10.17 g/m*3 14.22 C 0 km/h
1946 07-10-2010 01:00:00 14.24 C 10.5 g/m*3 14.24 C 0 km/h
1947 07-10-2010 02:00:00 14.24 C 10.43 g/m*3 14.24 C 0 km/h
1948 07-10-2010 03:00:00 14.08 C 10.35 g/m*3 14.08 C 0 km/h
1949 07-10-2010 04:00:00 13.82 C 10.31 g/m*3 13.82 C 0 km/h
1950 07-10-2010 05:00:00 13.3 C 10.17 g/m*3 13.3 C 0 km/h
Sensor: Nr:Datum:Temp:Abs-Feuchte:Windchill:Wind:
Aussen-T/F 1951 07-10-2010 06:00:00 13.84 C 10.51 g/m*3 13.84 C 0 km/h
1952 07-10-2010 07:00:00 14.12 C 10.6 g/m*3 14.12 C 0 km/h
1953 07-10-2010 08:00:00 14.66 C 10.9 g/m*3 14.66 C 0 km/h
1954 07-10-2010 09:00:00 15.06 C 10.6 g/m*3 15.06 C 0 km/h
1955 07-10-2010 10:00:00 16.18 C 10.33 g/m*3 16.18 C 0 km/h
1956 07-10-2010 11:00:00 17.26 C 10.32 g/m*3 17.26 C 0 km/h
1957 07-10-2010 12:00:00 18.4 C 9.97 g/m*3 18.4 C 0 km/h
1958 07-10-2010 13:00:00 19.26 C 9.83 g/m*3 19.26 C 0 km/h
1959 07-10-2010 14:00:00 19.88 C 9.78 g/m*3 19.88 C 0 km/h
1960 07-10-2010 15:00:00 20.5 C 9.5 g/m*3 20.5 C 0 km/h
1961 07-10-2010 16:00:00 19.94 C 9.47 g/m*3 19.94 C 0 km/h
1962 07-10-2010 17:00:00 19.16 C 9.57 g/m*3 19.16 C 0 km/h
1963 07-10-2010 18:00:00 17.88 C 10.22 g/m*3 17.88 C 0 km/h
1964 07-10-2010 19:00:00 16.9 C 10.38 g/m*3 16.9 C 0 km/h
1965 07-10-2010 20:00:00 16.3 C 10.35 g/m*3 16.3 C 0 km/h
1966 07-10-2010 21:00:00 16.22 C 10.13 g/m*3 16.22 C 0 km/h
1967 07-10-2010 22:00:00 16 C 9.86 g/m*3 16 C 0 km/h
1968 07-10-2010 23:00:00 16.02 C 9.74 g/m*3 16.02 C 0 km/h
1969 08-10-2010 00:00:00 15.82 C 9.89 g/m*3 15.82 C 0 km/h
1970 08-10-2010 01:00:00 15.62 C 9.67 g/m*3 15.62 C 0 km/h
1971 08-10-2010 02:00:00 15.44 C 9.35 g/m*3 15.44 C 0 km/h
1972 08-10-2010 03:00:00 14.92 C 8.75 g/m*3 14.92 C 0 km/h
1973 08-10-2010 04:00:00 14.52 C 8.57 g/m*3 14.52 C 0 km/h
1974 08-10-2010 05:00:00 14.24 C 8.81 g/m*3 14.24 C 0 km/h
1975 08-10-2010 06:00:00 13.98 C 8.96 g/m*3 13.98 C 0 km/h
Sensor: Nr:Datum:Temp:Abs-Feuchte:Windchill:Wind:
Aussen-T/F 1976 08-10-2010 07:00:00 14.02 C 9.13 g/m*3 14.02 C 0 km/h
1977 08-10-2010 08:00:00 14.2 C 9.23 g/m*3 14.2 C 0 km/h
1978 08-10-2010 09:00:00 14.6 C 9.41 g/m*3 14.6 C 0 km/h
1979 08-10-2010 10:00:00 15.28 C 9.47 g/m*3 15.28 C 0 km/h
1980 08-10-2010 11:00:00 15.86 C 9.29 g/m*3 15.86 C 0 km/h
1981 08-10-2010 12:00:00 16.54 C 9.09 g/m*3 16.54 C 0 km/h
1982 08-10-2010 13:00:00 16.94 C 8.77 g/m*3 16.94 C 0 km/h
1983 08-10-2010 14:00:00 18.76 C 8.77 g/m*3 18.76 C 0 km/h
1984 08-10-2010 15:00:00 20.32 C 8.52 g/m*3 20.32 C 0 km/h
1985 08-10-2010 16:00:00 22.2 C 8.95 g/m*3 22.2 C 0 km/h
1986 08-10-2010 17:00:00 21.78 C 9.24 g/m*3 21.78 C 0 km/h
1987 08-10-2010 18:00:00 19.06 C 9.68 g/m*3 19.06 C 0 km/h
1988 08-10-2010 19:00:00 15.88 C 9.98 g/m*3 15.88 C 0 km/h
1989 08-10-2010 20:00:00 14.78 C 9.79 g/m*3 14.78 C 0 km/h
1990 08-10-2010 21:00:00 14.08 C 9.65 g/m*3 14.08 C 0 km/h
1991 08-10-2010 22:00:00 13.28 C 9.51 g/m*3 13.28 C 0 km/h
1992 08-10-2010 23:00:00 12.58 C 9.3 g/m*3 12.58 C 0 km/h
1993 09-10-2010 00:00:00 11.9 C 9.11 g/m*3 11.9 C 0 km/h
1994 09-10-2010 01:00:00 11.34 C 8.96 g/m*3 11.34 C 0 km/h
1995 09-10-2010 02:00:00 10.74 C 8.68 g/m*3 10.74 C 0 km/h
1996 09-10-2010 03:00:00 10.24 C 8.43 g/m*3 10.24 C 0 km/h
1997 09-10-2010 04:00:00 9.78 C 8.32 g/m*3 9.78 C 0 km/h
1998 09-10-2010 05:00:00 9.52 C 8.29 g/m*3 9.52 C 0 km/h
1999 09-10-2010 06:00:00 9.42 C 8.31 g/m*3 9.42 C 0 km/h
2000 09-10-2010 07:00:00 9.24 C 8.24 g/m*3 9.24 C 0 km/h
Sensor: Nr:Datum:Temp:Abs-Feuchte:Windchill:Wind:
Aussen-T/F 2001 09-10-2010 08:00:00 9.2 C 8.22 g/m*3 9.2 C 0 km/h
2002 09-10-2010 09:00:00 9.28 C 8.24 g/m*3 9.28 C 0 km/h
2003 09-10-2010 10:00:00 10.44 C 8.87 g/m*3 10.44 C 0 km/h
2004 09-10-2010 11:00:00 12.52 C 9.53 g/m*3 12.52 C 0 km/h
2005 09-10-2010 12:00:00 14.68 C 8.2 g/m*3 14.68 C 0 km/h
2006 09-10-2010 13:00:00 17.1 C 7.89 g/m*3 17.1 C 0 km/h
2007 09-10-2010 14:00:00 19.96 C 7.03 g/m*3 19.96 C 0 km/h
2008 09-10-2010 15:00:00 21.86 C 6.28 g/m*3 21.86 C 0 km/h
2009 09-10-2010 16:00:00 22.16 C 6.23 g/m*3 22.16 C 0 km/h
2010 09-10-2010 17:00:00 20.8 C 6.19 g/m*3 20.8 C 0 km/h
2011 09-10-2010 18:00:00 17.02 C 6.26 g/m*3 17.02 C 0 km/h
2012 09-10-2010 19:00:00 13.8 C 6.12 g/m*3 13.8 C 0 km/h
2013 09-10-2010 20:00:00 12.84 C 6.58 g/m*3 12.84 C 0 km/h
2014 09-10-2010 21:00:00 11.48 C 6.99 g/m*3 11.48 C 0 km/h
2015 09-10-2010 22:00:00 10.6 C 7.03 g/m*3 10.6 C 0 km/h
2016 09-10-2010 23:00:00 9.62 C 6.92 g/m*3 9.62 C 0 km/h
2017 10-10-2010 00:00:00 8.94 C 6.99 g/m*3 8.94 C 0 km/h
2018 10-10-2010 01:00:00 8.38 C 6.93 g/m*3 8.38 C 0 km/h
2019 10-10-2010 02:00:00 7.76 C 6.82 g/m*3 7.76 C 0 km/h
2020 10-10-2010 03:00:00 7.14 C 6.66 g/m*3 7.14 C 0 km/h
2021 10-10-2010 04:00:00 6.76 C 6.61 g/m*3 6.76 C 0 km/h
2022 10-10-2010 05:00:00 6.28 C 6.45 g/m*3 6.28 C 0 km/h
2023 10-10-2010 06:00:00 5.86 C 6.36 g/m*3 5.86 C 0 km/h
2024 10-10-2010 07:00:00 5.5 C 6.31 g/m*3 5.5 C 0 km/h
2025 10-10-2010 08:00:00 6.36 C 6.69 g/m*3 6.36 C 0 km/h
Sensor: Nr:Datum:Temp:Abs-Feuchte:Windchill:Wind:
Aussen-T/F 2026 10-10-2010 09:00:00 7.26 C 6.79 g/m*3 7.26 C 0 km/h
2027 10-10-2010 10:00:00 8.92 C 6.6 g/m*3 8.92 C 0 km/h
2028 10-10-2010 11:00:00 10.92 C 6.57 g/m*3 10.92 C 0 km/h
2029 10-10-2010 12:00:00 12.8 C 6.47 g/m*3 12.8 C 0 km/h
2030 10-10-2010 13:00:00 15.86 C 5.67 g/m*3 15.86 C 0 km/h
2031 10-10-2010 14:00:00 18.62 C 5.45 g/m*3 18.62 C 0 km/h
2032 10-10-2010 15:00:00 20.4 C 5.91 g/m*3 20.4 C 0 km/h
2033 10-10-2010 16:00:00 21.28 C 5.7 g/m*3 21.28 C 0 km/h
2034 10-10-2010 17:00:00 20.64 C 5.6 g/m*3 20.64 C 0 km/h
2035 10-10-2010 18:00:00 17.2 C 5.45 g/m*3 17.2 C 0 km/h
2036 10-10-2010 19:00:00 14.18 C 5.49 g/m*3 14.18 C 0 km/h
2037 10-10-2010 20:00:00 13.02 C 4.91 g/m*3 13.02 C 0 km/h
2038 10-10-2010 21:00:00 12.44 C 4.01 g/m*3 12.44 C 0 km/h
2039 10-10-2010 22:00:00 11.46 C 4.12 g/m*3 11.46 C 0 km/h
2040 10-10-2010 23:00:00 10.72 C 4.52 g/m*3 10.72 C 0 km/h
2041 11-10-2010 00:00:00 9.98 C 4.88 g/m*3 9.98 C 0 km/h
2042 11-10-2010 01:00:00 9.44 C 4.91 g/m*3 9.44 C 0 km/h
2043 11-10-2010 02:00:00 9.08 C 4.87 g/m*3 9.08 C 0 km/h
2044 11-10-2010 03:00:00 8.24 C 4.99 g/m*3 8.24 C 0 km/h
2045 11-10-2010 04:00:00 7.58 C 5.1 g/m*3 7.58 C 0 km/h
2046 11-10-2010 05:00:00 6.64 C 5.24 g/m*3 6.64 C 0 km/h
2047 11-10-2010 06:00:00 5.72 C 5.32 g/m*3 5.72 C 0 km/h
2048 11-10-2010 07:00:00 5.22 C 5.36 g/m*3 5.22 C 0 km/h
2049 11-10-2010 08:00:00 4.96 C 5.39 g/m*3 4.96 C 0 km/h
2050 11-10-2010 09:00:00 5.6 C 5.7 g/m*3 5.6 C 0 km/h
Sensor: Nr:Datum:Temp:Abs-Feuchte:Windchill:Wind:
Aussen-T/F 2051 11-10-2010 10:00:00 7.12 C 6.11 g/m*3 7.12 C 0 km/h
2052 11-10-2010 11:00:00 9.46 C 6.36 g/m*3 9.46 C 0 km/h
2053 11-10-2010 12:00:00 11.62 C 6.45 g/m*3 11.62 C 0 km/h
2054 11-10-2010 13:00:00 14.92 C 5.9 g/m*3 14.92 C 0 km/h
2055 11-10-2010 14:00:00 17.48 C 5.45 g/m*3 17.48 C 0 km/h
2056 11-10-2010 15:00:00 19.78 C 5.05 g/m*3 19.78 C 0 km/h
2057 11-10-2010 16:00:00 20.96 C 4.61 g/m*3 20.96 C 0 km/h
2058 11-10-2010 17:00:00 19.56 C 3.6 g/m*3 19.56 C 0 km/h
2059 11-10-2010 18:00:00 16.12 C 3.98 g/m*3 16.12 C 0 km/h
2060 11-10-2010 19:00:00 13.18 C 4.33 g/m*3 13.18 C 0 km/h
2061 11-10-2010 20:00:00 11.32 C 4.82 g/m*3 11.32 C 0 km/h
2062 11-10-2010 21:00:00 10.025 C 4.96 g/m*3 10.03 C 0 km/h
2063 11-10-2010 22:00:00 9.2 C 4.84 g/m*3 9.2 C 0 km/h
2064 11-10-2010 23:00:00 8.24 C 4.87 g/m*3 8.24 C 0 km/h
2065 12-10-2010 00:00:00 7.16 C 5.01 g/m*3 7.16 C 0 km/h
2066 12-10-2010 01:00:00 6.4 C 5.13 g/m*3 6.4 C 0 km/h
2067 12-10-2010 02:00:00 5.74 C 5.24 g/m*3 5.74 C 0 km/h
2068 12-10-2010 03:00:00 5.04 C 5.31 g/m*3 5.04 C 0 km/h
2069 12-10-2010 04:00:00 4.42 C 5.34 g/m*3 4.42 C 0 km/h
2070 12-10-2010 05:00:00 3.8 C 5.31 g/m*3 3.8 C 0 km/h
2071 12-10-2010 06:00:00 3.46 C 5.26 g/m*3 3.46 C 0 km/h
2072 12-10-2010 07:00:00 2.94 C 5.15 g/m*3 2.94 C 0 km/h
2073 12-10-2010 08:00:00 3.56 C 5.52 g/m*3 3.56 C 0 km/h
2074 12-10-2010 09:00:00 4.9 C 5.93 g/m*3 4.9 C 0 km/h
2075 12-10-2010 10:00:00 5.82 C 6.07 g/m*3 5.82 C 0 km/h
Sensor: Nr:Datum:Temp:Abs-Feuchte:Windchill:Wind:
Aussen-T/F 2076 12-10-2010 11:00:00 7.16 C 6.36 g/m*3 7.16 C 0 km/h
2077 12-10-2010 12:00:00 9.56 C 6.18 g/m*3 9.56 C 0 km/h
2078 12-10-2010 13:00:00 12.58 C 5.72 g/m*3 12.58 C 0 km/h
2079 12-10-2010 14:00:00 15.26 C 5.65 g/m*3 15.26 C 0 km/h
2080 12-10-2010 15:00:00 16.94 C 5.42 g/m*3 16.94 C 0 km/h
2081 12-10-2010 16:00:00 17.66 C 5.42 g/m*3 17.66 C 0 km/h
2082 12-10-2010 17:00:00 17.22 C 4.57 g/m*3 17.22 C 0 km/h
2083 12-10-2010 18:00:00 14.5 C 5.65 g/m*3 14.5 C 0 km/h
2084 12-10-2010 19:00:00 11.42 C 6.45 g/m*3 11.42 C 0 km/h
2085 12-10-2010 20:00:00 9.84 C 6.47 g/m*3 9.84 C 0 km/h
2086 12-10-2010 21:00:00 8.36 C 6.26 g/m*3 8.36 C 0 km/h
2087 12-10-2010 22:00:00 7.74 C 6.15 g/m*3 7.74 C 0 km/h
2088 12-10-2010 23:00:00 7.78 C 6 g/m*3 7.78 C 0 km/h
2089 13-10-2010 00:00:00 7.6 C 5.86 g/m*3 7.6 C 0 km/h
2090 13-10-2010 01:00:00 7.02 C 5.82 g/m*3 7.02 C 0 km/h
2091 13-10-2010 02:00:00 6.8 C 5.83 g/m*3 6.8 C 0 km/h
2092 13-10-2010 03:00:00 6.44 C 5.69 g/m*3 6.44 C 0 km/h
2093 13-10-2010 04:00:00 6.2 C 5.59 g/m*3 6.2 C 0 km/h
2094 13-10-2010 05:00:00 6.1 C 5.6 g/m*3 6.1 C 0 km/h
2095 13-10-2010 06:00:00 5.84 C 5.6 g/m*3 5.84 C 0 km/h
2096 13-10-2010 07:00:00 5.42 C 5.53 g/m*3 5.42 C 0 km/h
2097 13-10-2010 08:00:00 5.62 C 5.49 g/m*3 5.62 C 0 km/h
2098 13-10-2010 09:00:00 5.86 C 5.45 g/m*3 5.86 C 0 km/h
2099 13-10-2010 10:00:00 6.66 C 5.3 g/m*3 6.66 C 0 km/h
2100 13-10-2010 11:00:00 7.04 C 5.08 g/m*3 7.04 C 0 km/h
Sensor: Nr:Datum:Temp:Abs-Feuchte:Windchill:Wind:
Aussen-T/F 2101 13-10-2010 12:00:00 8.14 C 5.06 g/m*3 8.14 C 0 km/h
2102 13-10-2010 13:00:00 8.8 C 4.89 g/m*3 8.8 C 0 km/h
2103 13-10-2010 14:00:00 9.8 C 4.95 g/m*3 9.8 C 0 km/h
2104 13-10-2010 15:00:00 11.78 C 4.94 g/m*3 11.78 C 0 km/h
2105 13-10-2010 16:00:00 12.06 C 5.01 g/m*3 12.06 C 0 km/h
2106 13-10-2010 17:00:00 12.34 C 5.23 g/m*3 12.34 C 0 km/h
2107 13-10-2010 18:00:00 9.94 C 5.5 g/m*3 9.94 C 0 km/h
2108 13-10-2010 19:00:00 7.48 C 5.76 g/m*3 7.48 C 0 km/h
2109 13-10-2010 20:00:00 6.96 C 5.81 g/m*3 6.96 C 0 km/h
2110 13-10-2010 21:00:00 5.82 C 5.72 g/m*3 5.82 C 0 km/h
2111 13-10-2010 22:00:00 5.16 C 5.73 g/m*3 5.16 C 0 km/h
2112 13-10-2010 23:00:00 4.52 C 5.61 g/m*3 4.52 C 0 km/h
2113 14-10-2010 00:00:00 3.88 C 5.51 g/m*3 3.88 C 0 km/h
2114 14-10-2010 01:00:00 3.38 C 5.47 g/m*3 3.38 C 0 km/h
2115 14-10-2010 02:00:00 3.62 C 5.65 g/m*3 3.62 C 0 km/h
2116 14-10-2010 03:00:00 3.52 C 5.57 g/m*3 3.52 C 0 km/h
2117 14-10-2010 04:00:00 3.54 C 5.55 g/m*3 3.54 C 0 km/h
2118 14-10-2010 05:00:00 3.62 C 5.63 g/m*3 3.62 C 0 km/h
2119 14-10-2010 06:00:00 3.92 C 5.7 g/m*3 3.92 C 0 km/h
2120 14-10-2010 07:00:00 4.12 C 5.76 g/m*3 4.12 C 0 km/h
2121 14-10-2010 08:00:00 4.44 C 5.84 g/m*3 4.44 C 0 km/h
2122 14-10-2010 09:00:00 4.56 C 5.86 g/m*3 4.56 C 0 km/h
2123 14-10-2010 10:00:00 5.16 C 5.88 g/m*3 5.16 C 0 km/h
2124 14-10-2010 11:00:00 6.2 C 5.75 g/m*3 6.2 C 0 km/h
2125 14-10-2010 12:00:00 7.86 C 5.59 g/m*3 7.86 C 0 km/h
Sensor: Nr:Datum:Temp:Abs-Feuchte:Windchill:Wind:
Aussen-T/F 2126 14-10-2010 13:00:00 9.36 C 5.58 g/m*3 9.36 C 0 km/h
2127 14-10-2010 14:00:00 11.86 C 5.85 g/m*3 11.86 C 0 km/h
2128 14-10-2010 15:00:00 13.94 C 5.72 g/m*3 13.94 C 0 km/h
2129 14-10-2010 16:00:00 14.4 C 5.83 g/m*3 14.4 C 0 km/h
2130 14-10-2010 17:00:00 13.24 C 5.5 g/m*3 13.24 C 0 km/h
2131 14-10-2010 18:00:00 11.04 C 5.96 g/m*3 11.04 C 0 km/h
2132 14-10-2010 19:00:00 10.26 C 6.25 g/m*3 10.26 C 0 km/h
2133 14-10-2010 20:00:00 10.2 C 6.24 g/m*3 10.2 C 0 km/h
2134 14-10-2010 21:00:00 9.8 C 6.33 g/m*3 9.8 C 0 km/h
2135 14-10-2010 22:00:00 9.74 C 6.51 g/m*3 9.74 C 0 km/h
2136 14-10-2010 23:00:00 9.68 C 6.68 g/m*3 9.68 C 0 km/h
2137 15-10-2010 00:00:00 9.5 C 6.75 g/m*3 9.5 C 0 km/h
2138 15-10-2010 01:00:00 9.42 C 6.88 g/m*3 9.42 C 0 km/h
2139 15-10-2010 02:00:00 9.24 C 7.13 g/m*3 9.24 C 0 km/h
2140 15-10-2010 03:00:00 9.28 C 7.25 g/m*3 9.28 C 0 km/h
2141 15-10-2010 04:00:00 9.28 C 7.36 g/m*3 9.28 C 0 km/h
2142 15-10-2010 05:00:00 9.2 C 7.41 g/m*3 9.2 C 0 km/h
2143 15-10-2010 06:00:00 9.3 C 7.66 g/m*3 9.3 C 0 km/h
2144 15-10-2010 07:00:00 9.28 C 7.74 g/m*3 9.28 C 0 km/h
2145 15-10-2010 08:00:00 9.24 C 7.86 g/m*3 9.24 C 0 km/h
2146 15-10-2010 09:00:00 9.82 C 8.19 g/m*3 9.82 C 0 km/h
2147 15-10-2010 10:00:00 10.72 C 8.06 g/m*3 10.72 C 0 km/h
2148 15-10-2010 11:00:00 11.52 C 7.76 g/m*3 11.52 C 0 km/h
2149 15-10-2010 12:00:00 12.42 C 7.33 g/m*3 12.42 C 0 km/h
2150 15-10-2010 13:00:00 13.38 C 6.9 g/m*3 13.38 C 0 km/h
Sensor: Nr:Datum:Temp:Abs-Feuchte:Windchill:Wind:
Aussen-T/F 2151 15-10-2010 14:00:00 12.78 C 6.76 g/m*3 12.78 C 0 km/h
2152 15-10-2010 15:00:00 12.86 C 6.68 g/m*3 12.86 C 0 km/h
2153 15-10-2010 16:00:00 12.24 C 6.79 g/m*3 12.24 C 0 km/h
2154 15-10-2010 17:00:00 11.56 C 7.07 g/m*3 11.56 C 0 km/h
2155 15-10-2010 18:00:00 10.88 C 7.03 g/m*3 10.88 C 0 km/h
2156 15-10-2010 19:00:00 10.52 C 7.01 g/m*3 10.52 C 0 km/h
2157 15-10-2010 20:00:00 10.36 C 7.02 g/m*3 10.36 C 0 km/h
2158 15-10-2010 21:00:00 10.1 C 7.19 g/m*3 10.1 C 0 km/h
2159 15-10-2010 22:00:00 9.3 C 7.67 g/m*3 9.3 C 0 km/h
2160 15-10-2010 23:00:00 9.2 C 8.04 g/m*3 9.2 C 0 km/h
2161 16-10-2010 00:00:00 9.02 C 8.16 g/m*3 9.02 C 0 km/h
2162 16-10-2010 01:00:00 8.82 C 8.19 g/m*3 8.82 C 0 km/h
2163 16-10-2010 02:00:00 8.78 C 8.22 g/m*3 8.78 C 0 km/h
2164 16-10-2010 03:00:00 8.68 C 8.21 g/m*3 8.68 C 0 km/h
2165 16-10-2010 04:00:00 8.54 C 8.13 g/m*3 8.54 C 0 km/h
2166 16-10-2010 05:00:00 8.36 C 8.04 g/m*3 8.36 C 0 km/h
2167 16-10-2010 06:00:00 8.3 C 8.01 g/m*3 8.3 C 0 km/h
2168 16-10-2010 07:00:00 8.12 C 7.88 g/m*3 8.12 C 0 km/h
2169 16-10-2010 08:00:00 8.1 C 7.77 g/m*3 8.1 C 0 km/h
2170 16-10-2010 09:00:00 8.24 C 7.81 g/m*3 8.24 C 0 km/h
2171 16-10-2010 10:00:00 8.64 C 8.03 g/m*3 8.64 C 0 km/h
2172 16-10-2010 11:00:00 8.96 C 8.11 g/m*3 8.96 C 0 km/h
2173 16-10-2010 12:00:00 9.38 C 8.11 g/m*3 9.38 C 0 km/h
2174 16-10-2010 13:00:00 9.72 C 8.16 g/m*3 9.72 C 0 km/h
2175 16-10-2010 14:00:00 9.96 C 7.89 g/m*3 9.96 C 0 km/h
Sensor: Nr:Datum:Temp:Abs-Feuchte:Windchill:Wind:
Aussen-T/F 2176 16-10-2010 15:00:00 10.08 C 7.82 g/m*3 10.08 C 0 km/h
2177 16-10-2010 16:00:00 9.9 C 7.84 g/m*3 9.9 C 0 km/h
2178 16-10-2010 17:00:00 9.36 C 7.9 g/m*3 9.36 C 0 km/h
2179 16-10-2010 18:00:00 8.38 C 6.98 g/m*3 8.38 C 0 km/h
2180 16-10-2010 19:00:00 6.96 C 6.55 g/m*3 6.96 C 0 km/h
2181 16-10-2010 20:00:00 6.56 C 6.31 g/m*3 6.56 C 0 km/h
2182 16-10-2010 21:00:00 6.28 C 6.21 g/m*3 6.28 C 0 km/h
2183 16-10-2010 22:00:00 5.9 C 6.37 g/m*3 5.9 C 0 km/h
2184 16-10-2010 23:00:00 5.96 C 6.56 g/m*3 5.96 C 0 km/h
2185 17-10-2010 00:00:00 6.14 C 6.7 g/m*3 6.14 C 0 km/h
2186 17-10-2010 01:00:00 6.24 C 6.71 g/m*3 6.24 C 0 km/h
2187 17-10-2010 02:00:00 6.22 C 6.61 g/m*3 6.22 C 0 km/h
2188 17-10-2010 03:00:00 6.24 C 6.49 g/m*3 6.24 C 0 km/h
2189 17-10-2010 04:00:00 6.22 C 6.33 g/m*3 6.22 C 0 km/h
2190 17-10-2010 05:00:00 6.3 C 6.43 g/m*3 6.3 C 0 km/h
2191 17-10-2010 06:00:00 6.34 C 6.46 g/m*3 6.34 C 0 km/h
2192 17-10-2010 07:00:00 6.34 C 6.29 g/m*3 6.34 C 0 km/h
2193 17-10-2010 08:00:00 6.58 C 6.17 g/m*3 6.58 C 0 km/h
2194 17-10-2010 09:00:00 6.88 C 6.15 g/m*3 6.88 C 0 km/h
2195 17-10-2010 10:00:00 7.32 C 6.14 g/m*3 7.32 C 0 km/h
2196 17-10-2010 11:00:00 7.7 C 5.98 g/m*3 7.7 C 0 km/h
2197 17-10-2010 12:00:00 7.88 C 5.97 g/m*3 7.88 C 0 km/h
2198 17-10-2010 13:00:00 8.1 C 5.96 g/m*3 8.1 C 0 km/h
2199 17-10-2010 14:00:00 8.36 C 6.14 g/m*3 8.36 C 0 km/h
2200 17-10-2010 15:00:00 8.52 C 6.12 g/m*3 8.52 C 0 km/h
Sensor: Nr:Datum:Temp:Abs-Feuchte:Windchill:Wind:
Aussen-T/F 2201 17-10-2010 16:00:00 8.46 C 6.28 g/m*3 8.46 C 0 km/h
2202 17-10-2010 17:00:00 8.3 C 6.32 g/m*3 8.3 C 0 km/h
2203 17-10-2010 18:00:00 7.9 C 6.32 g/m*3 7.9 C 0 km/h
2204 17-10-2010 19:00:00 7.68 C 6.38 g/m*3 7.68 C 0 km/h
2205 17-10-2010 20:00:00 7.68 C 6.43 g/m*3 7.68 C 0 km/h
2206 17-10-2010 21:00:00 7.62 C 6.44 g/m*3 7.62 C 0 km/h
2207 17-10-2010 22:00:00 7.38 C 6.43 g/m*3 7.38 C 0 km/h
2208 17-10-2010 23:00:00 7.04 C 6.31 g/m*3 7.04 C 0 km/h
2209 18-10-2010 00:00:00 6.48 C 6.19 g/m*3 6.48 C 0 km/h
2210 18-10-2010 01:00:00 5.18 C 5.97 g/m*3 5.18 C 0 km/h
2211 18-10-2010 02:00:00 5.8 C 6.35 g/m*3 5.8 C 0 km/h
2212 18-10-2010 03:00:00 6 C 6.3 g/m*3 6 C 0 km/h
2213 18-10-2010 04:00:00 6.02 C 6.25 g/m*3 6.02 C 0 km/h
2214 18-10-2010 05:00:00 5.84 C 6.1 g/m*3 5.84 C 0 km/h
2215 18-10-2010 06:00:00 5.8 C 6.16 g/m*3 5.8 C 0 km/h
2216 18-10-2010 07:00:00 5.76 C 6.14 g/m*3 5.76 C 0 km/h
2217 18-10-2010 08:00:00 5.78 C 6.2 g/m*3 5.78 C 0 km/h
2218 18-10-2010 09:00:00 6.66 C 6.44 g/m*3 6.66 C 0 km/h
2219 18-10-2010 10:00:00 7.56 C 5.99 g/m*3 7.56 C 0 km/h
2220 18-10-2010 11:00:00 7.76 C 5.06 g/m*3 7.76 C 0 km/h
2221 18-10-2010 12:00:00 8.26 C 4.98 g/m*3 8.26 C 0 km/h
2222 18-10-2010 13:00:00 8.82 C 4.85 g/m*3 8.82 C 0 km/h
2223 18-10-2010 14:00:00 8.88 C 4.86 g/m*3 8.88 C 0 km/h
2224 18-10-2010 15:00:00 8.74 C 4.86 g/m*3 8.74 C 0 km/h
2225 18-10-2010 16:00:00 8.74 C 4.91 g/m*3 8.74 C 0 km/h
Sensor: Nr:Datum:Temp:Abs-Feuchte:Windchill:Wind:
Aussen-T/F 2226 18-10-2010 17:00:00 8.52 C 4.86 g/m*3 8.52 C 0 km/h
2227 18-10-2010 18:00:00 7.76 C 4.97 g/m*3 7.76 C 0 km/h
2228 18-10-2010 19:00:00 6.32 C 4.89 g/m*3 6.32 C 0 km/h
2229 18-10-2010 20:00:00 5.6 C 5.05 g/m*3 5.6 C 0 km/h
2230 18-10-2010 21:00:00 5.18 C 5.03 g/m*3 5.18 C 0 km/h
2231 18-10-2010 22:00:00 4.92 C 5.06 g/m*3 4.92 C 0 km/h
2232 18-10-2010 23:00:00 4.86 C 5.17 g/m*3 4.86 C 0 km/h
2233 19-10-2010 00:00:00 5.14 C 5.24 g/m*3 5.14 C 0 km/h
2234 19-10-2010 01:00:00 5.42 C 5.27 g/m*3 5.42 C 0 km/h
2235 19-10-2010 02:00:00 5.5 C 5.32 g/m*3 5.5 C 0 km/h
2236 19-10-2010 03:00:00 4.96 C 5.75 g/m*3 4.96 C 0 km/h
2237 19-10-2010 04:00:00 5.04 C 6.04 g/m*3 5.04 C 0 km/h
2238 19-10-2010 05:00:00 5.42 C 6.06 g/m*3 5.42 C 0 km/h
2239 19-10-2010 06:00:00 5.6 C 6.31 g/m*3 5.6 C 0 km/h
2240 19-10-2010 07:00:00 5.98 C 6.38 g/m*3 5.98 C 0 km/h
2241 19-10-2010 08:00:00 5.98 C 6.42 g/m*3 5.98 C 0 km/h
2242 19-10-2010 09:00:00 6.54 C 6.62 g/m*3 6.54 C 0 km/h
2243 19-10-2010 10:00:00 7.34 C 6.65 g/m*3 7.34 C 0 km/h
2244 19-10-2010 11:00:00 7.5 C 6.93 g/m*3 7.5 C 0 km/h
2245 19-10-2010 12:00:00 7.98 C 7.08 g/m*3 7.98 C 0 km/h
2246 19-10-2010 13:00:00 9.08 C 7.48 g/m*3 9.08 C 0 km/h
2247 19-10-2010 14:00:00 9.8 C 7.42 g/m*3 9.8 C 0 km/h
2248 19-10-2010 15:00:00 10.34 C 7.37 g/m*3 10.34 C 0 km/h
2249 19-10-2010 16:00:00 12.46 C 7 g/m*3 12.46 C 0 km/h
2250 19-10-2010 17:00:00 10.3 C 7.22 g/m*3 10.3 C 0 km/h
Sensor: Nr:Datum:Temp:Abs-Feuchte:Windchill:Wind:
Aussen-T/F 2251 19-10-2010 18:00:00 9.04 C 6.96 g/m*3 9.04 C 0 km/h
2252 19-10-2010 19:00:00 7.98 C 6.85 g/m*3 7.98 C 0 km/h
2253 19-10-2010 20:00:00 7.36 C 6.46 g/m*3 7.36 C 0 km/h
2254 19-10-2010 21:00:00 6.94 C 6.22 g/m*3 6.94 C 0 km/h
2255 19-10-2010 22:00:00 6.52 C 6.16 g/m*3 6.52 C 0 km/h
2256 19-10-2010 23:00:00 6.54 C 6.2 g/m*3 6.54 C 0 km/h
2257 20-10-2010 00:00:00 6.34 C 6.16 g/m*3 6.34 C 0 km/h
2258 20-10-2010 01:00:00 6.38 C 6.16 g/m*3 6.38 C 0 km/h
2259 20-10-2010 02:00:00 5.94 C 6.39 g/m*3 5.94 C 0 km/h
2260 20-10-2010 03:00:00 5.76 C 6.53 g/m*3 5.76 C 0 km/h
2261 20-10-2010 04:00:00 5.84 C 6.51 g/m*3 5.84 C 0 km/h
2262 20-10-2010 05:00:00 5.62 C 6.56 g/m*3 5.62 C 0 km/h
2263 20-10-2010 06:00:00 5.52 C 6.61 g/m*3 5.52 C 0 km/h
2264 20-10-2010 07:00:00 5.5 C 6.64 g/m*3 5.5 C 0 km/h
2265 20-10-2010 08:00:00 5.6 C 6.66 g/m*3 5.6 C 0 km/h
2266 20-10-2010 09:00:00 6 C 6.84 g/m*3 6 C 0 km/h
2267 20-10-2010 10:00:00 6.92 C 6.95 g/m*3 6.92 C 0 km/h
2268 20-10-2010 11:00:00 6.84 C 6.44 g/m*3 6.84 C 0 km/h
2269 20-10-2010 12:00:00 6.92 C 6.38 g/m*3 6.92 C 0 km/h
2270 20-10-2010 13:00:00 7.92 C 6.2 g/m*3 7.92 C 0 km/h
2271 20-10-2010 14:00:00 9.48 C 5.67 g/m*3 9.48 C 0 km/h
2272 20-10-2010 15:00:00 7.68 C 5.56 g/m*3 7.68 C 0 km/h
2273 20-10-2010 16:00:00 7.36 C 5.06 g/m*3 7.36 C 0 km/h
2274 20-10-2010 17:00:00 7.02 C 4.92 g/m*3 7.02 C 0 km/h
2275 20-10-2010 18:00:00 6.32 C 5.04 g/m*3 6.32 C 0 km/h
Sensor: Nr:Datum:Temp:Abs-Feuchte:Windchill:Wind:
Aussen-T/F 2276 20-10-2010 19:00:00 4.64 C 5.24 g/m*3 4.64 C 0 km/h
2277 20-10-2010 20:00:00 4.54 C 5.25 g/m*3 4.54 C 0 km/h
2278 20-10-2010 21:00:00 4.46 C 5.11 g/m*3 4.46 C 0 km/h
2279 20-10-2010 22:00:00 4.48 C 5.07 g/m*3 4.48 C 0 km/h
2280 20-10-2010 23:00:00 4.32 C 5.05 g/m*3 4.32 C 0 km/h
2281 21-10-2010 00:00:00 4.6 C 5.11 g/m*3 4.6 C 0 km/h
2282 21-10-2010 01:00:00 4.44 C 5.04 g/m*3 4.44 C 0 km/h
2283 21-10-2010 02:00:00 3.74 C 4.97 g/m*3 3.74 C 0 km/h
2284 21-10-2010 03:00:00 3.32 C 4.98 g/m*3 3.32 C 0 km/h
2285 21-10-2010 04:00:00 2.64 C 4.9 g/m*3 2.64 C 0 km/h
2286 21-10-2010 05:00:00 1.92 C 4.82 g/m*3 1.92 C 0 km/h
2287 21-10-2010 06:00:00 1.7 C 4.9 g/m*3 1.7 C 0 km/h
2288 21-10-2010 07:00:00 1.66 C 5 g/m*3 1.66 C 0 km/h
2289 21-10-2010 08:00:00 2.1 C 5.14 g/m*3 2.1 C 0 km/h
2290 21-10-2010 09:00:00 3 C 5.24 g/m*3 3 C 0 km/h
2291 21-10-2010 10:00:00 4.16 C 5.06 g/m*3 4.16 C 0 km/h
2292 21-10-2010 11:00:00 5.64 C 4.99 g/m*3 5.64 C 0 km/h
2293 21-10-2010 12:00:00 6.98 C 4.63 g/m*3 6.98 C 0 km/h
2294 21-10-2010 13:00:00 8.7 C 4.13 g/m*3 8.7 C 0 km/h
2295 21-10-2010 14:00:00 10.38 C 3.87 g/m*3 10.38 C 0 km/h
2296 21-10-2010 15:00:00 10.66 C 3.63 g/m*3 10.66 C 0 km/h
2297 21-10-2010 16:00:00 10.4 C 3.64 g/m*3 10.4 C 0 km/h
2298 21-10-2010 17:00:00 10.96 C 3.55 g/m*3 10.96 C 0 km/h
2299 21-10-2010 18:00:00 7.38 C 3.99 g/m*3 7.38 C 0 km/h
2300 21-10-2010 19:00:00 5.64 C 4.05 g/m*3 5.64 C 0 km/h
Sensor: Nr:Datum:Temp:Abs-Feuchte:Windchill:Wind:
Aussen-T/F 2301 21-10-2010 20:00:00 4.86 C 3.96 g/m*3 4.86 C 0 km/h
2302 21-10-2010 21:00:00 4.62 C 3.74 g/m*3 4.62 C 0 km/h
2303 21-10-2010 22:00:00 3.84 C 3.84 g/m*3 3.84 C 0 km/h
2304 21-10-2010 23:00:00 3.14 C 3.89 g/m*3 3.14 C 0 km/h
2305 22-10-2010 00:00:00 2.38 C 4.06 g/m*3 2.38 C 0 km/h
2306 22-10-2010 01:00:00 1.74 C 4.11 g/m*3 1.74 C 0 km/h
2307 22-10-2010 02:00:00 2.12 C 4.09 g/m*3 2.12 C 0 km/h
2308 22-10-2010 03:00:00 2.16 C 4.08 g/m*3 2.16 C 0 km/h
2309 22-10-2010 04:00:00 1.48 C 4.09 g/m*3 1.48 C 0 km/h
2310 22-10-2010 05:00:00 1.38 C 4.11 g/m*3 1.38 C 0 km/h
2311 22-10-2010 06:00:00 1.66 C 4.06 g/m*3 1.66 C 0 km/h
2312 22-10-2010 07:00:00 0.94 C 3.98 g/m*3 0.94 C 0 km/h
2313 22-10-2010 08:00:00 1.28 C 4.04 g/m*3 1.28 C 0 km/h
2314 22-10-2010 09:00:00 2.06 C 4.3 g/m*3 2.06 C 0 km/h
2315 22-10-2010 10:00:00 4.3 C 4.23 g/m*3 4.3 C 0 km/h
2316 22-10-2010 11:00:00 5.36 C 3.94 g/m*3 5.36 C 0 km/h
2317 22-10-2010 12:00:00 6.56 C 3.9 g/m*3 6.56 C 0 km/h
2318 22-10-2010 13:00:00 7.18 C 3.89 g/m*3 7.18 C 0 km/h
2319 22-10-2010 14:00:00 7.36 C 3.87 g/m*3 7.36 C 0 km/h
2320 22-10-2010 15:00:00 7.22 C 3.82 g/m*3 7.22 C 0 km/h
2321 22-10-2010 16:00:00 7.42 C 4.33 g/m*3 7.42 C 0 km/h
2322 22-10-2010 17:00:00 7.22 C 4.28 g/m*3 7.22 C 0 km/h
2323 22-10-2010 18:00:00 6.18 C 4.1 g/m*3 6.18 C 0 km/h
2324 22-10-2010 19:00:00 6.2 C 3.69 g/m*3 6.2 C 0 km/h
2325 22-10-2010 20:00:00 6.02 C 3.82 g/m*3 6.02 C 0 km/h
Sensor: Nr:Datum:Temp:Abs-Feuchte:Windchill:Wind:
Aussen-T/F 2326 22-10-2010 21:00:00 5.72 C 3.9 g/m*3 5.72 C 0 km/h
2327 22-10-2010 22:00:00 4.14 C 4.09 g/m*3 4.14 C 0 km/h
2328 22-10-2010 23:00:00 2.76 C 4.31 g/m*3 2.76 C 0 km/h
2329 23-10-2010 00:00:00 1.7 C 4.3 g/m*3 1.7 C 0 km/h
2330 23-10-2010 01:00:00 1.08 C 4.29 g/m*3 1.08 C 0 km/h
2331 23-10-2010 02:00:00 0.54 C 4.24 g/m*3 0.54 C 0 km/h
2332 23-10-2010 03:00:00 0.1 C 4.19 g/m*3 0.1 C 0 km/h
2333 23-10-2010 04:00:00 -0.34 C 4.14 g/m*3 -0.34 C 0 km/h
2334 23-10-2010 05:00:00 -0.82 C 4.03 g/m*3 -0.82 C 0 km/h
2335 23-10-2010 06:00:00 -1.04 C 4 g/m*3 -1.04 C 0 km/h
2336 23-10-2010 07:00:00 -0.86 C 4.09 g/m*3 -0.86 C 0 km/h
2337 23-10-2010 08:00:00 -0.78 C 4.18 g/m*3 -0.78 C 0 km/h
2338 23-10-2010 09:00:00 -0.82 C 4.14 g/m*3 -0.82 C 0 km/h
2339 23-10-2010 10:00:00 1.06 C 4.78 g/m*3 1.06 C 0 km/h
2340 23-10-2010 11:00:00 4.08 C 5.33 g/m*3 4.08 C 0 km/h
2341 23-10-2010 12:00:00 6.64 C 5.16 g/m*3 6.64 C 0 km/h
2342 23-10-2010 13:00:00 8.56 C 4.97 g/m*3 8.56 C 0 km/h
2343 23-10-2010 14:00:00 9.08 C 4.25 g/m*3 9.08 C 0 km/h
2344 23-10-2010 15:00:00 8.42 C 4.64 g/m*3 8.42 C 0 km/h
2345 23-10-2010 16:00:00 7.92 C 4.93 g/m*3 7.92 C 0 km/h
2346 23-10-2010 17:00:00 7.88 C 5.35 g/m*3 7.88 C 0 km/h
2347 23-10-2010 18:00:00 8.04 C 5.49 g/m*3 8.04 C 0 km/h
2348 23-10-2010 19:00:00 8.56 C 5.16 g/m*3 8.56 C 0 km/h
2349 23-10-2010 20:00:00 9.14 C 5.27 g/m*3 9.14 C 0 km/h
2350 23-10-2010 21:00:00 9.26 C 5.77 g/m*3 9.26 C 0 km/h
Sensor: Nr:Datum:Temp:Abs-Feuchte:Windchill:Wind:
Aussen-T/F 2351 23-10-2010 22:00:00 9.375 C 5.85 g/m*3 9.38 C 0 km/h
2352 23-10-2010 23:00:00 9.32 C 5.67 g/m*3 9.32 C 0 km/h
2353 24-10-2010 00:00:00 9.02 C 5.74 g/m*3 9.02 C 0 km/h
2354 24-10-2010 01:00:00 8.98 C 5.85 g/m*3 8.98 C 0 km/h
2355 24-10-2010 02:00:00 8.46 C 6.28 g/m*3 8.46 C 0 km/h
2356 24-10-2010 03:00:00 8.46 C 6.3 g/m*3 8.46 C 0 km/h
2357 24-10-2010 04:00:00 8.66 C 6.02 g/m*3 8.66 C 0 km/h
2358 24-10-2010 05:00:00 8.5 C 5.98 g/m*3 8.5 C 0 km/h
2359 24-10-2010 06:00:00 7.98 C 6.24 g/m*3 7.98 C 0 km/h
2360 24-10-2010 07:00:00 7.06 C 6.72 g/m*3 7.06 C 0 km/h
2361 24-10-2010 08:00:00 6.96 C 6.91 g/m*3 6.96 C 0 km/h
2362 24-10-2010 09:00:00 7.14 C 7.02 g/m*3 7.14 C 0 km/h
2363 24-10-2010 10:00:00 7 C 6.65 g/m*3 7 C 0 km/h
2364 24-10-2010 11:00:00 8.3 C 5.85 g/m*3 8.3 C 0 km/h
2365 24-10-2010 12:00:00 9.36 C 4.75 g/m*3 9.36 C 0 km/h
2366 24-10-2010 13:00:00 10.46 C 4.6 g/m*3 10.46 C 0 km/h
2367 24-10-2010 14:00:00 11.62 C 4.29 g/m*3 11.62 C 0 km/h
2368 24-10-2010 15:00:00 12.3 C 4.23 g/m*3 12.3 C 0 km/h
2369 24-10-2010 16:00:00 13.04 C 3.75 g/m*3 13.04 C 0 km/h
2370 24-10-2010 17:00:00 12.02 C 4.01 g/m*3 12.02 C 0 km/h
2371 24-10-2010 18:00:00 9.56 C 4.75 g/m*3 9.56 C 0 km/h
2372 24-10-2010 19:00:00 7.42 C 5.14 g/m*3 7.42 C 0 km/h
2373 24-10-2010 20:00:00 6.48 C 5.18 g/m*3 6.48 C 0 km/h
2374 24-10-2010 21:00:00 6.12 C 5.38 g/m*3 6.12 C 0 km/h
2375 24-10-2010 22:00:00 5.62 C 5.56 g/m*3 5.62 C 0 km/h
Sensor: Nr:Datum:Temp:Abs-Feuchte:Windchill:Wind:
Aussen-T/F 2376 24-10-2010 23:00:00 4.84 C 5.49 g/m*3 4.84 C 0 km/h
2377 25-10-2010 00:00:00 4.8 C 5.7 g/m*3 4.8 C 0 km/h
2378 25-10-2010 01:00:00 4.5 C 5.65 g/m*3 4.5 C 0 km/h
2379 25-10-2010 02:00:00 4.42 C 5.69 g/m*3 4.42 C 0 km/h
2380 25-10-2010 03:00:00 4.62 C 5.76 g/m*3 4.62 C 0 km/h
2381 25-10-2010 04:00:00 5.1 C 5.73 g/m*3 5.1 C 0 km/h
2382 25-10-2010 05:00:00 5.1 C 5.62 g/m*3 5.1 C 0 km/h
2383 25-10-2010 06:00:00 5.04 C 5.55 g/m*3 5.04 C 0 km/h
2384 25-10-2010 07:00:00 4.86 C 5.51 g/m*3 4.86 C 0 km/h
2385 25-10-2010 08:00:00 4.9 C 5.52 g/m*3 4.9 C 0 km/h
2386 25-10-2010 09:00:00 5.06 C 5.47 g/m*3 5.06 C 0 km/h
2387 25-10-2010 10:00:00 5.8 C 5.5 g/m*3 5.8 C 0 km/h
2388 25-10-2010 11:00:00 6.54 C 5.44 g/m*3 6.54 C 0 km/h
2389 25-10-2010 12:00:00 7.84 C 5.3 g/m*3 7.84 C 0 km/h
2390 25-10-2010 13:00:00 8.74 C 5.12 g/m*3 8.74 C 0 km/h
2391 25-10-2010 14:00:00 10.1 C 4.63 g/m*3 10.1 C 0 km/h
2392 25-10-2010 15:00:00 10.4 C 3.91 g/m*3 10.4 C 0 km/h
2393 25-10-2010 16:00:00 10.72 C 3.91 g/m*3 10.72 C 0 km/h
2394 25-10-2010 17:00:00 10.68 C 4.06 g/m*3 10.68 C 0 km/h
2395 25-10-2010 18:00:00 8.36 C 4.25 g/m*3 8.36 C 0 km/h
2396 25-10-2010 19:00:00 6.22 C 4.68 g/m*3 6.22 C 0 km/h
2397 25-10-2010 20:00:00 4.66 C 4.77 g/m*3 4.66 C 0 km/h
2398 25-10-2010 21:00:00 3.92 C 4.92 g/m*3 3.92 C 0 km/h
2399 25-10-2010 22:00:00 3 C 4.83 g/m*3 3 C 0 km/h
2400 25-10-2010 23:00:00 2.28 C 4.79 g/m*3 2.28 C 0 km/h
Sensor: Nr:Datum:Temp:Abs-Feuchte:Windchill:Wind:
Aussen-T/F 2401 26-10-2010 00:00:00 1.88 C 4.78 g/m*3 1.88 C 0 km/h
2402 26-10-2010 01:00:00 1.48 C 4.76 g/m*3 1.48 C 0 km/h
2403 26-10-2010 02:00:00 0.82 C 4.64 g/m*3 0.82 C 0 km/h
2404 26-10-2010 03:00:00 0.3 C 4.5 g/m*3 0.3 C 0 km/h
2405 26-10-2010 04:00:00 0.12 C 4.51 g/m*3 0.12 C 0 km/h
2406 26-10-2010 05:00:00 0.08 C 4.56 g/m*3 0.08 C 0 km/h
2407 26-10-2010 06:00:00 0.14 C 4.6 g/m*3 0.14 C 0 km/h
2408 26-10-2010 07:00:00 -0.32 C 4.45 g/m*3 -0.32 C 0 km/h
2409 26-10-2010 08:00:00 -0.42 C 4.42 g/m*3 -0.42 C 0 km/h
2410 26-10-2010 09:00:00 -0.36 C 4.44 g/m*3 -0.36 C 0 km/h
2411 26-10-2010 10:00:00 0.1 C 4.58 g/m*3 0.1 C 0 km/h
2412 26-10-2010 11:00:00 1.22 C 4.82 g/m*3 1.22 C 0 km/h
2413 26-10-2010 12:00:00 3.16 C 5.19 g/m*3 3.16 C 0 km/h
2414 26-10-2010 13:00:00 5.54 C 5.61 g/m*3 5.54 C 0 km/h
2415 26-10-2010 14:00:00 8.88 C 5.51 g/m*3 8.88 C 0 km/h
2416 26-10-2010 15:00:00 9.72 C 5.28 g/m*3 9.72 C 0 km/h
2417 26-10-2010 16:00:00 9.24 C 5.41 g/m*3 9.24 C 0 km/h
2418 26-10-2010 17:00:00 8.04 C 5.69 g/m*3 8.04 C 0 km/h
2419 26-10-2010 18:00:00 7.08 C 5.64 g/m*3 7.08 C 0 km/h
2420 26-10-2010 19:00:00 6.58 C 5.68 g/m*3 6.58 C 0 km/h
2421 26-10-2010 20:00:00 6.34 C 5.66 g/m*3 6.34 C 0 km/h
2422 26-10-2010 21:00:00 6.06 C 5.58 g/m*3 6.06 C 0 km/h
2423 26-10-2010 22:00:00 5.7 C 5.71 g/m*3 5.7 C 0 km/h
2424 26-10-2010 23:00:00 5.6 C 5.73 g/m*3 5.6 C 0 km/h
2425 27-10-2010 00:00:00 5.16 C 5.6 g/m*3 5.16 C 0 km/h
Sensor: Nr:Datum:Temp:Abs-Feuchte:Windchill:Wind:
Aussen-T/F 2426 27-10-2010 01:00:00 5.36 C 5.14 g/m*3 5.36 C 0 km/h
2427 27-10-2010 02:00:00 5.54 C 5.11 g/m*3 5.54 C 0 km/h
2428 27-10-2010 03:00:00 5.48 C 5.26 g/m*3 5.48 C 0 km/h
2429 27-10-2010 04:00:00 5.42 C 5.24 g/m*3 5.42 C 0 km/h
2430 27-10-2010 05:00:00 5.64 C 5.16 g/m*3 5.64 C 0 km/h
2431 27-10-2010 06:00:00 5.68 C 5.22 g/m*3 5.68 C 0 km/h
2432 27-10-2010 07:00:00 5.76 C 5.16 g/m*3 5.76 C 0 km/h
2433 27-10-2010 08:00:00 5.68 C 5.09 g/m*3 5.68 C 0 km/h
2434 27-10-2010 09:00:00 5.84 C 5.65 g/m*3 5.84 C 0 km/h
2435 27-10-2010 10:00:00 7 C 5.8 g/m*3 7 C 0 km/h
2436 27-10-2010 11:00:00 8.22 C 5.45 g/m*3 8.22 C 0 km/h
2437 27-10-2010 12:00:00 9.62 C 4.46 g/m*3 9.62 C 0 km/h
2438 27-10-2010 13:00:00 10.92 C 3.84 g/m*3 10.92 C 0 km/h
2439 27-10-2010 14:00:00 11.06 C 3.64 g/m*3 11.06 C 0 km/h
2440 27-10-2010 15:00:00 11.56 C 3.55 g/m*3 11.56 C 0 km/h
2441 27-10-2010 16:00:00 11.98 C 3.43 g/m*3 11.98 C 0 km/h
2442 27-10-2010 17:00:00 11.6 C 3.55 g/m*3 11.6 C 0 km/h
2443 27-10-2010 18:00:00 10.44 C 4.27 g/m*3 10.44 C 0 km/h
2444 27-10-2010 19:00:00 10.04 C 4.41 g/m*3 10.04 C 0 km/h
2445 27-10-2010 20:00:00 9.8 C 4.42 g/m*3 9.8 C 0 km/h
2446 27-10-2010 21:00:00 9.56 C 4.71 g/m*3 9.56 C 0 km/h
2447 27-10-2010 22:00:00 9.2 C 4.89 g/m*3 9.2 C 0 km/h
2448 27-10-2010 23:00:00 9.02 C 4.86 g/m*3 9.02 C 0 km/h
2449 28-10-2010 00:00:00 8.66 C 4.87 g/m*3 8.66 C 0 km/h
2450 28-10-2010 01:00:00 8.46 C 4.91 g/m*3 8.46 C 0 km/h
Sensor: Nr:Datum:Temp:Abs-Feuchte:Windchill:Wind:
Aussen-T/F 2451 28-10-2010 02:00:00 8.06 C 5.05 g/m*3 8.06 C 0 km/h
2452 28-10-2010 03:00:00 7.62 C 4.86 g/m*3 7.62 C 0 km/h
2453 28-10-2010 04:00:00 7.66 C 5.06 g/m*3 7.66 C 0 km/h
2454 28-10-2010 05:00:00 7.52 C 5.05 g/m*3 7.52 C 0 km/h
2455 28-10-2010 06:00:00 7.98 C 4.41 g/m*3 7.98 C 0 km/h
2456 28-10-2010 07:00:00 8.48 C 4.31 g/m*3 8.48 C 0 km/h
2457 28-10-2010 08:00:00 8.7 C 4.67 g/m*3 8.7 C 0 km/h
2458 28-10-2010 09:00:00 8.86 C 4.91 g/m*3 8.86 C 0 km/h
2459 28-10-2010 10:00:00 7.9 C 6.09 g/m*3 7.9 C 0 km/h
2460 28-10-2010 11:00:00 9.7 C 5.97 g/m*3 9.7 C 0 km/h
2461 28-10-2010 12:00:00 10.72 C 5.78 g/m*3 10.72 C 0 km/h
2462 28-10-2010 13:00:00 11.34 C 5.69 g/m*3 11.34 C 0 km/h
2463 28-10-2010 14:00:00 12.3 C 5.67 g/m*3 12.3 C 0 km/h
2464 28-10-2010 15:00:00 12.72 C 5.66 g/m*3 12.72 C 0 km/h
2465 28-10-2010 16:00:00 11.62 C 6.12 g/m*3 11.62 C 0 km/h
2466 28-10-2010 17:00:00 11.08 C 6.14 g/m*3 11.08 C 0 km/h
2467 28-10-2010 18:00:00 9.86 C 6.13 g/m*3 9.86 C 0 km/h
2468 28-10-2010 19:00:00 9.18 C 6.22 g/m*3 9.18 C 0 km/h
2469 28-10-2010 20:00:00 9 C 6.24 g/m*3 9 C 0 km/h
2470 28-10-2010 21:00:00 8.38 C 6.3 g/m*3 8.38 C 0 km/h
2471 28-10-2010 22:00:00 7.56 C 6.36 g/m*3 7.56 C 0 km/h
2472 28-10-2010 23:00:00 6.78 C 6.32 g/m*3 6.78 C 0 km/h
2473 29-10-2010 00:00:00 6.26 C 6.26 g/m*3 6.26 C 0 km/h
2474 29-10-2010 01:00:00 6.28 C 6.4 g/m*3 6.28 C 0 km/h
2475 29-10-2010 02:00:00 6.46 C 6.57 g/m*3 6.46 C 0 km/h
Sensor: Nr:Datum:Temp:Abs-Feuchte:Windchill:Wind:
Aussen-T/F 2476 29-10-2010 03:00:00 7.23333 C 6.82 g/m*3 7.23 C 0 km/h
2477 02-11-2010 08:00:00 8.77778 C 6.98 g/m*3 8.78 C 0 km/h
2478 02-11-2010 09:00:00 9.9 C 6.85 g/m*3 9.9 C 0 km/h
2479 02-11-2010 10:00:00 11.04 C 6.74 g/m*3 11.04 C 0 km/h
2480 02-11-2010 11:00:00 11.88 C 6.43 g/m*3 11.88 C 0 km/h
2481 02-11-2010 12:00:00 12.52 C 6.49 g/m*3 12.52 C 0 km/h
2482 02-11-2010 13:00:00 12.72 C 6.33 g/m*3 12.72 C 0 km/h
2483 02-11-2010 14:00:00 12.8 C 6.36 g/m*3 12.8 C 0 km/h
2484 02-11-2010 15:00:00 12.92 C 6.39 g/m*3 12.92 C 0 km/h
2485 02-11-2010 16:00:00 12.34 C 6.44 g/m*3 12.34 C 0 km/h
2486 02-11-2010 17:00:00 11.34 C 6.61 g/m*3 11.34 C 0 km/h
2487 02-11-2010 18:00:00 11.22 C 6.66 g/m*3 11.22 C 0 km/h
2488 02-11-2010 19:00:00 11.46 C 6.66 g/m*3 11.46 C 0 km/h
2489 02-11-2010 20:00:00 11 C 7.01 g/m*3 11 C 0 km/h
2490 02-11-2010 21:00:00 10.94 C 7.18 g/m*3 10.94 C 0 km/h
2491 02-11-2010 22:00:00 11.08 C 7.42 g/m*3 11.08 C 0 km/h
2492 02-11-2010 23:00:00 11.14 C 7.57 g/m*3 11.14 C 0 km/h
2493 03-11-2010 00:00:00 11.32 C 7.66 g/m*3 11.32 C 0 km/h
2494 03-11-2010 01:00:00 10.88 C 7.49 g/m*3 10.88 C 0 km/h
2495 03-11-2010 02:00:00 11.68 C 7.56 g/m*3 11.68 C 0 km/h
2496 03-11-2010 03:00:00 12.06 C 7.34 g/m*3 12.06 C 0 km/h
2497 03-11-2010 04:00:00 12.44 C 7.47 g/m*3 12.44 C 0 km/h
2498 03-11-2010 05:00:00 12.72 C 7.49 g/m*3 12.72 C 0 km/h
2499 03-11-2010 06:00:00 12.66 C 7.62 g/m*3 12.66 C 0 km/h
2500 03-11-2010 07:00:00 12.76 C 7.66 g/m*3 12.76 C 0 km/h
Sensor: Nr:Datum:Temp:Abs-Feuchte:Windchill:Wind:
Aussen-T/F 2501 03-11-2010 08:00:00 13.28 C 7.57 g/m*3 13.28 C 0 km/h
2502 03-11-2010 09:00:00 13.78 C 7.64 g/m*3 13.78 C 0 km/h
2503 03-11-2010 10:00:00 14.2 C 7.55 g/m*3 14.2 C 0 km/h
2504 03-11-2010 11:00:00 14.42 C 7.65 g/m*3 14.42 C 0 km/h
2505 03-11-2010 12:00:00 13.94 C 7.74 g/m*3 13.94 C 0 km/h
2506 03-11-2010 13:00:00 13.54 C 7.83 g/m*3 13.54 C 0 km/h
2507 03-11-2010 14:00:00 13.66 C 7.94 g/m*3 13.66 C 0 km/h
2508 03-11-2010 15:00:00 13.78 C 8.07 g/m*3 13.78 C 0 km/h
2509 03-11-2010 16:00:00 13.46 C 8.1 g/m*3 13.46 C 0 km/h
2510 03-11-2010 17:00:00 13.06 C 8.2 g/m*3 13.06 C 0 km/h
2511 03-11-2010 18:00:00 12.66 C 8.31 g/m*3 12.66 C 0 km/h
2512 03-11-2010 19:00:00 12.96 C 8.26 g/m*3 12.96 C 0 km/h
2513 03-11-2010 20:00:00 13.38 C 8.2 g/m*3 13.38 C 0 km/h
2514 03-11-2010 21:00:00 13.54 C 8.16 g/m*3 13.54 C 0 km/h
2515 03-11-2010 22:00:00 14.1 C 8.16 g/m*3 14.1 C 0 km/h
2516 03-11-2010 23:00:00 14.2 C 8.4 g/m*3 14.2 C 0 km/h
2517 04-11-2010 00:00:00 14.3 C 8.77 g/m*3 14.3 C 0 km/h
2518 04-11-2010 01:00:00 14.74 C 9.06 g/m*3 14.74 C 0 km/h
2519 04-11-2010 02:00:00 14.96 C 9.06 g/m*3 14.96 C 0 km/h
2520 04-11-2010 03:00:00 15.16 C 9.12 g/m*3 15.16 C 0 km/h
2521 04-11-2010 04:00:00 15.22 C 9.3 g/m*3 15.22 C 0 km/h
2522 04-11-2010 05:00:00 15.54 C 9.41 g/m*3 15.54 C 0 km/h
2523 04-11-2010 06:00:00 15.7 C 9.61 g/m*3 15.7 C 0 km/h
2524 04-11-2010 07:00:00 15.92 C 9.52 g/m*3 15.92 C 0 km/h
2525 04-11-2010 08:00:00 16.2 C 9.43 g/m*3 16.2 C 0 km/h
Sensor: Nr:Datum:Temp:Abs-Feuchte:Windchill:Wind:
Aussen-T/F 2526 04-11-2010 09:00:00 16.64 C 9.06 g/m*3 16.64 C 0 km/h
2527 04-11-2010 10:00:00 17.24 C 8.84 g/m*3 17.24 C 0 km/h
2528 04-11-2010 11:00:00 17.82 C 8.45 g/m*3 17.82 C 0 km/h
2529 04-11-2010 12:00:00 18.44 C 8.17 g/m*3 18.44 C 0 km/h
2530 04-11-2010 13:00:00 18.54 C 8.18 g/m*3 18.54 C 0 km/h
2531 04-11-2010 14:00:00 18.44 C 8.01 g/m*3 18.44 C 0 km/h
2532 04-11-2010 15:00:00 18.24 C 8.13 g/m*3 18.24 C 0 km/h
2533 04-11-2010 16:00:00 17.52 C 8.42 g/m*3 17.52 C 0 km/h
2534 04-11-2010 17:00:00 16.92 C 8.44 g/m*3 16.92 C 0 km/h
2535 04-11-2010 18:00:00 16.78 C 8.43 g/m*3 16.78 C 0 km/h
2536 04-11-2010 19:00:00 16.92 C 8.47 g/m*3 16.92 C 0 km/h
2537 04-11-2010 20:00:00 16.12 C 8.12 g/m*3 16.12 C 0 km/h
2538 04-11-2010 21:00:00 15.74 C 8.05 g/m*3 15.74 C 0 km/h
2539 04-11-2010 22:00:00 15.38 C 7.87 g/m*3 15.38 C 0 km/h
2540 04-11-2010 23:00:00 15.4 C 7.88 g/m*3 15.4 C 0 km/h
2541 05-11-2010 00:00:00 15.34 C 7.88 g/m*3 15.34 C 0 km/h
2542 05-11-2010 01:00:00 15.14 C 7.53 g/m*3 15.14 C 0 km/h
2543 05-11-2010 02:00:00 14.74 C 7.45 g/m*3 14.74 C 0 km/h
2544 05-11-2010 03:00:00 14.46 C 7.37 g/m*3 14.46 C 0 km/h
2545 05-11-2010 04:00:00 14.2 C 7.38 g/m*3 14.2 C 0 km/h
2546 05-11-2010 05:00:00 14.14 C 7.18 g/m*3 14.14 C 0 km/h
2547 05-11-2010 06:00:00 13.82 C 7.13 g/m*3 13.82 C 0 km/h
2548 05-11-2010 07:00:00 13.46 C 6.95 g/m*3 13.46 C 0 km/h
2549 05-11-2010 08:00:00 13.88 C 6.61 g/m*3 13.88 C 0 km/h
2550 05-11-2010 09:00:00 14.52 C 6.72 g/m*3 14.52 C 0 km/h
Sensor: Nr:Datum:Temp:Abs-Feuchte:Windchill:Wind:
Aussen-T/F 2551 05-11-2010 10:00:00 14.9 C 6.88 g/m*3 14.9 C 0 km/h
2552 05-11-2010 11:00:00 15.22 C 6.99 g/m*3 15.22 C 0 km/h
2553 05-11-2010 12:00:00 15.14 C 7.09 g/m*3 15.14 C 0 km/h
2554 05-11-2010 13:00:00 15.1 C 7.1 g/m*3 15.1 C 0 km/h
2555 05-11-2010 14:00:00 14.8 C 7.4 g/m*3 14.8 C 0 km/h
2556 05-11-2010 15:00:00 14.6 C 7.48 g/m*3 14.6 C 0 km/h
2557 05-11-2010 16:00:00 14.56 C 7.49 g/m*3 14.56 C 0 km/h
2558 05-11-2010 17:00:00 14.64 C 7.55 g/m*3 14.64 C 0 km/h
2559 05-11-2010 18:00:00 14.76 C 7.58 g/m*3 14.76 C 0 km/h
2560 05-11-2010 19:00:00 14.36 C 7.57 g/m*3 14.36 C 0 km/h
2561 05-11-2010 20:00:00 14.44 C 7.58 g/m*3 14.44 C 0 km/h
2562 05-11-2010 21:00:00 14.28 C 7.61 g/m*3 14.28 C 0 km/h
2563 05-11-2010 22:00:00 14.02 C 7.58 g/m*3 14.02 C 0 km/h
2564 05-11-2010 23:00:00 13.94 C 7.57 g/m*3 13.94 C 0 km/h
2565 06-11-2010 00:00:00 14.04 C 7.57 g/m*3 14.04 C 0 km/h
2566 06-11-2010 01:00:00 14.02 C 7.61 g/m*3 14.02 C 0 km/h
2567 06-11-2010 02:00:00 13.38 C 7.69 g/m*3 13.38 C 0 km/h
2568 06-11-2010 03:00:00 12.9 C 7.98 g/m*3 12.9 C 0 km/h
2569 06-11-2010 04:00:00 12.78 C 8.12 g/m*3 12.78 C 0 km/h
2570 06-11-2010 05:00:00 13.12 C 8 g/m*3 13.12 C 0 km/h
2571 06-11-2010 06:00:00 13.46 C 7.86 g/m*3 13.46 C 0 km/h
2572 06-11-2010 07:00:00 13.48 C 7.57 g/m*3 13.48 C 0 km/h
2573 06-11-2010 08:00:00 13.34 C 7.5 g/m*3 13.34 C 0 km/h
2574 06-11-2010 09:00:00 11.92 C 7.55 g/m*3 11.92 C 0 km/h
2575 06-11-2010 10:00:00 10.18 C 7.93 g/m*3 10.18 C 0 km/h
Sensor: Nr:Datum:Temp:Abs-Feuchte:Windchill:Wind:
Aussen-T/F 2576 06-11-2010 11:00:00 10.58 C 8.19 g/m*3 10.58 C 0 km/h
2577 06-11-2010 12:00:00 9.78 C 7.67 g/m*3 9.78 C 0 km/h
2578 06-11-2010 13:00:00 9.08 C 7.46 g/m*3 9.08 C 0 km/h
2579 06-11-2010 14:00:00 8.92 C 7.67 g/m*3 8.92 C 0 km/h
2580 06-11-2010 15:00:00 8.64 C 7.67 g/m*3 8.64 C 0 km/h
2581 06-11-2010 16:00:00 8.2 C 7.54 g/m*3 8.2 C 0 km/h
2582 06-11-2010 17:00:00 7.84 C 7.49 g/m*3 7.84 C 0 km/h
2583 06-11-2010 18:00:00 7.44 C 7.34 g/m*3 7.44 C 0 km/h
2584 06-11-2010 19:00:00 7.42 C 7.41 g/m*3 7.42 C 0 km/h
2585 06-11-2010 20:00:00 7.2 C 7.3 g/m*3 7.2 C 0 km/h
2586 06-11-2010 21:00:00 7.26 C 7.33 g/m*3 7.26 C 0 km/h
2587 06-11-2010 22:00:00 7.48 C 7.43 g/m*3 7.48 C 0 km/h
2588 06-11-2010 23:00:00 7.36 C 7.38 g/m*3 7.36 C 0 km/h
2589 07-11-2010 00:00:00 7.22 C 7.31 g/m*3 7.22 C 0 km/h
2590 07-11-2010 01:00:00 7.18 C 7.29 g/m*3 7.18 C 0 km/h
2591 07-11-2010 02:00:00 6.98 C 7.24 g/m*3 6.98 C 0 km/h
2592 07-11-2010 03:00:00 7.3 C 7.4 g/m*3 7.3 C 0 km/h
2593 07-11-2010 04:00:00 7.18 C 7.34 g/m*3 7.18 C 0 km/h
2594 07-11-2010 05:00:00 6.8 C 7.19 g/m*3 6.8 C 0 km/h
2595 07-11-2010 06:00:00 6.48 C 7.04 g/m*3 6.48 C 0 km/h
2596 07-11-2010 07:00:00 6.7 C 7.14 g/m*3 6.7 C 0 km/h
2597 07-11-2010 08:00:00 7.16 C 7.28 g/m*3 7.16 C 0 km/h
2598 07-11-2010 09:00:00 7.46 C 7.47 g/m*3 7.46 C 0 km/h
2599 07-11-2010 10:00:00 7.82 C 7.68 g/m*3 7.82 C 0 km/h
2600 07-11-2010 11:00:00 8.06 C 7.67 g/m*3 8.06 C 0 km/h
Sensor: Nr:Datum:Temp:Abs-Feuchte:Windchill:Wind:
Aussen-T/F 2601 07-11-2010 12:00:00 8.74 C 7.87 g/m*3 8.74 C 0 km/h
2602 07-11-2010 13:00:00 8.48 C 7.5 g/m*3 8.48 C 0 km/h
2603 07-11-2010 14:00:00 8.22 C 7.43 g/m*3 8.22 C 0 km/h
2604 07-11-2010 15:00:00 7.5 C 7.17 g/m*3 7.5 C 0 km/h
2605 07-11-2010 16:00:00 6.82 C 6.97 g/m*3 6.82 C 0 km/h
2606 07-11-2010 17:00:00 6.76 C 7.02 g/m*3 6.76 C 0 km/h
2607 07-11-2010 18:00:00 6.58 C 6.94 g/m*3 6.58 C 0 km/h
2608 07-11-2010 19:00:00 5.72 C 6.61 g/m*3 5.72 C 0 km/h
2609 07-11-2010 20:00:00 5.18 C 6.4 g/m*3 5.18 C 0 km/h
2610 07-11-2010 21:00:00 4.98 C 6.32 g/m*3 4.98 C 0 km/h
2611 07-11-2010 22:00:00 4.9 C 6.32 g/m*3 4.9 C 0 km/h
2612 07-11-2010 23:00:00 4.64 C 6.22 g/m*3 4.64 C 0 km/h
2613 08-11-2010 00:00:00 4.04 C 5.95 g/m*3 4.04 C 0 km/h
2614 08-11-2010 01:00:00 4.12 C 5.97 g/m*3 4.12 C 0 km/h
2615 08-11-2010 02:00:00 4.04 C 5.97 g/m*3 4.04 C 0 km/h
2616 08-11-2010 03:00:00 4.46 C 6.16 g/m*3 4.46 C 0 km/h
2617 08-11-2010 04:00:00 4.4 C 6.14 g/m*3 4.4 C 0 km/h
2618 08-11-2010 05:00:00 4.6 C 6.22 g/m*3 4.6 C 0 km/h
2619 08-11-2010 06:00:00 4.86 C 6.33 g/m*3 4.86 C 0 km/h
2620 08-11-2010 07:00:00 4.74 C 6.26 g/m*3 4.74 C 0 km/h
2621 08-11-2010 08:00:00 4.96 C 6.34 g/m*3 4.96 C 0 km/h
2622 08-11-2010 09:00:00 5.84 C 6.58 g/m*3 5.84 C 0 km/h
2623 08-11-2010 10:00:00 7.08 C 6.5 g/m*3 7.08 C 0 km/h
2624 08-11-2010 11:00:00 7.26 C 5.75 g/m*3 7.26 C 0 km/h
2625 08-11-2010 12:00:00 6.78 C 5.3 g/m*3 6.78 C 0 km/h
Sensor: Nr:Datum:Temp:Abs-Feuchte:Windchill:Wind:
Aussen-T/F 2626 08-11-2010 13:00:00 7.24 C 5.15 g/m*3 7.24 C 0 km/h
2627 08-11-2010 14:00:00 6.88 C 4.74 g/m*3 6.88 C 0 km/h
2628 08-11-2010 15:00:00 5.6 C 4.67 g/m*3 5.6 C 0 km/h
2629 08-11-2010 16:00:00 2.98 C 4.87 g/m*3 2.98 C 0 km/h
2630 08-11-2010 17:00:00 2.08 C 4.85 g/m*3 2.08 C 0 km/h
2631 08-11-2010 18:00:00 1.46 C 4.79 g/m*3 1.46 C 0 km/h
2632 08-11-2010 19:00:00 2.26 C 5.11 g/m*3 2.26 C 0 km/h
2633 08-11-2010 20:00:00 3.5 C 5.42 g/m*3 3.5 C 0 km/h
2634 08-11-2010 21:00:00 3.9 C 5.56 g/m*3 3.9 C 0 km/h
2635 08-11-2010 22:00:00 4.22 C 5.72 g/m*3 4.22 C 0 km/h
2636 08-11-2010 23:00:00 4.44 C 5.62 g/m*3 4.44 C 0 km/h
2637 09-11-2010 00:00:00 4.24 C 5.65 g/m*3 4.24 C 0 km/h
2638 09-11-2010 01:00:00 4.2 C 5.73 g/m*3 4.2 C 0 km/h
2639 09-11-2010 02:00:00 4.2 C 5.79 g/m*3 4.2 C 0 km/h
2640 09-11-2010 03:00:00 4.46 C 5.97 g/m*3 4.46 C 0 km/h
2641 09-11-2010 04:00:00 4.44 C 5.96 g/m*3 4.44 C 0 km/h
2642 09-11-2010 05:00:00 4.74 C 6.08 g/m*3 4.74 C 0 km/h
2643 09-11-2010 06:00:00 5.1 C 6.16 g/m*3 5.1 C 0 km/h
2644 09-11-2010 07:00:00 5.58 C 6.24 g/m*3 5.58 C 0 km/h
2645 09-11-2010 08:00:00 6.42 C 6.09 g/m*3 6.42 C 0 km/h
2646 09-11-2010 09:00:00 6.9 C 6.1 g/m*3 6.9 C 0 km/h
2647 09-11-2010 10:00:00 7.9 C 6.26 g/m*3 7.9 C 0 km/h
2648 09-11-2010 11:00:00 9.16 C 6.29 g/m*3 9.16 C 0 km/h
2649 09-11-2010 12:00:00 9.52 C 6.43 g/m*3 9.52 C 0 km/h
2650 09-11-2010 13:00:00 9.66 C 6.47 g/m*3 9.66 C 0 km/h
Sensor: Nr:Datum:Temp:Abs-Feuchte:Windchill:Wind:
Aussen-T/F 2651 09-11-2010 14:00:00 8.86 C 6.85 g/m*3 8.86 C 0 km/h
2652 09-11-2010 15:00:00 8.42 C 7.07 g/m*3 8.42 C 0 km/h
2653 09-11-2010 16:00:00 7.92 C 7.19 g/m*3 7.92 C 0 km/h
2654 09-11-2010 17:00:00 7.3 C 7.05 g/m*3 7.3 C 0 km/h
2655 09-11-2010 18:00:00 6.64 C 6.83 g/m*3 6.64 C 0 km/h
2656 09-11-2010 19:00:00 6.86 C 7.02 g/m*3 6.86 C 0 km/h
2657 09-11-2010 20:00:00 6.78 C 7.03 g/m*3 6.78 C 0 km/h
2658 09-11-2010 21:00:00 6.84 C 7.05 g/m*3 6.84 C 0 km/h
2659 09-11-2010 22:00:00 6.78 C 7.03 g/m*3 6.78 C 0 km/h
2660 09-11-2010 23:00:00 6.84 C 7.05 g/m*3 6.84 C 0 km/h
2661 10-11-2010 00:00:00 6.56 C 6.93 g/m*3 6.56 C 0 km/h
2662 10-11-2010 01:00:00 6.92 C 7.14 g/m*3 6.92 C 0 km/h
2663 10-11-2010 02:00:00 6.9 C 7.14 g/m*3 6.9 C 0 km/h
2664 10-11-2010 03:00:00 7.1 C 7.18 g/m*3 7.1 C 0 km/h
2665 10-11-2010 04:00:00 6.88 C 7.12 g/m*3 6.88 C 0 km/h
2666 10-11-2010 05:00:00 6.9 C 7.13 g/m*3 6.9 C 0 km/h
2667 10-11-2010 06:00:00 6.82 C 7.09 g/m*3 6.82 C 0 km/h
2668 10-11-2010 07:00:00 6.34 C 6.87 g/m*3 6.34 C 0 km/h
2669 10-11-2010 08:00:00 6.72 C 7.05 g/m*3 6.72 C 0 km/h
2670 10-11-2010 09:00:00 8.22 C 7.56 g/m*3 8.22 C 0 km/h
2671 10-11-2010 10:00:00 9.6 C 6.93 g/m*3 9.6 C 0 km/h
2672 10-11-2010 11:00:00 9.64 C 6.48 g/m*3 9.64 C 0 km/h
2673 10-11-2010 12:00:00 10.18 C 6.48 g/m*3 10.18 C 0 km/h
2674 10-11-2010 13:00:00 11.08 C 6.16 g/m*3 11.08 C 0 km/h
2675 10-11-2010 14:00:00 10.52 C 6.02 g/m*3 10.52 C 0 km/h
Sensor: Nr:Datum:Temp:Abs-Feuchte:Windchill:Wind:
Aussen-T/F 2676 10-11-2010 15:00:00 7.86 C 6.41 g/m*3 7.86 C 0 km/h
2677 10-11-2010 16:00:00 6.24 C 6.18 g/m*3 6.24 C 0 km/h
2678 10-11-2010 17:00:00 5.94 C 5.81 g/m*3 5.94 C 0 km/h
2679 10-11-2010 18:00:00 5.22 C 5.67 g/m*3 5.22 C 0 km/h
2680 10-11-2010 19:00:00 5.2 C 5.63 g/m*3 5.2 C 0 km/h
2681 10-11-2010 20:00:00 5.34 C 5.5 g/m*3 5.34 C 0 km/h
2682 10-11-2010 21:00:00 4.46 C 5.52 g/m*3 4.46 C 0 km/h
2683 10-11-2010 22:00:00 4.55 C 5.59 g/m*3 4.55 C 0 km/h
2684 10-11-2010 23:00:00 4.3 C 5.34 g/m*3 4.3 C 0 km/h
2685 11-11-2010 00:00:00 4.6 C 5.29 g/m*3 4.6 C 0 km/h
2686 11-11-2010 01:00:00 4.5 C 5.44 g/m*3 4.5 C 0 km/h
2687 11-11-2010 02:00:00 5.02 C 5.42 g/m*3 5.02 C 0 km/h
2688 11-11-2010 03:00:00 4.84 C 5.23 g/m*3 4.84 C 0 km/h
2689 11-11-2010 04:00:00 4.3 C 5.24 g/m*3 4.3 C 0 km/h
2690 11-11-2010 05:00:00 4.12 C 5.2 g/m*3 4.12 C 0 km/h
2691 11-11-2010 06:00:00 3.7 C 5.01 g/m*3 3.7 C 0 km/h
2692 11-11-2010 07:00:00 3.56 C 4.98 g/m*3 3.56 C 0 km/h
2693 11-11-2010 08:00:00 2.32 C 4.71 g/m*3 2.32 C 0 km/h
2694 11-11-2010 09:00:00 3.66 C 5.28 g/m*3 3.66 C 0 km/h
2695 11-11-2010 10:00:00 5.58 C 4.59 g/m*3 5.58 C 0 km/h
2696 11-11-2010 11:00:00 6.94 C 3.78 g/m*3 6.94 C 0 km/h
2697 11-11-2010 12:00:00 7.46 C 3.98 g/m*3 7.46 C 0 km/h
2698 11-11-2010 13:00:00 7.7 C 4.15 g/m*3 7.7 C 0 km/h
2699 11-11-2010 14:00:00 7.36 C 4.24 g/m*3 7.36 C 0 km/h
2700 11-11-2010 15:00:00 6.8 C 4.45 g/m*3 6.8 C 0 km/h
Sensor: Nr:Datum:Temp:Abs-Feuchte:Windchill:Wind:
Aussen-T/F 2701 11-11-2010 16:00:00 5.54 C 5.08 g/m*3 5.54 C 0 km/h
2702 11-11-2010 17:00:00 5.28 C 5.48 g/m*3 5.28 C 0 km/h
2703 11-11-2010 18:00:00 5.64 C 5.87 g/m*3 5.64 C 0 km/h
2704 11-11-2010 19:00:00 6.22 C 6.27 g/m*3 6.22 C 0 km/h
2705 11-11-2010 20:00:00 7.5 C 6.34 g/m*3 7.5 C 0 km/h
2706 11-11-2010 21:00:00 8.44 C 6.57 g/m*3 8.44 C 0 km/h
2707 11-11-2010 22:00:00 9.34 C 7.23 g/m*3 9.34 C 0 km/h
2708 11-11-2010 23:00:00 9.78 C 7.69 g/m*3 9.78 C 0 km/h
2709 12-11-2010 00:00:00 9.74 C 6.82 g/m*3 9.74 C 0 km/h
2710 12-11-2010 01:00:00 9.84 C 5.93 g/m*3 9.84 C 0 km/h
2711 12-11-2010 02:00:00 9.88 C 5.63 g/m*3 9.88 C 0 km/h
2712 12-11-2010 03:00:00 9.6 C 5.81 g/m*3 9.6 C 0 km/h
2713 12-11-2010 04:00:00 9.8 C 5.6 g/m*3 9.8 C 0 km/h
2714 12-11-2010 05:00:00 9.94 C 5.77 g/m*3 9.94 C 0 km/h
2715 12-11-2010 06:00:00 10.62 C 5.77 g/m*3 10.62 C 0 km/h
2716 12-11-2010 07:00:00 10.62 C 5.8 g/m*3 10.62 C 0 km/h
2717 12-11-2010 08:00:00 10.7 C 5.81 g/m*3 10.7 C 0 km/h
2718 12-11-2010 09:00:00 10.84 C 5.85 g/m*3 10.84 C 0 km/h
2719 12-11-2010 10:00:00 10.7 C 6.11 g/m*3 10.7 C 0 km/h
2720 12-11-2010 11:00:00 11.42 C 6.08 g/m*3 11.42 C 0 km/h
2721 12-11-2010 12:00:00 11.88 C 5.99 g/m*3 11.88 C 0 km/h
2722 12-11-2010 13:00:00 11.64 C 6.29 g/m*3 11.64 C 0 km/h
2723 12-11-2010 14:00:00 11.6 C 6.55 g/m*3 11.6 C 0 km/h
2724 12-11-2010 15:00:00 11.6 C 6.57 g/m*3 11.6 C 0 km/h
2725 12-11-2010 16:00:00 11.54 C 6.73 g/m*3 11.54 C 0 km/h
Sensor: Nr:Datum:Temp:Abs-Feuchte:Windchill:Wind:
Aussen-T/F 2726 12-11-2010 17:00:00 11.16 C 7.2 g/m*3 11.16 C 0 km/h
2727 12-11-2010 18:00:00 10.48 C 7.73 g/m*3 10.48 C 0 km/h
2728 12-11-2010 19:00:00 10.52 C 8.29 g/m*3 10.52 C 0 km/h
2729 12-11-2010 20:00:00 11.52 C 8.77 g/m*3 11.52 C 0 km/h
2730 12-11-2010 21:00:00 12.16 C 9.28 g/m*3 12.16 C 0 km/h
2731 12-11-2010 22:00:00 13.3 C 9.22 g/m*3 13.3 C 0 km/h
2732 12-11-2010 23:00:00 13.88 C 8.69 g/m*3 13.88 C 0 km/h
2733 13-11-2010 00:00:00 13.82 C 8.85 g/m*3 13.82 C 0 km/h
2734 13-11-2010 01:00:00 13.86 C 9.06 g/m*3 13.86 C 0 km/h
2735 13-11-2010 02:00:00 13.78 C 9.28 g/m*3 13.78 C 0 km/h
2736 13-11-2010 03:00:00 14.2 C 9.33 g/m*3 14.2 C 0 km/h
2737 13-11-2010 04:00:00 14.14 C 9.25 g/m*3 14.14 C 0 km/h
2738 13-11-2010 05:00:00 14.5 C 9.1 g/m*3 14.5 C 0 km/h
2739 13-11-2010 06:00:00 14.62 C 9.05 g/m*3 14.62 C 0 km/h
2740 13-11-2010 07:00:00 14.72 C 9 g/m*3 14.72 C 0 km/h
2741 13-11-2010 08:00:00 14.72 C 9 g/m*3 14.72 C 0 km/h
2742 13-11-2010 09:00:00 14.18 C 9.15 g/m*3 14.18 C 0 km/h
2743 13-11-2010 10:00:00 14.32 C 9.23 g/m*3 14.32 C 0 km/h
2744 13-11-2010 11:00:00 14.76 C 9 g/m*3 14.76 C 0 km/h
2745 13-11-2010 12:00:00 14.8 C 8.84 g/m*3 14.8 C 0 km/h
2746 13-11-2010 13:00:00 14.76 C 8.85 g/m*3 14.76 C 0 km/h
2747 13-11-2010 14:00:00 14.78 C 8.68 g/m*3 14.78 C 0 km/h
2748 13-11-2010 15:00:00 14.82 C 8.55 g/m*3 14.82 C 0 km/h
2749 13-11-2010 16:00:00 14.68 C 8.68 g/m*3 14.68 C 0 km/h
2750 13-11-2010 17:00:00 14.26 C 8.75 g/m*3 14.26 C 0 km/h
Sensor: Nr:Datum:Temp:Abs-Feuchte:Windchill:Wind:
Aussen-T/F 2751 13-11-2010 18:00:00 14.68 C 8.7 g/m*3 14.68 C 0 km/h
2752 13-11-2010 19:00:00 14.94 C 8.51 g/m*3 14.94 C 0 km/h
2753 13-11-2010 20:00:00 15 C 8.28 g/m*3 15 C 0 km/h
2754 13-11-2010 21:00:00 14.52 C 8.39 g/m*3 14.52 C 0 km/h
2755 13-11-2010 22:00:00 14.86 C 8.11 g/m*3 14.86 C 0 km/h
2756 13-11-2010 23:00:00 14.74 C 8.05 g/m*3 14.74 C 0 km/h
2757 14-11-2010 00:00:00 15.08 C 8.07 g/m*3 15.08 C 0 km/h
2758 14-11-2010 01:00:00 14.24 C 8.27 g/m*3 14.24 C 0 km/h
2759 14-11-2010 02:00:00 13.58 C 8.7 g/m*3 13.58 C 0 km/h
2760 14-11-2010 03:00:00 14.36 C 8.39 g/m*3 14.36 C 0 km/h
2761 14-11-2010 04:00:00 14.02 C 8.38 g/m*3 14.02 C 0 km/h
2762 14-11-2010 05:00:00 13.9 C 8.46 g/m*3 13.9 C 0 km/h
2763 14-11-2010 06:00:00 13.42 C 8.36 g/m*3 13.42 C 0 km/h
2764 14-11-2010 07:00:00 11.92 C 8 g/m*3 11.92 C 0 km/h
2765 14-11-2010 08:00:00 12.66 C 7.53 g/m*3 12.66 C 0 km/h
2766 14-11-2010 09:00:00 14.28 C 7.24 g/m*3 14.28 C 0 km/h
2767 14-11-2010 10:00:00 15.02 C 7.22 g/m*3 15.02 C 0 km/h
2768 14-11-2010 11:00:00 15.44 C 7.22 g/m*3 15.44 C 0 km/h
2769 14-11-2010 12:00:00 16.16 C 7.4 g/m*3 16.16 C 0 km/h
2770 14-11-2010 13:00:00 17.46 C 7.44 g/m*3 17.46 C 0 km/h
2771 14-11-2010 14:00:00 17.64 C 7.25 g/m*3 17.64 C 0 km/h
2772 14-11-2010 15:00:00 17.7 C 7.12 g/m*3 17.7 C 0 km/h
2773 14-11-2010 16:00:00 15.72 C 7.64 g/m*3 15.72 C 0 km/h
2774 14-11-2010 17:00:00 14.74 C 8.13 g/m*3 14.74 C 0 km/h
2775 14-11-2010 18:00:00 14.16 C 8.02 g/m*3 14.16 C 0 km/h
Sensor: Nr:Datum:Temp:Abs-Feuchte:Windchill:Wind:
Aussen-T/F 2776 14-11-2010 19:00:00 13.96 C 7.89 g/m*3 13.96 C 0 km/h
2777 14-11-2010 20:00:00 14.02 C 7.68 g/m*3 14.02 C 0 km/h
2778 14-11-2010 21:00:00 13.92 C 7.27 g/m*3 13.92 C 0 km/h
2779 14-11-2010 22:00:00 13.78 C 7.09 g/m*3 13.78 C 0 km/h
2780 14-11-2010 23:00:00 13.42 C 6.94 g/m*3 13.42 C 0 km/h
2781 15-11-2010 00:00:00 12.88 C 6.98 g/m*3 12.88 C 0 km/h
2782 15-11-2010 01:00:00 12.22 C 6.91 g/m*3 12.22 C 0 km/h
2783 15-11-2010 02:00:00 11.78 C 6.92 g/m*3 11.78 C 0 km/h
2784 15-11-2010 03:00:00 10.9 C 7.02 g/m*3 10.9 C 0 km/h
2785 15-11-2010 04:00:00 10.24 C 6.95 g/m*3 10.24 C 0 km/h
2786 15-11-2010 05:00:00 9.92 C 6.53 g/m*3 9.92 C 0 km/h
2787 15-11-2010 06:00:00 9.34 C 6.27 g/m*3 9.34 C 0 km/h
2788 15-11-2010 07:00:00 8.96 C 6.42 g/m*3 8.96 C 0 km/h
2789 15-11-2010 08:00:00 9.1 C 6.28 g/m*3 9.1 C 0 km/h
2790 15-11-2010 09:00:00 9.16 C 6.07 g/m*3 9.16 C 0 km/h
2791 15-11-2010 10:00:00 9.82 C 5.87 g/m*3 9.82 C 0 km/h
2792 15-11-2010 11:00:00 10.3 C 5.75 g/m*3 10.3 C 0 km/h
2793 15-11-2010 12:00:00 10.84 C 5.57 g/m*3 10.84 C 0 km/h
2794 15-11-2010 13:00:00 10.48 C 5.62 g/m*3 10.48 C 0 km/h
2795 15-11-2010 14:00:00 10.24 C 5.5 g/m*3 10.24 C 0 km/h
2796 15-11-2010 15:00:00 9.68 C 5.54 g/m*3 9.68 C 0 km/h
2797 15-11-2010 16:00:00 8.96 C 5.7 g/m*3 8.96 C 0 km/h
2798 15-11-2010 17:00:00 8.16 C 5.81 g/m*3 8.16 C 0 km/h
2799 15-11-2010 18:00:00 8.14 C 5.89 g/m*3 8.14 C 0 km/h
2800 15-11-2010 19:00:00 7.98 C 5.88 g/m*3 7.98 C 0 km/h
Sensor: Nr:Datum:Temp:Abs-Feuchte:Windchill:Wind:
Aussen-T/F 2801 15-11-2010 20:00:00 7.6 C 5.95 g/m*3 7.6 C 0 km/h
2802 15-11-2010 21:00:00 7.16 C 5.93 g/m*3 7.16 C 0 km/h
2803 15-11-2010 22:00:00 6.94 C 5.97 g/m*3 6.94 C 0 km/h
2804 15-11-2010 23:00:00 6.68 C 5.99 g/m*3 6.68 C 0 km/h
2805 16-11-2010 00:00:00 5.88 C 5.95 g/m*3 5.88 C 0 km/h
2806 16-11-2010 01:00:00 5.2 C 5.87 g/m*3 5.2 C 0 km/h
2807 16-11-2010 02:00:00 5.48 C 6.1 g/m*3 5.48 C 0 km/h
2808 16-11-2010 03:00:00 5.86 C 6.21 g/m*3 5.86 C 0 km/h
2809 16-11-2010 04:00:00 5.22 C 5.97 g/m*3 5.22 C 0 km/h
2810 16-11-2010 05:00:00 5.5 C 6.07 g/m*3 5.5 C 0 km/h
2811 16-11-2010 06:00:00 5.22 C 5.83 g/m*3 5.22 C 0 km/h
2812 16-11-2010 07:00:00 5.18 C 5.79 g/m*3 5.18 C 0 km/h
2813 16-11-2010 08:00:00 5.42 C 5.83 g/m*3 5.42 C 0 km/h
2814 16-11-2010 09:00:00 5.88 C 5.82 g/m*3 5.88 C 0 km/h
2815 16-11-2010 10:00:00 6.26 C 5.74 g/m*3 6.26 C 0 km/h
2816 16-11-2010 11:00:00 6.56 C 5.65 g/m*3 6.56 C 0 km/h
2817 16-11-2010 12:00:00 7.34 C 5.53 g/m*3 7.34 C 0 km/h
2818 16-11-2010 13:00:00 7.54 C 5.59 g/m*3 7.54 C 0 km/h
2819 16-11-2010 14:00:00 7.68 C 5.52 g/m*3 7.68 C 0 km/h
2820 16-11-2010 15:00:00 7.24 C 5.51 g/m*3 7.24 C 0 km/h
2821 16-11-2010 16:00:00 7.08 C 5.53 g/m*3 7.08 C 0 km/h
2822 16-11-2010 17:00:00 6.8 C 5.64 g/m*3 6.8 C 0 km/h
2823 16-11-2010 18:00:00 6.22 C 5.67 g/m*3 6.22 C 0 km/h
2824 16-11-2010 19:00:00 5.92 C 5.75 g/m*3 5.92 C 0 km/h
2825 16-11-2010 20:00:00 5.56 C 5.71 g/m*3 5.56 C 0 km/h
Sensor: Nr:Datum:Temp:Abs-Feuchte:Windchill:Wind:
Aussen-T/F 2826 16-11-2010 21:00:00 5.42 C 5.66 g/m*3 5.42 C 0 km/h
2827 16-11-2010 22:00:00 5.24 C 5.61 g/m*3 5.24 C 0 km/h
2828 16-11-2010 23:00:00 4.6 C 5.58 g/m*3 4.6 C 0 km/h
2829 17-11-2010 00:00:00 4.78 C 5.72 g/m*3 4.78 C 0 km/h
2830 17-11-2010 01:00:00 5.08 C 5.62 g/m*3 5.08 C 0 km/h
2831 17-11-2010 02:00:00 5 C 5.59 g/m*3 5 C 0 km/h
2832 17-11-2010 03:00:00 4.92 C 5.66 g/m*3 4.92 C 0 km/h
2833 17-11-2010 04:00:00 4.8 C 5.65 g/m*3 4.8 C 0 km/h
2834 17-11-2010 05:00:00 4.74 C 5.72 g/m*3 4.74 C 0 km/h
2835 17-11-2010 06:00:00 4.7 C 5.73 g/m*3 4.7 C 0 km/h
2836 17-11-2010 07:00:00 4.72 C 5.67 g/m*3 4.72 C 0 km/h
2837 17-11-2010 08:00:00 5.1 C 4.98 g/m*3 5.1 C 0 km/h
2838 17-11-2010 09:00:00 5.56 C 4.64 g/m*3 5.56 C 0 km/h
2839 17-11-2010 10:00:00 5.78 C 4.66 g/m*3 5.78 C 0 km/h
2840 17-11-2010 11:00:00 6.04 C 4.6 g/m*3 6.04 C 0 km/h
2841 17-11-2010 12:00:00 6.28 C 4.6 g/m*3 6.28 C 0 km/h
2842 17-11-2010 13:00:00 6.54 C 4.63 g/m*3 6.54 C 0 km/h
2843 17-11-2010 14:00:00 6.18 C 4.55 g/m*3 6.18 C 0 km/h
2844 17-11-2010 15:00:00 5.86 C 4.67 g/m*3 5.86 C 0 km/h
2845 17-11-2010 16:00:00 5.54 C 4.8 g/m*3 5.54 C 0 km/h
2846 17-11-2010 17:00:00 5.26 C 4.91 g/m*3 5.26 C 0 km/h
2847 17-11-2010 18:00:00 5.2 C 4.97 g/m*3 5.2 C 0 km/h
2848 17-11-2010 19:00:00 5.3 C 4.99 g/m*3 5.3 C 0 km/h
2849 17-11-2010 20:00:00 5.3 C 5.12 g/m*3 5.3 C 0 km/h
2850 17-11-2010 21:00:00 5.26 C 5.21 g/m*3 5.26 C 0 km/h
Sensor: Nr:Datum:Temp:Abs-Feuchte:Windchill:Wind:
Aussen-T/F 2851 17-11-2010 22:00:00 5.04 C 5.34 g/m*3 5.04 C 0 km/h
2852 17-11-2010 23:00:00 4.52 C 5.58 g/m*3 4.52 C 0 km/h
2853 18-11-2010 00:00:00 4.56 C 5.74 g/m*3 4.56 C 0 km/h
2854 18-11-2010 01:00:00 4.28 C 5.71 g/m*3 4.28 C 0 km/h
2855 18-11-2010 02:00:00 4.28 C 5.77 g/m*3 4.28 C 0 km/h
2856 18-11-2010 03:00:00 4.06 C 5.75 g/m*3 4.06 C 0 km/h
2857 18-11-2010 04:00:00 4.28 C 5.88 g/m*3 4.28 C 0 km/h
2858 18-11-2010 05:00:00 4.28 C 5.89 g/m*3 4.28 C 0 km/h
2859 18-11-2010 06:00:00 3.92 C 5.81 g/m*3 3.92 C 0 km/h
2860 18-11-2010 07:00:00 3.98 C 5.84 g/m*3 3.98 C 0 km/h
2861 18-11-2010 08:00:00 4.22 C 5.94 g/m*3 4.22 C 0 km/h
2862 18-11-2010 09:00:00 4.94 C 6.2 g/m*3 4.94 C 0 km/h
2863 18-11-2010 10:00:00 5.96 C 6.24 g/m*3 5.96 C 0 km/h
2864 18-11-2010 11:00:00 6.9 C 6.02 g/m*3 6.9 C 0 km/h
2865 18-11-2010 12:00:00 7.54 C 5.92 g/m*3 7.54 C 0 km/h
2866 18-11-2010 13:00:00 8.36 C 5.7 g/m*3 8.36 C 0 km/h
2867 18-11-2010 14:00:00 8.14 C 5.32 g/m*3 8.14 C 0 km/h
2868 18-11-2010 15:00:00 7.76 C 5.39 g/m*3 7.76 C 0 km/h
2869 18-11-2010 16:00:00 6.9 C 5.77 g/m*3 6.9 C 0 km/h
2870 18-11-2010 17:00:00 6.12 C 5.87 g/m*3 6.12 C 0 km/h
2871 18-11-2010 18:00:00 6.2 C 6.02 g/m*3 6.2 C 0 km/h
2872 18-11-2010 19:00:00 5.94 C 6.01 g/m*3 5.94 C 0 km/h
2873 18-11-2010 20:00:00 5.58 C 6.23 g/m*3 5.58 C 0 km/h
2874 18-11-2010 21:00:00 5.52 C 6.27 g/m*3 5.52 C 0 km/h
2875 18-11-2010 22:00:00 5.5 C 6.32 g/m*3 5.5 C 0 km/h
Sensor: Nr:Datum:Temp:Abs-Feuchte:Windchill:Wind:
Aussen-T/F 2876 18-11-2010 23:00:00 5.64 C 6.42 g/m*3 5.64 C 0 km/h
2877 19-11-2010 00:00:00 5.66 C 6.26 g/m*3 5.66 C 0 km/h
2878 19-11-2010 01:00:00 5.58 C 6.11 g/m*3 5.58 C 0 km/h
2879 19-11-2010 02:00:00 5.34 C 6.17 g/m*3 5.34 C 0 km/h
2880 19-11-2010 03:00:00 5.12 C 6.08 g/m*3 5.12 C 0 km/h
2881 19-11-2010 04:00:00 5.04 C 6.05 g/m*3 5.04 C 0 km/h
2882 19-11-2010 05:00:00 4.94 C 6.04 g/m*3 4.94 C 0 km/h
2883 19-11-2010 06:00:00 4.9 C 6.02 g/m*3 4.9 C 0 km/h
2884 19-11-2010 07:00:00 5.14 C 6.1 g/m*3 5.14 C 0 km/h
2885 19-11-2010 08:00:00 5.44 C 6.23 g/m*3 5.44 C 0 km/h
2886 19-11-2010 09:00:00 6.32 C 6.26 g/m*3 6.32 C 0 km/h
2887 19-11-2010 10:00:00 7.62 C 6.28 g/m*3 7.62 C 0 km/h
2888 19-11-2010 11:00:00 8.84 C 6.06 g/m*3 8.84 C 0 km/h
2889 19-11-2010 12:00:00 9.52 C 5.85 g/m*3 9.52 C 0 km/h
2890 19-11-2010 13:00:00 9.74 C 5.82 g/m*3 9.74 C 0 km/h
2891 19-11-2010 14:00:00 9.94 C 5.69 g/m*3 9.94 C 0 km/h
2892 19-11-2010 15:00:00 8.5 C 5.93 g/m*3 8.5 C 0 km/h
2893 19-11-2010 16:00:00 7.04 C 6.23 g/m*3 7.04 C 0 km/h
2894 19-11-2010 17:00:00 7.58 C 6.31 g/m*3 7.58 C 0 km/h
2895 19-11-2010 18:00:00 7.62 C 6.32 g/m*3 7.62 C 0 km/h
2896 19-11-2010 19:00:00 6.96 C 6.23 g/m*3 6.96 C 0 km/h
2897 19-11-2010 20:00:00 5.1 C 5.91 g/m*3 5.1 C 0 km/h
2898 19-11-2010 21:00:00 3.86 C 5.62 g/m*3 3.86 C 0 km/h
2899 19-11-2010 22:00:00 3.92 C 5.74 g/m*3 3.92 C 0 km/h
2900 19-11-2010 23:00:00 4.54 C 6.02 g/m*3 4.54 C 0 km/h
Sensor: Nr:Datum:Temp:Abs-Feuchte:Windchill:Wind:
Aussen-T/F 2901 20-11-2010 00:00:00 4.04 C 5.86 g/m*3 4.04 C 0 km/h
2902 20-11-2010 01:00:00 4.18 C 5.92 g/m*3 4.18 C 0 km/h
2903 20-11-2010 02:00:00 1.94 C 5.11 g/m*3 1.94 C 0 km/h
2904 20-11-2010 03:00:00 1.34 C 4.91 g/m*3 1.34 C 0 km/h
2905 20-11-2010 04:00:00 2.64 C 5.37 g/m*3 2.64 C 0 km/h
2906 20-11-2010 05:00:00 3.34 C 5.65 g/m*3 3.34 C 0 km/h
2907 20-11-2010 06:00:00 3.76 C 5.82 g/m*3 3.76 C 0 km/h
2908 20-11-2010 07:00:00 4.06 C 5.94 g/m*3 4.06 C 0 km/h
2909 20-11-2010 08:00:00 4.4 C 6.07 g/m*3 4.4 C 0 km/h
2910 20-11-2010 09:00:00 5.04 C 6.32 g/m*3 5.04 C 0 km/h
2911 20-11-2010 10:00:00 6.02 C 6.63 g/m*3 6.02 C 0 km/h
2912 20-11-2010 11:00:00 7.46 C 6.75 g/m*3 7.46 C 0 km/h
2913 20-11-2010 12:00:00 9.1 C 6.67 g/m*3 9.1 C 0 km/h
2914 20-11-2010 13:00:00 8.88 C 6.37 g/m*3 8.88 C 0 km/h
2915 20-11-2010 14:00:00 8.78 C 6.29 g/m*3 8.78 C 0 km/h
2916 20-11-2010 15:00:00 7.76 C 6.19 g/m*3 7.76 C 0 km/h
2917 20-11-2010 16:00:00 5.34 C 5.87 g/m*3 5.34 C 0 km/h
2918 20-11-2010 17:00:00 4.6 C 5.9 g/m*3 4.6 C 0 km/h
2919 20-11-2010 18:00:00 4.4 C 5.9 g/m*3 4.4 C 0 km/h
2920 20-11-2010 19:00:00 3.92 C 5.75 g/m*3 3.92 C 0 km/h
2921 20-11-2010 20:00:00 3.28 C 5.55 g/m*3 3.28 C 0 km/h
2922 20-11-2010 21:00:00 3.26 C 5.57 g/m*3 3.26 C 0 km/h
2923 20-11-2010 22:00:00 4.32 C 5.98 g/m*3 4.32 C 0 km/h
2924 20-11-2010 23:00:00 4.12 C 5.92 g/m*3 4.12 C 0 km/h
2925 21-11-2010 00:00:00 4.32 C 5.96 g/m*3 4.32 C 0 km/h
Sensor: Nr:Datum:Temp:Abs-Feuchte:Windchill:Wind:
Aussen-T/F 2926 21-11-2010 01:00:00 4.48 C 5.75 g/m*3 4.48 C 0 km/h
2927 21-11-2010 02:00:00 4.44 C 5.43 g/m*3 4.44 C 0 km/h
2928 21-11-2010 03:00:00 4.5 C 5.28 g/m*3 4.5 C 0 km/h
2929 21-11-2010 04:00:00 4.56 C 5.06 g/m*3 4.56 C 0 km/h
2930 21-11-2010 05:00:00 4.5 C 4.94 g/m*3 4.5 C 0 km/h
2931 21-11-2010 06:00:00 4.4 C 4.92 g/m*3 4.4 C 0 km/h
2932 21-11-2010 07:00:00 4.38 C 5.05 g/m*3 4.38 C 0 km/h
2933 21-11-2010 08:00:00 4.7 C 5.14 g/m*3 4.7 C 0 km/h
2934 21-11-2010 09:00:00 5 C 4.92 g/m*3 5 C 0 km/h
2935 21-11-2010 10:00:00 5.36 C 4.82 g/m*3 5.36 C 0 km/h
2936 21-11-2010 11:00:00 5.3 C 4.63 g/m*3 5.3 C 0 km/h
2937 21-11-2010 12:00:00 5.1 C 4.53 g/m*3 5.1 C 0 km/h
2938 21-11-2010 13:00:00 5.12 C 4.45 g/m*3 5.12 C 0 km/h
2939 21-11-2010 14:00:00 4.88 C 4.42 g/m*3 4.88 C 0 km/h
2940 21-11-2010 15:00:00 4.44 C 4.28 g/m*3 4.44 C 0 km/h
2941 21-11-2010 16:00:00 4.16 C 4.38 g/m*3 4.16 C 0 km/h
2942 21-11-2010 17:00:00 3.96 C 4.5 g/m*3 3.96 C 0 km/h
2943 21-11-2010 18:00:00 3.96 C 4.57 g/m*3 3.96 C 0 km/h
2944 21-11-2010 19:00:00 4.06 C 4.61 g/m*3 4.06 C 0 km/h
2945 21-11-2010 20:00:00 4.3 C 4.55 g/m*3 4.3 C 0 km/h
2946 21-11-2010 21:00:00 4.16 C 4.5 g/m*3 4.16 C 0 km/h
2947 21-11-2010 22:00:00 3.76 C 4.66 g/m*3 3.76 C 0 km/h
2948 21-11-2010 23:00:00 3.76 C 4.81 g/m*3 3.76 C 0 km/h
2949 22-11-2010 00:00:00 4.06 C 4.93 g/m*3 4.06 C 0 km/h
2950 22-11-2010 01:00:00 4.08 C 4.92 g/m*3 4.08 C 0 km/h
Sensor: Nr:Datum:Temp:Abs-Feuchte:Windchill:Wind:
Aussen-T/F 2951 22-11-2010 02:00:00 4.16 C 4.97 g/m*3 4.16 C 0 km/h
2952 22-11-2010 03:00:00 4.46 C 5.06 g/m*3 4.46 C 0 km/h
2953 22-11-2010 04:00:00 4.86 C 5.01 g/m*3 4.86 C 0 km/h
2954 22-11-2010 05:00:00 4.88 C 4.95 g/m*3 4.88 C 0 km/h
2955 22-11-2010 06:00:00 4.7 C 4.86 g/m*3 4.7 C 0 km/h
2956 22-11-2010 07:00:00 4.64 C 4.79 g/m*3 4.64 C 0 km/h
2957 22-11-2010 08:00:00 4.64 C 4.8 g/m*3 4.64 C 0 km/h
2958 22-11-2010 09:00:00 4.74 C 4.81 g/m*3 4.74 C 0 km/h
2959 22-11-2010 10:00:00 4.82 C 4.86 g/m*3 4.82 C 0 km/h
2960 22-11-2010 11:00:00 4.48 C 4.95 g/m*3 4.48 C 0 km/h
2961 22-11-2010 12:00:00 4.2 C 5.21 g/m*3 4.2 C 0 km/h
2962 22-11-2010 13:00:00 4.24 C 5.38 g/m*3 4.24 C 0 km/h
2963 22-11-2010 14:00:00 4.78 C 5.25 g/m*3 4.78 C 0 km/h
2964 22-11-2010 15:00:00 4.9 C 5.02 g/m*3 4.9 C 0 km/h
2965 22-11-2010 16:00:00 4.32 C 4.91 g/m*3 4.32 C 0 km/h
2966 22-11-2010 17:00:00 4.04 C 4.99 g/m*3 4.04 C 0 km/h
2967 22-11-2010 18:00:00 4.28 C 4.95 g/m*3 4.28 C 0 km/h
2968 22-11-2010 19:00:00 4.38 C 4.88 g/m*3 4.38 C 0 km/h
2969 22-11-2010 20:00:00 4.42 C 4.8 g/m*3 4.42 C 0 km/h
2970 22-11-2010 21:00:00 4.4 C 4.82 g/m*3 4.4 C 0 km/h
2971 22-11-2010 22:00:00 4.5 C 4.89 g/m*3 4.5 C 0 km/h
2972 22-11-2010 23:00:00 4.4 C 4.94 g/m*3 4.4 C 0 km/h
2973 23-11-2010 00:00:00 4.44 C 4.94 g/m*3 4.44 C 0 km/h
2974 23-11-2010 01:00:00 4.46 C 4.85 g/m*3 4.46 C 0 km/h
2975 23-11-2010 02:00:00 4.26 C 4.62 g/m*3 4.26 C 0 km/h
Sensor: Nr:Datum:Temp:Abs-Feuchte:Windchill:Wind:
Aussen-T/F 2976 23-11-2010 03:00:00 4.08 C 4.42 g/m*3 4.08 C 0 km/h
2977 23-11-2010 04:00:00 3.68 C 4.52 g/m*3 3.68 C 0 km/h
2978 23-11-2010 05:00:00 3.2 C 4.65 g/m*3 3.2 C 0 km/h
2979 23-11-2010 06:00:00 2.66 C 5.01 g/m*3 2.66 C 0 km/h
2980 23-11-2010 07:00:00 2.96 C 5.08 g/m*3 2.96 C 0 km/h
2981 23-11-2010 08:00:00 3.18 C 4.89 g/m*3 3.18 C 0 km/h
2982 23-11-2010 09:00:00 3.68 C 4.75 g/m*3 3.68 C 0 km/h
2983 23-11-2010 10:00:00 4.26 C 4.58 g/m*3 4.26 C 0 km/h
2984 23-11-2010 11:00:00 4.72 C 4.66 g/m*3 4.72 C 0 km/h
2985 23-11-2010 12:00:00 5.28 C 4.47 g/m*3 5.28 C 0 km/h
2986 23-11-2010 13:00:00 6.04 C 4.37 g/m*3 6.04 C 0 km/h
2987 23-11-2010 14:00:00 5.74 C 4.25 g/m*3 5.74 C 0 km/h
2988 23-11-2010 15:00:00 5.54 C 4.25 g/m*3 5.54 C 0 km/h
2989 23-11-2010 16:00:00 5.38 C 4.47 g/m*3 5.38 C 0 km/h
2990 23-11-2010 17:00:00 5.32 C 4.46 g/m*3 5.32 C 0 km/h
2991 23-11-2010 18:00:00 5.28 C 4.42 g/m*3 5.28 C 0 km/h
2992 23-11-2010 19:00:00 5.2 C 4.5 g/m*3 5.2 C 0 km/h
2993 23-11-2010 20:00:00 5.14 C 4.46 g/m*3 5.14 C 0 km/h
2994 23-11-2010 21:00:00 4.98 C 4.33 g/m*3 4.98 C 0 km/h
2995 23-11-2010 22:00:00 4.95 C 4.33 g/m*3 4.95 C 0 km/h
2996 23-11-2010 23:00:00 4.64 C 4.39 g/m*3 4.64 C 0 km/h
2997 24-11-2010 00:00:00 4.32 C 4.44 g/m*3 4.32 C 0 km/h
2998 24-11-2010 01:00:00 3.96 C 4.46 g/m*3 3.96 C 0 km/h
2999 24-11-2010 02:00:00 3.42 C 4.5 g/m*3 3.42 C 0 km/h
3000 24-11-2010 03:00:00 3.52 C 4.62 g/m*3 3.52 C 0 km/h
Sensor: Nr:Datum:Temp:Abs-Feuchte:Windchill:Wind:
Aussen-T/F 3001 24-11-2010 04:00:00 3.46 C 4.72 g/m*3 3.46 C 0 km/h
3002 24-11-2010 05:00:00 2.92 C 5 g/m*3 2.92 C 0 km/h
3003 24-11-2010 06:00:00 3.2 C 5.07 g/m*3 3.2 C 0 km/h
3004 24-11-2010 07:00:00 3.34 C 5.01 g/m*3 3.34 C 0 km/h
3005 24-11-2010 08:00:00 3.42 C 5.08 g/m*3 3.42 C 0 km/h
3006 24-11-2010 09:00:00 4.22 C 4.99 g/m*3 4.22 C 0 km/h
3007 24-11-2010 10:00:00 5.22 C 4.7 g/m*3 5.22 C 0 km/h
3008 24-11-2010 11:00:00 5.22 C 4.78 g/m*3 5.22 C 0 km/h
3009 24-11-2010 12:00:00 5.8 C 4.57 g/m*3 5.8 C 0 km/h
3010 24-11-2010 13:00:00 5.36 C 4.61 g/m*3 5.36 C 0 km/h
3011 24-11-2010 14:00:00 4.48 C 5.08 g/m*3 4.48 C 0 km/h
3012 24-11-2010 15:00:00 3.48 C 5.24 g/m*3 3.48 C 0 km/h
3013 24-11-2010 16:00:00 3.3 C 5.22 g/m*3 3.3 C 0 km/h
3014 24-11-2010 17:00:00 2.28 C 4.88 g/m*3 2.28 C 0 km/h
3015 24-11-2010 18:00:00 1.64 C 4.9 g/m*3 1.64 C 0 km/h
3016 24-11-2010 19:00:00 2.02 C 5.09 g/m*3 2.02 C 0 km/h
3017 24-11-2010 20:00:00 1.42 C 4.91 g/m*3 1.42 C 0 km/h
3018 24-11-2010 21:00:00 1.42 C 4.91 g/m*3 1.42 C 0 km/h
3019 24-11-2010 22:00:00 2.14 C 5.13 g/m*3 2.14 C 0 km/h
3020 24-11-2010 23:00:00 2.4 C 5.06 g/m*3 2.4 C 0 km/h
3021 25-11-2010 00:00:00 2.5 C 4.93 g/m*3 2.5 C 0 km/h
3022 25-11-2010 01:00:00 2.94 C 4.82 g/m*3 2.94 C 0 km/h
3023 25-11-2010 02:00:00 2.76 C 4.55 g/m*3 2.76 C 0 km/h
3024 25-11-2010 03:00:00 2.82 C 4.43 g/m*3 2.82 C 0 km/h
3025 25-11-2010 04:00:00 2.02 C 4.2 g/m*3 2.02 C 0 km/h
Sensor: Nr:Datum:Temp:Abs-Feuchte:Windchill:Wind:
Aussen-T/F 3026 25-11-2010 05:00:00 1.3 C 4.08 g/m*3 1.3 C 0 km/h
3027 25-11-2010 06:00:00 0.66 C 4.12 g/m*3 0.66 C 0 km/h
3028 25-11-2010 07:00:00 0.06 C 4.24 g/m*3 0.06 C 0 km/h
3029 25-11-2010 08:00:00 -0.28 C 4.23 g/m*3 -0.28 C 0 km/h
3030 25-11-2010 09:00:00 0.58 C 4.45 g/m*3 0.58 C 0 km/h
3031 25-11-2010 10:00:00 0.8 C 4.42 g/m*3 0.8 C 0 km/h
3032 25-11-2010 11:00:00 1.76 C 4.53 g/m*3 1.76 C 0 km/h
3033 25-11-2010 12:00:00 2 C 4.51 g/m*3 2 C 0 km/h
3034 25-11-2010 13:00:00 3.48 C 4.22 g/m*3 3.48 C 0 km/h
3035 25-11-2010 14:00:00 3.66 C 4.03 g/m*3 3.66 C 0 km/h
3036 25-11-2010 15:00:00 3.28 C 3.96 g/m*3 3.28 C 0 km/h
3037 25-11-2010 16:00:00 2.04 C 4.21 g/m*3 2.04 C 0 km/h
3038 25-11-2010 17:00:00 2.04 C 4.35 g/m*3 2.04 C 0 km/h
3039 25-11-2010 18:00:00 1.74 C 4.42 g/m*3 1.74 C 0 km/h
3040 25-11-2010 19:00:00 0.98 C 4.38 g/m*3 0.98 C 0 km/h
3041 25-11-2010 20:00:00 0.7 C 4.4 g/m*3 0.7 C 0 km/h
3042 25-11-2010 21:00:00 1.24 C 4.5 g/m*3 1.24 C 0 km/h
3043 25-11-2010 22:00:00 1.34 C 4.49 g/m*3 1.34 C 0 km/h
3044 25-11-2010 23:00:00 1.36 C 4.52 g/m*3 1.36 C 0 km/h
3045 26-11-2010 00:00:00 1.4 C 4.51 g/m*3 1.4 C 0 km/h
3046 26-11-2010 01:00:00 1.06 C 4.49 g/m*3 1.06 C 0 km/h
3047 26-11-2010 02:00:00 1.06 C 4.47 g/m*3 1.06 C 0 km/h
3048 26-11-2010 03:00:00 0.74 C 4.37 g/m*3 0.74 C 0 km/h
3049 26-11-2010 04:00:00 0.32 C 4.4 g/m*3 0.32 C 0 km/h
3050 26-11-2010 05:00:00 0.26 C 4.47 g/m*3 0.26 C 0 km/h
Sensor: Nr:Datum:Temp:Abs-Feuchte:Windchill:Wind:
Aussen-T/F 3051 26-11-2010 06:00:00 0.22 C 4.49 g/m*3 0.22 C 0 km/h
3052 26-11-2010 07:00:00 0 C 4.46 g/m*3 0 C 0 km/h
3053 26-11-2010 08:00:00 0.04 C 4.49 g/m*3 0.04 C 0 km/h
3054 26-11-2010 09:00:00 0.14 C 4.55 g/m*3 0.14 C 0 km/h
3055 26-11-2010 10:00:00 0.58 C 4.66 g/m*3 0.58 C 0 km/h
3056 26-11-2010 11:00:00 1.12 C 4.61 g/m*3 1.12 C 0 km/h
3057 26-11-2010 12:00:00 0.84 C 4.41 g/m*3 0.84 C 0 km/h
3058 26-11-2010 13:00:00 0.9 C 4.37 g/m*3 0.9 C 0 km/h
3059 26-11-2010 14:00:00 1.6 C 4.17 g/m*3 1.6 C 0 km/h
3060 26-11-2010 15:00:00 0.8 C 3.8 g/m*3 0.8 C 0 km/h
3061 26-11-2010 16:00:00 -1.48 C 3.69 g/m*3 -1.48 C 0 km/h
3062 26-11-2010 17:00:00 -2.36 C 3.65 g/m*3 -2.36 C 0 km/h
3063 26-11-2010 18:00:00 -1.38 C 4 g/m*3 -1.38 C 0 km/h
3064 26-11-2010 19:00:00 -1.54 C 3.96 g/m*3 -1.54 C 0 km/h
3065 26-11-2010 20:00:00 -1.96 C 3.85 g/m*3 -1.96 C 0 km/h
3066 26-11-2010 21:00:00 -2.34 C 3.75 g/m*3 -2.34 C 0 km/h
3067 26-11-2010 22:00:00 -3.24 C 3.5 g/m*3 -3.24 C 0 km/h
3068 26-11-2010 23:00:00 -3.76 C 3.35 g/m*3 -3.76 C 0 km/h
3069 27-11-2010 00:00:00 -4.08 C 3.27 g/m*3 -4.08 C 0 km/h
3070 27-11-2010 01:00:00 -3.54 C 3.39 g/m*3 -3.54 C 0 km/h
3071 27-11-2010 02:00:00 -3.94 C 3.25 g/m*3 -3.94 C 0 km/h
3072 27-11-2010 03:00:00 -3.16 C 3.46 g/m*3 -3.16 C 0 km/h
3073 27-11-2010 04:00:00 -4.12 C 3.19 g/m*3 -4.12 C 0 km/h
3074 27-11-2010 05:00:00 -4.28 C 3.15 g/m*3 -4.28 C 0 km/h
3075 27-11-2010 06:00:00 -3.52 C 3.35 g/m*3 -3.52 C 0 km/h
Sensor: Nr:Datum:Temp:Abs-Feuchte:Windchill:Wind:
Aussen-T/F 3076 27-11-2010 07:00:00 -3.54 C 3.33 g/m*3 -3.54 C 0 km/h
3077 27-11-2010 08:00:00 -3 C 3.48 g/m*3 -3 C 0 km/h
3078 27-11-2010 09:00:00 -1.8 C 3.8 g/m*3 -1.8 C 0 km/h
3079 27-11-2010 10:00:00 -0.84 C 4.06 g/m*3 -0.84 C 0 km/h
3080 27-11-2010 11:00:00 -0.2 C 4.19 g/m*3 -0.2 C 0 km/h
3081 27-11-2010 12:00:00 0.38 C 4 g/m*3 0.38 C 0 km/h
3082 27-11-2010 13:00:00 0.86 C 3.91 g/m*3 0.86 C 0 km/h
3083 27-11-2010 14:00:00 1.48 C 3.79 g/m*3 1.48 C 0 km/h
3084 27-11-2010 15:00:00 0.76 C 3.8 g/m*3 0.76 C 0 km/h
3085 27-11-2010 16:00:00 -0.72 C 3.59 g/m*3 -0.72 C 0 km/h
3086 27-11-2010 17:00:00 -0.86 C 3.65 g/m*3 -0.86 C 0 km/h
3087 27-11-2010 18:00:00 -1.58 C 3.59 g/m*3 -1.58 C 0 km/h
3088 27-11-2010 19:00:00 -0.92 C 3.75 g/m*3 -0.92 C 0 km/h
3089 27-11-2010 20:00:00 -1.5 C 3.52 g/m*3 -1.5 C 0 km/h
3090 27-11-2010 21:00:00 -3.1 C 3.27 g/m*3 -3.1 C 0 km/h
3091 27-11-2010 22:00:00 -3.36 C 3.3 g/m*3 -3.36 C 0 km/h
3092 27-11-2010 23:00:00 -3.22 C 3.31 g/m*3 -3.22 C 0 km/h
3093 28-11-2010 00:00:00 -3.76 C 3.2 g/m*3 -3.76 C 0 km/h
3094 28-11-2010 01:00:00 -2.76 C 3.5 g/m*3 -2.76 C 0 km/h
3095 28-11-2010 02:00:00 -2.18 C 3.6 g/m*3 -2.18 C 0 km/h
3096 28-11-2010 03:00:00 -3.4 C 3.22 g/m*3 -3.4 C 0 km/h
3097 28-11-2010 04:00:00 -2.64 C 3.47 g/m*3 -2.64 C 0 km/h
3098 28-11-2010 05:00:00 -2.72 C 3.42 g/m*3 -2.72 C 0 km/h
3099 28-11-2010 06:00:00 -2.18 C 3.56 g/m*3 -2.18 C 0 km/h
3100 28-11-2010 07:00:00 -1.88 C 3.58 g/m*3 -1.88 C 0 km/h
Sensor: Nr:Datum:Temp:Abs-Feuchte:Windchill:Wind:
Aussen-T/F 3101 28-11-2010 08:00:00 -1.66 C 3.6 g/m*3 -1.66 C 0 km/h
3102 28-11-2010 09:00:00 -1.18 C 3.62 g/m*3 -1.18 C 0 km/h
3103 28-11-2010 10:00:00 -0.38 C 3.63 g/m*3 -0.38 C 0 km/h
3104 28-11-2010 11:00:00 -0.18 C 3.55 g/m*3 -0.18 C 0 km/h
3105 28-11-2010 12:00:00 0.02 C 3.59 g/m*3 0.02 C 0 km/h
3106 28-11-2010 13:00:00 0.14 C 3.63 g/m*3 0.14 C 0 km/h
3107 28-11-2010 14:00:00 0.5 C 3.69 g/m*3 0.5 C 0 km/h
3108 28-11-2010 15:00:00 0.54 C 3.71 g/m*3 0.54 C 0 km/h
3109 28-11-2010 16:00:00 -0.34 C 3.68 g/m*3 -0.34 C 0 km/h
3110 28-11-2010 17:00:00 -0.64 C 3.67 g/m*3 -0.64 C 0 km/h
3111 28-11-2010 18:00:00 -1.1 C 3.71 g/m*3 -1.1 C 0 km/h
3112 28-11-2010 19:00:00 -0.7 C 3.7 g/m*3 -0.7 C 0 km/h
3113 28-11-2010 20:00:00 -0.8 C 3.55 g/m*3 -0.8 C 0 km/h
3114 28-11-2010 21:00:00 -0.86 C 3.46 g/m*3 -0.86 C 0 km/h
3115 28-11-2010 22:00:00 -1.6 C 3.36 g/m*3 -1.6 C 0 km/h
3116 28-11-2010 23:00:00 -2.04 C 3.42 g/m*3 -2.04 C 0 km/h
3117 29-11-2010 00:00:00 -1.48 C 3.37 g/m*3 -1.48 C 0 km/h
3118 29-11-2010 01:00:00 -1.8 C 3.31 g/m*3 -1.8 C 0 km/h
3119 29-11-2010 02:00:00 -1.88 C 3.26 g/m*3 -1.88 C 0 km/h
3120 29-11-2010 03:00:00 -2 C 3.21 g/m*3 -2 C 0 km/h
3121 29-11-2010 04:00:00 -2 C 3.22 g/m*3 -2 C 0 km/h
3122 29-11-2010 05:00:00 -1.82 C 3.27 g/m*3 -1.82 C 0 km/h
3123 29-11-2010 06:00:00 -1.68 C 3.31 g/m*3 -1.68 C 0 km/h
3124 29-11-2010 07:00:00 -1.66 C 3.29 g/m*3 -1.66 C 0 km/h
3125 29-11-2010 08:00:00 -1.6 C 3.33 g/m*3 -1.6 C 0 km/h
Sensor: Nr:Datum:Temp:Abs-Feuchte:Windchill:Wind:
Aussen-T/F 3126 29-11-2010 09:00:00 -1.38 C 3.3 g/m*3 -1.38 C 0 km/h
3127 29-11-2010 10:00:00 -1.3 C 3.37 g/m*3 -1.3 C 0 km/h
3128 29-11-2010 11:00:00 -1.22 C 3.45 g/m*3 -1.22 C 0 km/h
3129 29-11-2010 12:00:00 -1.14 C 3.52 g/m*3 -1.14 C 0 km/h
3130 29-11-2010 13:00:00 -0.84 C 3.57 g/m*3 -0.84 C 0 km/h
3131 29-11-2010 14:00:00 -1.02 C 3.67 g/m*3 -1.02 C 0 km/h
3132 29-11-2010 15:00:00 -1.3 C 3.72 g/m*3 -1.3 C 0 km/h
3133 29-11-2010 16:00:00 -1.46 C 3.73 g/m*3 -1.46 C 0 km/h
3134 29-11-2010 17:00:00 -1.68 C 3.71 g/m*3 -1.68 C 0 km/h
3135 29-11-2010 18:00:00 -1.68 C 3.75 g/m*3 -1.68 C 0 km/h
3136 29-11-2010 19:00:00 -1.7 C 3.75 g/m*3 -1.7 C 0 km/h
3137 29-11-2010 20:00:00 -1.64 C 3.8 g/m*3 -1.64 C 0 km/h
3138 29-11-2010 21:00:00 -1.66 C 3.8 g/m*3 -1.66 C 0 km/h
3139 29-11-2010 22:00:00 -1.78 C 3.77 g/m*3 -1.78 C 0 km/h
3140 29-11-2010 23:00:00 -1.68 C 3.83 g/m*3 -1.68 C 0 km/h
3141 30-11-2010 00:00:00 -1.78 C 3.81 g/m*3 -1.78 C 0 km/h
3142 30-11-2010 01:00:00 -1.96 C 3.76 g/m*3 -1.96 C 0 km/h
3143 30-11-2010 02:00:00 -1.68 C 3.84 g/m*3 -1.68 C 0 km/h
3144 30-11-2010 03:00:00 -1.7 C 3.82 g/m*3 -1.7 C 0 km/h
3145 30-11-2010 04:00:00 -2.36 C 3.62 g/m*3 -2.36 C 0 km/h
3146 30-11-2010 05:00:00 -2.4 C 3.62 g/m*3 -2.4 C 0 km/h
3147 30-11-2010 06:00:00 -2.26 C 3.66 g/m*3 -2.26 C 0 km/h
3148 30-11-2010 07:00:00 -2.28 C 3.66 g/m*3 -2.28 C 0 km/h
3149 30-11-2010 08:00:00 -2.08 C 3.66 g/m*3 -2.08 C 0 km/h
3150 30-11-2010 09:00:00 -2 C 3.58 g/m*3 -2 C 0 km/h
Sensor: Nr:Datum:Temp:Abs-Feuchte:Windchill:Wind:
Aussen-T/F 3151 30-11-2010 10:00:00 -1.82 C 3.51 g/m*3 -1.82 C 0 km/h
3152 30-11-2010 11:00:00 -1.5 C 3.44 g/m*3 -1.5 C 0 km/h
3153 30-11-2010 12:00:00 -1.3 C 3.28 g/m*3 -1.3 C 0 km/h
3154 30-11-2010 13:00:00 -1.08 C 3.25 g/m*3 -1.08 C 0 km/h
3155 30-11-2010 14:00:00 -1.32 C 3.2 g/m*3 -1.32 C 0 km/h
3156 30-11-2010 15:00:00 -1.48 C 3.23 g/m*3 -1.48 C 0 km/h
3157 30-11-2010 16:00:00 -1.5 C 3.23 g/m*3 -1.5 C 0 km/h
3158 30-11-2010 17:00:00 -1.92 C 3.21 g/m*3 -1.92 C 0 km/h
3159 30-11-2010 18:00:00 -2.1 C 3.18 g/m*3 -2.1 C 0 km/h
3160 30-11-2010 19:00:00 -2.1 C 3.17 g/m*3 -2.1 C 0 km/h
3161 30-11-2010 20:00:00 -2.26 C 3.11 g/m*3 -2.26 C 0 km/h
3162 30-11-2010 21:00:00 -2.4 C 3.05 g/m*3 -2.4 C 0 km/h
3163 30-11-2010 22:00:00 -2.58 C 2.94 g/m*3 -2.58 C 0 km/h
3164 30-11-2010 23:00:00 -2.76 C 2.83 g/m*3 -2.76 C 0 km/h
3165 01-12-2010 00:00:00 -3 C 2.76 g/m*3 -3 C 0 km/h
3166 01-12-2010 01:00:00 -3.3 C 2.67 g/m*3 -3.3 C 0 km/h
3167 01-12-2010 02:00:00 -3.88 C 2.51 g/m*3 -3.88 C 0 km/h
3168 01-12-2010 03:00:00 -4.34 C 2.36 g/m*3 -4.34 C 0 km/h
3169 01-12-2010 04:00:00 -5 C 2.23 g/m*3 -5 C 0 km/h
3170 01-12-2010 05:00:00 -5.4 C 2.18 g/m*3 -5.4 C 0 km/h
3171 01-12-2010 06:00:00 -5.56 C 2.14 g/m*3 -5.56 C 0 km/h
3172 01-12-2010 07:00:00 -5.9 C 2.05 g/m*3 -5.9 C 0 km/h
3173 01-12-2010 08:00:00 -6.26 C 1.95 g/m*3 -6.26 C 0 km/h
3174 01-12-2010 09:00:00 -5.96 C 1.92 g/m*3 -5.96 C 0 km/h
3175 01-12-2010 10:00:00 -5.54 C 1.95 g/m*3 -5.54 C 0 km/h
Sensor: Nr:Datum:Temp:Abs-Feuchte:Windchill:Wind:
Aussen-T/F 3176 01-12-2010 11:00:00 -5.48 C 1.97 g/m*3 -5.48 C 0 km/h
3177 01-12-2010 12:00:00 -5.82 C 1.93 g/m*3 -5.82 C 0 km/h
3178 01-12-2010 13:00:00 -6.1 C 1.85 g/m*3 -6.1 C 0 km/h
3179 01-12-2010 14:00:00 -6.18 C 1.79 g/m*3 -6.18 C 0 km/h
3180 01-12-2010 15:00:00 -6.28 C 1.78 g/m*3 -6.28 C 0 km/h
3181 01-12-2010 16:00:00 -6.58 C 1.75 g/m*3 -6.58 C 0 km/h
3182 01-12-2010 17:00:00 -6.58 C 1.8 g/m*3 -6.58 C 0 km/h
3183 01-12-2010 18:00:00 -6.54 C 1.82 g/m*3 -6.54 C 0 km/h
3184 01-12-2010 19:00:00 -6.58 C 1.81 g/m*3 -6.58 C 0 km/h
3185 01-12-2010 20:00:00 -6.64 C 1.77 g/m*3 -6.64 C 0 km/h
3186 01-12-2010 21:00:00 -6.74 C 1.74 g/m*3 -6.74 C 0 km/h
3187 01-12-2010 22:00:00 -6.86 C 1.73 g/m*3 -6.86 C 0 km/h
3188 01-12-2010 23:00:00 -7.06 C 1.77 g/m*3 -7.06 C 0 km/h
3189 02-12-2010 00:00:00 -7.14 C 1.81 g/m*3 -7.14 C 0 km/h
3190 02-12-2010 01:00:00 -7.12 C 1.79 g/m*3 -7.12 C 0 km/h
3191 02-12-2010 02:00:00 -7.28 C 1.71 g/m*3 -7.28 C 0 km/h
3192 02-12-2010 03:00:00 -7.32 C 1.74 g/m*3 -7.32 C 0 km/h
3193 02-12-2010 04:00:00 -7.5 C 1.78 g/m*3 -7.5 C 0 km/h
3194 02-12-2010 05:00:00 -7.64 C 1.79 g/m*3 -7.64 C 0 km/h
3195 02-12-2010 06:00:00 -7.76 C 1.84 g/m*3 -7.76 C 0 km/h
3196 02-12-2010 07:00:00 -7.72 C 1.89 g/m*3 -7.72 C 0 km/h
3197 02-12-2010 08:00:00 -7.7 C 1.87 g/m*3 -7.7 C 0 km/h
3198 02-12-2010 09:00:00 -7.1 C 1.96 g/m*3 -7.1 C 0 km/h
3199 02-12-2010 10:00:00 -6.14 C 1.99 g/m*3 -6.14 C 0 km/h
3200 02-12-2010 11:00:00 -5.62 C 2.03 g/m*3 -5.62 C 0 km/h
Sensor: Nr:Datum:Temp:Abs-Feuchte:Windchill:Wind:
Aussen-T/F 3201 02-12-2010 12:00:00 -6.08 C 2.05 g/m*3 -6.08 C 0 km/h
3202 02-12-2010 13:00:00 -5.3 C 2.15 g/m*3 -5.3 C 0 km/h
3203 02-12-2010 14:00:00 -5.6 C 2.16 g/m*3 -5.6 C 0 km/h